<?xml version="1.0" encoding="UTF-8" standalone="no" ?>
<gpx xmlns="http://www.topografix.com/GPX/1/1" xmlns:xsi="http://www.w3.org/2001/XMLSchema-instance" xsi:schemaLocation="http://www.topografix.com/GPX/1/1 http://www.topografix.com/GPX/1/1/gpx.xsd" version="1.1" creator="VisuGPX - https://www.visugpx.com">
  <metadata>
    <name>Enduro de Roubion 2018</name>
    <desc><![CDATA[Enduro de Roubion 1001 Sentiers 2018]]></desc>
  </metadata>
  <trk>
    <name><![CDATA[20180928104521-jKgme]]></name>
    <trkseg>
      <trkpt lat="44.08332" lon="7.0422">
        <ele>1425.3</ele>
        <time>2018-06-10T07:17:24Z</time>
      </trkpt>
      <trkpt lat="44.0835" lon="7.0423">
        <ele>1426</ele>
        <time>2018-06-10T07:17:29Z</time>
      </trkpt>
      <trkpt lat="44.0837" lon="7.0424">
        <ele>1426.7</ele>
        <time>2018-06-10T07:17:35Z</time>
      </trkpt>
      <trkpt lat="44.08391" lon="7.04247">
        <ele>1427.6</ele>
        <time>2018-06-10T07:17:41Z</time>
      </trkpt>
      <trkpt lat="44.08409" lon="7.04248">
        <ele>1428.3</ele>
        <time>2018-06-10T07:17:46Z</time>
      </trkpt>
      <trkpt lat="44.0843" lon="7.04249">
        <ele>1429.2</ele>
        <time>2018-06-10T07:17:52Z</time>
      </trkpt>
      <trkpt lat="44.0845" lon="7.0425">
        <ele>1429.8</ele>
        <time>2018-06-10T07:17:58Z</time>
      </trkpt>
      <trkpt lat="44.08472" lon="7.04252">
        <ele>1430.4</ele>
        <time>2018-06-10T07:18:04Z</time>
      </trkpt>
      <trkpt lat="44.08491" lon="7.04257">
        <ele>1431.3</ele>
        <time>2018-06-10T07:18:10Z</time>
      </trkpt>
      <trkpt lat="44.08511" lon="7.04266">
        <ele>1431.9</ele>
        <time>2018-06-10T07:18:16Z</time>
      </trkpt>
      <trkpt lat="44.0853" lon="7.04278">
        <ele>1432.7</ele>
        <time>2018-06-10T07:18:22Z</time>
      </trkpt>
      <trkpt lat="44.08549" lon="7.0429">
        <ele>1433.3</ele>
        <time>2018-06-10T07:18:28Z</time>
      </trkpt>
      <trkpt lat="44.0857" lon="7.04294">
        <ele>1434</ele>
        <time>2018-06-10T07:18:34Z</time>
      </trkpt>
      <trkpt lat="44.0859" lon="7.04298">
        <ele>1434.7</ele>
        <time>2018-06-10T07:18:40Z</time>
      </trkpt>
      <trkpt lat="44.08609" lon="7.04299">
        <ele>1435.7</ele>
        <time>2018-06-10T07:18:46Z</time>
      </trkpt>
      <trkpt lat="44.08627" lon="7.04298">
        <ele>1436.5</ele>
        <time>2018-06-10T07:18:51Z</time>
      </trkpt>
      <trkpt lat="44.08645" lon="7.04301">
        <ele>1437.5</ele>
        <time>2018-06-10T07:18:56Z</time>
      </trkpt>
      <trkpt lat="44.08661" lon="7.04314">
        <ele>1438.3</ele>
        <time>2018-06-10T07:19:01Z</time>
      </trkpt>
      <trkpt lat="44.08679" lon="7.0433">
        <ele>1439.2</ele>
        <time>2018-06-10T07:19:07Z</time>
      </trkpt>
      <trkpt lat="44.08697" lon="7.04345">
        <ele>1440.2</ele>
        <time>2018-06-10T07:19:13Z</time>
      </trkpt>
      <trkpt lat="44.08712" lon="7.04358">
        <ele>1440.9</ele>
        <time>2018-06-10T07:19:18Z</time>
      </trkpt>
      <trkpt lat="44.08729" lon="7.04374">
        <ele>1441.6</ele>
        <time>2018-06-10T07:19:24Z</time>
      </trkpt>
      <trkpt lat="44.08748" lon="7.04381">
        <ele>1441.9</ele>
        <time>2018-06-10T07:19:30Z</time>
      </trkpt>
      <trkpt lat="44.08767" lon="7.04378">
        <ele>1442</ele>
        <time>2018-06-10T07:19:36Z</time>
      </trkpt>
      <trkpt lat="44.08781" lon="7.0436">
        <ele>1444.4</ele>
        <time>2018-06-10T07:19:42Z</time>
      </trkpt>
      <trkpt lat="44.08788" lon="7.04335">
        <ele>1447.5</ele>
        <time>2018-06-10T07:19:49Z</time>
      </trkpt>
      <trkpt lat="44.0879" lon="7.04308">
        <ele>1450.3</ele>
        <time>2018-06-10T07:19:57Z</time>
      </trkpt>
      <trkpt lat="44.08793" lon="7.04283">
        <ele>1452.8</ele>
        <time>2018-06-10T07:20:05Z</time>
      </trkpt>
      <trkpt lat="44.08796" lon="7.04256">
        <ele>1455.4</ele>
        <time>2018-06-10T07:20:13Z</time>
      </trkpt>
      <trkpt lat="44.08802" lon="7.04231">
        <ele>1457.9</ele>
        <time>2018-06-10T07:20:20Z</time>
      </trkpt>
      <trkpt lat="44.08809" lon="7.04207">
        <ele>1460.2</ele>
        <time>2018-06-10T07:20:28Z</time>
      </trkpt>
      <trkpt lat="44.08819" lon="7.04186">
        <ele>1462.4</ele>
        <time>2018-06-10T07:20:37Z</time>
      </trkpt>
      <trkpt lat="44.08825" lon="7.04161">
        <ele>1464.6</ele>
        <time>2018-06-10T07:20:47Z</time>
      </trkpt>
      <trkpt lat="44.0883" lon="7.04135">
        <ele>1466.8</ele>
        <time>2018-06-10T07:20:57Z</time>
      </trkpt>
      <trkpt lat="44.08833" lon="7.0411">
        <ele>1468.7</ele>
        <time>2018-06-10T07:21:07Z</time>
      </trkpt>
      <trkpt lat="44.08838" lon="7.04086">
        <ele>1470.7</ele>
        <time>2018-06-10T07:21:15Z</time>
      </trkpt>
      <trkpt lat="44.08843" lon="7.04061">
        <ele>1472.6</ele>
        <time>2018-06-10T07:21:23Z</time>
      </trkpt>
      <trkpt lat="44.0885" lon="7.04038">
        <ele>1474.5</ele>
        <time>2018-06-10T07:21:32Z</time>
      </trkpt>
      <trkpt lat="44.08858" lon="7.04012">
        <ele>1476.5</ele>
        <time>2018-06-10T07:21:42Z</time>
      </trkpt>
      <trkpt lat="44.08864" lon="7.03988">
        <ele>1478.4</ele>
        <time>2018-06-10T07:21:51Z</time>
      </trkpt>
      <trkpt lat="44.08867" lon="7.03963">
        <ele>1480.2</ele>
        <time>2018-06-10T07:22:00Z</time>
      </trkpt>
      <trkpt lat="44.08867" lon="7.03938">
        <ele>1482.1</ele>
        <time>2018-06-10T07:22:10Z</time>
      </trkpt>
      <trkpt lat="44.08867" lon="7.03912">
        <ele>1484.1</ele>
        <time>2018-06-10T07:22:20Z</time>
      </trkpt>
      <trkpt lat="44.08871" lon="7.03886">
        <ele>1486.1</ele>
        <time>2018-06-10T07:22:29Z</time>
      </trkpt>
      <trkpt lat="44.08876" lon="7.03861">
        <ele>1488</ele>
        <time>2018-06-10T07:22:37Z</time>
      </trkpt>
      <trkpt lat="44.08883" lon="7.03835">
        <ele>1490.2</ele>
        <time>2018-06-10T07:22:46Z</time>
      </trkpt>
      <trkpt lat="44.089" lon="7.03833">
        <ele>1491.5</ele>
        <time>2018-06-10T07:22:54Z</time>
      </trkpt>
      <trkpt lat="44.08905" lon="7.03856">
        <ele>1492.1</ele>
        <time>2018-06-10T07:23:02Z</time>
      </trkpt>
      <trkpt lat="44.08908" lon="7.03883">
        <ele>1492.8</ele>
        <time>2018-06-10T07:23:11Z</time>
      </trkpt>
      <trkpt lat="44.08915" lon="7.03906">
        <ele>1493.6</ele>
        <time>2018-06-10T07:23:20Z</time>
      </trkpt>
      <trkpt lat="44.08933" lon="7.03915">
        <ele>1494.6</ele>
        <time>2018-06-10T07:23:29Z</time>
      </trkpt>
      <trkpt lat="44.08951" lon="7.03918">
        <ele>1495.5</ele>
        <time>2018-06-10T07:23:38Z</time>
      </trkpt>
      <trkpt lat="44.08971" lon="7.03921">
        <ele>1496.4</ele>
        <time>2018-06-10T07:23:49Z</time>
      </trkpt>
      <trkpt lat="44.08988" lon="7.03913">
        <ele>1497.4</ele>
        <time>2018-06-10T07:24:00Z</time>
      </trkpt>
      <trkpt lat="44.09" lon="7.03895">
        <ele>1498.5</ele>
        <time>2018-06-10T07:24:09Z</time>
      </trkpt>
      <trkpt lat="44.09013" lon="7.03872">
        <ele>1499.5</ele>
        <time>2018-06-10T07:24:18Z</time>
      </trkpt>
      <trkpt lat="44.09022" lon="7.03851">
        <ele>1500.4</ele>
        <time>2018-06-10T07:24:27Z</time>
      </trkpt>
      <trkpt lat="44.09036" lon="7.03832">
        <ele>1501.3</ele>
        <time>2018-06-10T07:24:38Z</time>
      </trkpt>
      <trkpt lat="44.09051" lon="7.03815">
        <ele>1502.1</ele>
        <time>2018-06-10T07:24:48Z</time>
      </trkpt>
      <trkpt lat="44.09064" lon="7.03796">
        <ele>1502.9</ele>
        <time>2018-06-10T07:24:58Z</time>
      </trkpt>
      <trkpt lat="44.09075" lon="7.03775">
        <ele>1503.7</ele>
        <time>2018-06-10T07:25:07Z</time>
      </trkpt>
      <trkpt lat="44.09088" lon="7.03756">
        <ele>1504.6</ele>
        <time>2018-06-10T07:25:17Z</time>
      </trkpt>
      <trkpt lat="44.09101" lon="7.03735">
        <ele>1505.6</ele>
        <time>2018-06-10T07:25:27Z</time>
      </trkpt>
      <trkpt lat="44.09113" lon="7.03716">
        <ele>1506.4</ele>
        <time>2018-06-10T07:25:35Z</time>
      </trkpt>
      <trkpt lat="44.09126" lon="7.03697">
        <ele>1507</ele>
        <time>2018-06-10T07:25:43Z</time>
      </trkpt>
      <trkpt lat="44.09141" lon="7.03679">
        <ele>1507.5</ele>
        <time>2018-06-10T07:25:52Z</time>
      </trkpt>
      <trkpt lat="44.09157" lon="7.03666">
        <ele>1507.9</ele>
        <time>2018-06-10T07:26:00Z</time>
      </trkpt>
      <trkpt lat="44.09175" lon="7.03656">
        <ele>1509</ele>
        <time>2018-06-10T07:26:09Z</time>
      </trkpt>
      <trkpt lat="44.09193" lon="7.0365">
        <ele>1510.7</ele>
        <time>2018-06-10T07:26:19Z</time>
      </trkpt>
      <trkpt lat="44.0921" lon="7.03637">
        <ele>1512.6</ele>
        <time>2018-06-10T07:26:28Z</time>
      </trkpt>
      <trkpt lat="44.09224" lon="7.03618">
        <ele>1514.6</ele>
        <time>2018-06-10T07:26:36Z</time>
      </trkpt>
      <trkpt lat="44.09236" lon="7.03598">
        <ele>1516.4</ele>
        <time>2018-06-10T07:26:46Z</time>
      </trkpt>
      <trkpt lat="44.09252" lon="7.03587">
        <ele>1518.1</ele>
        <time>2018-06-10T07:26:55Z</time>
      </trkpt>
      <trkpt lat="44.09269" lon="7.03576">
        <ele>1519.7</ele>
        <time>2018-06-10T07:27:06Z</time>
      </trkpt>
      <trkpt lat="44.09286" lon="7.03566">
        <ele>1521.1</ele>
        <time>2018-06-10T07:27:15Z</time>
      </trkpt>
      <trkpt lat="44.09303" lon="7.03553">
        <ele>1522.5</ele>
        <time>2018-06-10T07:27:25Z</time>
      </trkpt>
      <trkpt lat="44.09319" lon="7.03543">
        <ele>1523.4</ele>
        <time>2018-06-10T07:27:34Z</time>
      </trkpt>
      <trkpt lat="44.09333" lon="7.03523">
        <ele>1524.7</ele>
        <time>2018-06-10T07:27:43Z</time>
      </trkpt>
      <trkpt lat="44.09341" lon="7.03498">
        <ele>1525.9</ele>
        <time>2018-06-10T07:27:52Z</time>
      </trkpt>
      <trkpt lat="44.09345" lon="7.03471">
        <ele>1527.3</ele>
        <time>2018-06-10T07:28:00Z</time>
      </trkpt>
      <trkpt lat="44.09352" lon="7.03444">
        <ele>1527.9</ele>
        <time>2018-06-10T07:28:06Z</time>
      </trkpt>
      <trkpt lat="44.09357" lon="7.03417">
        <ele>1527</ele>
        <time>2018-06-10T07:28:11Z</time>
      </trkpt>
      <trkpt lat="44.09361" lon="7.03389">
        <ele>1527.8</ele>
        <time>2018-06-10T07:28:17Z</time>
      </trkpt>
      <trkpt lat="44.09363" lon="7.03363">
        <ele>1529.3</ele>
        <time>2018-06-10T07:28:23Z</time>
      </trkpt>
      <trkpt lat="44.09367" lon="7.03335">
        <ele>1530.5</ele>
        <time>2018-06-10T07:28:29Z</time>
      </trkpt>
      <trkpt lat="44.09374" lon="7.03309">
        <ele>1530.7</ele>
        <time>2018-06-10T07:28:34Z</time>
      </trkpt>
      <trkpt lat="44.09383" lon="7.03286">
        <ele>1530.7</ele>
        <time>2018-06-10T07:28:39Z</time>
      </trkpt>
      <trkpt lat="44.09393" lon="7.03259">
        <ele>1528.6</ele>
        <time>2018-06-10T07:28:44Z</time>
      </trkpt>
      <trkpt lat="44.09401" lon="7.03235">
        <ele>1527.2</ele>
        <time>2018-06-10T07:28:48Z</time>
      </trkpt>
      <trkpt lat="44.09405" lon="7.0321">
        <ele>1527.8</ele>
        <time>2018-06-10T07:28:52Z</time>
      </trkpt>
      <trkpt lat="44.09409" lon="7.03183">
        <ele>1528.4</ele>
        <time>2018-06-10T07:28:56Z</time>
      </trkpt>
      <trkpt lat="44.09411" lon="7.03176">
        <ele>1528.5</ele>
        <time>2018-06-10T07:28:57Z</time>
      </trkpt>
      <trkpt lat="44.09414" lon="7.03147">
        <ele>1528.6</ele>
        <time>2018-06-10T07:29:01Z</time>
      </trkpt>
      <trkpt lat="44.09418" lon="7.03118">
        <ele>1530</ele>
        <time>2018-06-10T07:29:05Z</time>
      </trkpt>
      <trkpt lat="44.09423" lon="7.0309">
        <ele>1530.9</ele>
        <time>2018-06-10T07:29:09Z</time>
      </trkpt>
      <trkpt lat="44.09427" lon="7.03065">
        <ele>1531.2</ele>
        <time>2018-06-10T07:29:13Z</time>
      </trkpt>
      <trkpt lat="44.09429" lon="7.03053">
        <ele>1531.6</ele>
        <time>2018-06-10T07:29:15Z</time>
      </trkpt>
      <trkpt lat="44.09432" lon="7.03024">
        <ele>1531.4</ele>
        <time>2018-06-10T07:29:20Z</time>
      </trkpt>
      <trkpt lat="44.09442" lon="7.03">
        <ele>1531.3</ele>
        <time>2018-06-10T07:29:24Z</time>
      </trkpt>
      <trkpt lat="44.09452" lon="7.02978">
        <ele>1530.7</ele>
        <time>2018-06-10T07:29:28Z</time>
      </trkpt>
      <trkpt lat="44.09462" lon="7.02955">
        <ele>1530.3</ele>
        <time>2018-06-10T07:29:32Z</time>
      </trkpt>
      <trkpt lat="44.0947" lon="7.02937">
        <ele>1530.8</ele>
        <time>2018-06-10T07:29:35Z</time>
      </trkpt>
      <trkpt lat="44.09489" lon="7.02931">
        <ele>1530.3</ele>
        <time>2018-06-10T07:29:39Z</time>
      </trkpt>
      <trkpt lat="44.09499" lon="7.02954">
        <ele>1528.8</ele>
        <time>2018-06-10T07:29:43Z</time>
      </trkpt>
      <trkpt lat="44.09499" lon="7.02961">
        <ele>1528.3</ele>
        <time>2018-06-10T07:29:44Z</time>
      </trkpt>
      <trkpt lat="44.09499" lon="7.02967">
        <ele>1527.7</ele>
        <time>2018-06-10T07:29:45Z</time>
      </trkpt>
      <trkpt lat="44.09495" lon="7.02992">
        <ele>1524.5</ele>
        <time>2018-06-10T07:29:49Z</time>
      </trkpt>
      <trkpt lat="44.09494" lon="7.03005">
        <ele>1522.9</ele>
        <time>2018-06-10T07:29:51Z</time>
      </trkpt>
      <trkpt lat="44.09498" lon="7.0303">
        <ele>1520.8</ele>
        <time>2018-06-10T07:29:55Z</time>
      </trkpt>
      <trkpt lat="44.095" lon="7.03035">
        <ele>1520.5</ele>
        <time>2018-06-10T07:29:56Z</time>
      </trkpt>
      <trkpt lat="44.09509" lon="7.03057">
        <ele>1519.2</ele>
        <time>2018-06-10T07:30:00Z</time>
      </trkpt>
      <trkpt lat="44.09515" lon="7.03083">
        <ele>1516.7</ele>
        <time>2018-06-10T07:30:04Z</time>
      </trkpt>
      <trkpt lat="44.0952" lon="7.03107">
        <ele>1514.2</ele>
        <time>2018-06-10T07:30:08Z</time>
      </trkpt>
      <trkpt lat="44.09528" lon="7.0313">
        <ele>1514</ele>
        <time>2018-06-10T07:30:12Z</time>
      </trkpt>
      <trkpt lat="44.09535" lon="7.03153">
        <ele>1513.4</ele>
        <time>2018-06-10T07:30:16Z</time>
      </trkpt>
      <trkpt lat="44.09542" lon="7.03183">
        <ele>1511.4</ele>
        <time>2018-06-10T07:30:21Z</time>
      </trkpt>
      <trkpt lat="44.09543" lon="7.03209">
        <ele>1507.5</ele>
        <time>2018-06-10T07:30:25Z</time>
      </trkpt>
      <trkpt lat="44.09543" lon="7.03235">
        <ele>1503.7</ele>
        <time>2018-06-10T07:30:29Z</time>
      </trkpt>
      <trkpt lat="44.09544" lon="7.03255">
        <ele>1499.3</ele>
        <time>2018-06-10T07:30:32Z</time>
      </trkpt>
      <trkpt lat="44.09549" lon="7.0328">
        <ele>1498.7</ele>
        <time>2018-06-10T07:30:36Z</time>
      </trkpt>
      <trkpt lat="44.09554" lon="7.03304">
        <ele>1496.2</ele>
        <time>2018-06-10T07:30:40Z</time>
      </trkpt>
      <trkpt lat="44.0957" lon="7.03324">
        <ele>1494</ele>
        <time>2018-06-10T07:30:45Z</time>
      </trkpt>
      <trkpt lat="44.09587" lon="7.03326">
        <ele>1496.8</ele>
        <time>2018-06-10T07:30:49Z</time>
      </trkpt>
      <trkpt lat="44.09608" lon="7.03325">
        <ele>1504.3</ele>
        <time>2018-06-10T07:30:53Z</time>
      </trkpt>
      <trkpt lat="44.09614" lon="7.03323">
        <ele>1505.4</ele>
        <time>2018-06-10T07:30:54Z</time>
      </trkpt>
      <trkpt lat="44.09625" lon="7.03318">
        <ele>1507.8</ele>
        <time>2018-06-10T07:30:56Z</time>
      </trkpt>
      <trkpt lat="44.09644" lon="7.03313">
        <ele>1514.7</ele>
        <time>2018-06-10T07:31:00Z</time>
      </trkpt>
      <trkpt lat="44.09667" lon="7.03303">
        <ele>1519.1</ele>
        <time>2018-06-10T07:31:04Z</time>
      </trkpt>
      <trkpt lat="44.09685" lon="7.03299">
        <ele>1519.1</ele>
        <time>2018-06-10T07:31:07Z</time>
      </trkpt>
      <trkpt lat="44.09705" lon="7.03292">
        <ele>1517.8</ele>
        <time>2018-06-10T07:31:10Z</time>
      </trkpt>
      <trkpt lat="44.09712" lon="7.03289">
        <ele>1517.2</ele>
        <time>2018-06-10T07:31:11Z</time>
      </trkpt>
      <trkpt lat="44.0973" lon="7.03276">
        <ele>1519.8</ele>
        <time>2018-06-10T07:31:14Z</time>
      </trkpt>
      <trkpt lat="44.09742" lon="7.03267">
        <ele>1522</ele>
        <time>2018-06-10T07:31:16Z</time>
      </trkpt>
      <trkpt lat="44.09759" lon="7.03273">
        <ele>1522.4</ele>
        <time>2018-06-10T07:31:19Z</time>
      </trkpt>
      <trkpt lat="44.09759" lon="7.03302">
        <ele>1518.7</ele>
        <time>2018-06-10T07:31:23Z</time>
      </trkpt>
      <trkpt lat="44.09751" lon="7.03329">
        <ele>1514.1</ele>
        <time>2018-06-10T07:31:28Z</time>
      </trkpt>
      <trkpt lat="44.09741" lon="7.03357">
        <ele>1509.6</ele>
        <time>2018-06-10T07:31:34Z</time>
      </trkpt>
      <trkpt lat="44.09734" lon="7.03384">
        <ele>1504.4</ele>
        <time>2018-06-10T07:31:39Z</time>
      </trkpt>
      <trkpt lat="44.09729" lon="7.03409">
        <ele>1500.4</ele>
        <time>2018-06-10T07:31:44Z</time>
      </trkpt>
      <trkpt lat="44.09726" lon="7.03433">
        <ele>1498.6</ele>
        <time>2018-06-10T07:31:49Z</time>
      </trkpt>
      <trkpt lat="44.0973" lon="7.03461">
        <ele>1496</ele>
        <time>2018-06-10T07:31:57Z</time>
      </trkpt>
      <trkpt lat="44.09734" lon="7.03472">
        <ele>1495.3</ele>
        <time>2018-06-10T07:32:01Z</time>
      </trkpt>
      <trkpt lat="44.09751" lon="7.03485">
        <ele>1501.9</ele>
        <time>2018-06-10T07:32:10Z</time>
      </trkpt>
      <trkpt lat="44.09768" lon="7.03497">
        <ele>1508.2</ele>
        <time>2018-06-10T07:32:19Z</time>
      </trkpt>
      <trkpt lat="44.09786" lon="7.03509">
        <ele>1514.5</ele>
        <time>2018-06-10T07:32:27Z</time>
      </trkpt>
      <trkpt lat="44.09807" lon="7.03513">
        <ele>1517.8</ele>
        <time>2018-06-10T07:32:34Z</time>
      </trkpt>
      <trkpt lat="44.09828" lon="7.03515">
        <ele>1519.7</ele>
        <time>2018-06-10T07:32:42Z</time>
      </trkpt>
      <trkpt lat="44.09845" lon="7.03505">
        <ele>1521.4</ele>
        <time>2018-06-10T07:32:49Z</time>
      </trkpt>
      <trkpt lat="44.09865" lon="7.03497">
        <ele>1522.8</ele>
        <time>2018-06-10T07:32:56Z</time>
      </trkpt>
      <trkpt lat="44.09882" lon="7.03493">
        <ele>1524.6</ele>
        <time>2018-06-10T07:33:02Z</time>
      </trkpt>
      <trkpt lat="44.09902" lon="7.0349">
        <ele>1527.4</ele>
        <time>2018-06-10T07:33:09Z</time>
      </trkpt>
      <trkpt lat="44.09911" lon="7.03509">
        <ele>1526.3</ele>
        <time>2018-06-10T07:33:16Z</time>
      </trkpt>
      <trkpt lat="44.09901" lon="7.03532">
        <ele>1523.2</ele>
        <time>2018-06-10T07:33:23Z</time>
      </trkpt>
      <trkpt lat="44.09891" lon="7.03553">
        <ele>1520.7</ele>
        <time>2018-06-10T07:33:29Z</time>
      </trkpt>
      <trkpt lat="44.09881" lon="7.03578">
        <ele>1519.8</ele>
        <time>2018-06-10T07:33:35Z</time>
      </trkpt>
      <trkpt lat="44.09874" lon="7.03602">
        <ele>1520.2</ele>
        <time>2018-06-10T07:33:41Z</time>
      </trkpt>
      <trkpt lat="44.09864" lon="7.03625">
        <ele>1520.9</ele>
        <time>2018-06-10T07:33:49Z</time>
      </trkpt>
      <trkpt lat="44.09852" lon="7.03648">
        <ele>1521.4</ele>
        <time>2018-06-10T07:33:56Z</time>
      </trkpt>
      <trkpt lat="44.09842" lon="7.03668">
        <ele>1522.3</ele>
        <time>2018-06-10T07:34:05Z</time>
      </trkpt>
      <trkpt lat="44.09829" lon="7.03687">
        <ele>1522.9</ele>
        <time>2018-06-10T07:34:16Z</time>
      </trkpt>
      <trkpt lat="44.09818" lon="7.03711">
        <ele>1526.3</ele>
        <time>2018-06-10T07:34:26Z</time>
      </trkpt>
      <trkpt lat="44.09817" lon="7.0372">
        <ele>1527.8</ele>
        <time>2018-06-10T07:34:29Z</time>
      </trkpt>
      <trkpt lat="44.09805" lon="7.03735">
        <ele>1530.1</ele>
        <time>2018-06-10T07:34:39Z</time>
      </trkpt>
      <trkpt lat="44.09803" lon="7.03736">
        <ele>1529.7</ele>
        <time>2018-06-10T07:34:40Z</time>
      </trkpt>
      <trkpt lat="44.09786" lon="7.03746">
        <ele>1525.4</ele>
        <time>2018-06-10T07:34:52Z</time>
      </trkpt>
      <trkpt lat="44.0977" lon="7.03759">
        <ele>1521.9</ele>
        <time>2018-06-10T07:35:04Z</time>
      </trkpt>
      <trkpt lat="44.09757" lon="7.03776">
        <ele>1522.5</ele>
        <time>2018-06-10T07:35:15Z</time>
      </trkpt>
      <trkpt lat="44.09742" lon="7.03793">
        <ele>1520.4</ele>
        <time>2018-06-10T07:35:24Z</time>
      </trkpt>
      <trkpt lat="44.09728" lon="7.0381">
        <ele>1519.4</ele>
        <time>2018-06-10T07:35:34Z</time>
      </trkpt>
      <trkpt lat="44.09712" lon="7.03823">
        <ele>1520.3</ele>
        <time>2018-06-10T07:35:43Z</time>
      </trkpt>
      <trkpt lat="44.097" lon="7.03843">
        <ele>1521.6</ele>
        <time>2018-06-10T07:35:53Z</time>
      </trkpt>
      <trkpt lat="44.09685" lon="7.03862">
        <ele>1522.9</ele>
        <time>2018-06-10T07:36:03Z</time>
      </trkpt>
      <trkpt lat="44.09676" lon="7.03886">
        <ele>1528.4</ele>
        <time>2018-06-10T07:36:12Z</time>
      </trkpt>
      <trkpt lat="44.09675" lon="7.03912">
        <ele>1537.4</ele>
        <time>2018-06-10T07:36:21Z</time>
      </trkpt>
      <trkpt lat="44.09676" lon="7.03938">
        <ele>1545.9</ele>
        <time>2018-06-10T07:36:30Z</time>
      </trkpt>
      <trkpt lat="44.09669" lon="7.03961">
        <ele>1554.3</ele>
        <time>2018-06-10T07:36:40Z</time>
      </trkpt>
      <trkpt lat="44.09653" lon="7.03977">
        <ele>1552.2</ele>
        <time>2018-06-10T07:36:51Z</time>
      </trkpt>
      <trkpt lat="44.09645" lon="7.04001">
        <ele>1549.7</ele>
        <time>2018-06-10T07:37:01Z</time>
      </trkpt>
      <trkpt lat="44.09635" lon="7.04022">
        <ele>1549.2</ele>
        <time>2018-06-10T07:37:10Z</time>
      </trkpt>
      <trkpt lat="44.09624" lon="7.04042">
        <ele>1549.6</ele>
        <time>2018-06-10T07:37:19Z</time>
      </trkpt>
      <trkpt lat="44.09611" lon="7.04061">
        <ele>1548.8</ele>
        <time>2018-06-10T07:37:28Z</time>
      </trkpt>
      <trkpt lat="44.09601" lon="7.04082">
        <ele>1548.7</ele>
        <time>2018-06-10T07:37:38Z</time>
      </trkpt>
      <trkpt lat="44.0959" lon="7.04101">
        <ele>1549.7</ele>
        <time>2018-06-10T07:37:49Z</time>
      </trkpt>
      <trkpt lat="44.0958" lon="7.04122">
        <ele>1553.7</ele>
        <time>2018-06-10T07:38:01Z</time>
      </trkpt>
      <trkpt lat="44.0957" lon="7.04144">
        <ele>1557</ele>
        <time>2018-06-10T07:38:11Z</time>
      </trkpt>
      <trkpt lat="44.09563" lon="7.04167">
        <ele>1561.4</ele>
        <time>2018-06-10T07:38:21Z</time>
      </trkpt>
      <trkpt lat="44.09555" lon="7.04192">
        <ele>1566.4</ele>
        <time>2018-06-10T07:38:32Z</time>
      </trkpt>
      <trkpt lat="44.09545" lon="7.04217">
        <ele>1572.2</ele>
        <time>2018-06-10T07:38:42Z</time>
      </trkpt>
      <trkpt lat="44.09546" lon="7.04221">
        <ele>1573.8</ele>
        <time>2018-06-10T07:38:44Z</time>
      </trkpt>
      <trkpt lat="44.09556" lon="7.04205">
        <ele>1575.7</ele>
        <time>2018-06-10T07:38:55Z</time>
      </trkpt>
      <trkpt lat="44.09557" lon="7.04199">
        <ele>1574.5</ele>
        <time>2018-06-10T07:38:57Z</time>
      </trkpt>
      <trkpt lat="44.09568" lon="7.04178">
        <ele>1569.1</ele>
        <time>2018-06-10T07:39:07Z</time>
      </trkpt>
      <trkpt lat="44.09581" lon="7.04158">
        <ele>1565.8</ele>
        <time>2018-06-10T07:39:18Z</time>
      </trkpt>
      <trkpt lat="44.09596" lon="7.04143">
        <ele>1563.5</ele>
        <time>2018-06-10T07:39:28Z</time>
      </trkpt>
      <trkpt lat="44.09612" lon="7.04129">
        <ele>1562</ele>
        <time>2018-06-10T07:39:38Z</time>
      </trkpt>
      <trkpt lat="44.09627" lon="7.04113">
        <ele>1561.7</ele>
        <time>2018-06-10T07:39:48Z</time>
      </trkpt>
      <trkpt lat="44.09642" lon="7.04098">
        <ele>1563.8</ele>
        <time>2018-06-10T07:39:58Z</time>
      </trkpt>
      <trkpt lat="44.09659" lon="7.04085">
        <ele>1566</ele>
        <time>2018-06-10T07:40:08Z</time>
      </trkpt>
      <trkpt lat="44.09675" lon="7.0407">
        <ele>1569</ele>
        <time>2018-06-10T07:40:19Z</time>
      </trkpt>
      <trkpt lat="44.09693" lon="7.04057">
        <ele>1572.9</ele>
        <time>2018-06-10T07:40:29Z</time>
      </trkpt>
      <trkpt lat="44.0971" lon="7.04045">
        <ele>1579.4</ele>
        <time>2018-06-10T07:40:40Z</time>
      </trkpt>
      <trkpt lat="44.09727" lon="7.04032">
        <ele>1585.6</ele>
        <time>2018-06-10T07:40:50Z</time>
      </trkpt>
      <trkpt lat="44.09728" lon="7.04031">
        <ele>1586.1</ele>
        <time>2018-06-10T07:40:51Z</time>
      </trkpt>
      <trkpt lat="44.09739" lon="7.04008">
        <ele>1589.4</ele>
        <time>2018-06-10T07:41:01Z</time>
      </trkpt>
      <trkpt lat="44.09749" lon="7.03984">
        <ele>1587.5</ele>
        <time>2018-06-10T07:41:11Z</time>
      </trkpt>
      <trkpt lat="44.09764" lon="7.03971">
        <ele>1586.4</ele>
        <time>2018-06-10T07:41:21Z</time>
      </trkpt>
      <trkpt lat="44.09781" lon="7.03958">
        <ele>1588.1</ele>
        <time>2018-06-10T07:41:30Z</time>
      </trkpt>
      <trkpt lat="44.09798" lon="7.03946">
        <ele>1588.8</ele>
        <time>2018-06-10T07:41:41Z</time>
      </trkpt>
      <trkpt lat="44.09816" lon="7.03937">
        <ele>1591.4</ele>
        <time>2018-06-10T07:41:51Z</time>
      </trkpt>
      <trkpt lat="44.09834" lon="7.03932">
        <ele>1593.8</ele>
        <time>2018-06-10T07:42:02Z</time>
      </trkpt>
      <trkpt lat="44.09852" lon="7.03922">
        <ele>1596.3</ele>
        <time>2018-06-10T07:42:11Z</time>
      </trkpt>
      <trkpt lat="44.09869" lon="7.03905">
        <ele>1596.6</ele>
        <time>2018-06-10T07:42:18Z</time>
      </trkpt>
      <trkpt lat="44.09884" lon="7.03888">
        <ele>1593.8</ele>
        <time>2018-06-10T07:42:27Z</time>
      </trkpt>
      <trkpt lat="44.099" lon="7.03875">
        <ele>1593</ele>
        <time>2018-06-10T07:42:35Z</time>
      </trkpt>
      <trkpt lat="44.09917" lon="7.03863">
        <ele>1591.8</ele>
        <time>2018-06-10T07:42:43Z</time>
      </trkpt>
      <trkpt lat="44.09935" lon="7.03852">
        <ele>1593.3</ele>
        <time>2018-06-10T07:42:52Z</time>
      </trkpt>
      <trkpt lat="44.09953" lon="7.03842">
        <ele>1595.1</ele>
        <time>2018-06-10T07:43:01Z</time>
      </trkpt>
      <trkpt lat="44.09969" lon="7.03832">
        <ele>1597.3</ele>
        <time>2018-06-10T07:43:10Z</time>
      </trkpt>
      <trkpt lat="44.09986" lon="7.03822">
        <ele>1600.2</ele>
        <time>2018-06-10T07:43:19Z</time>
      </trkpt>
      <trkpt lat="44.10003" lon="7.03806">
        <ele>1602.7</ele>
        <time>2018-06-10T07:43:29Z</time>
      </trkpt>
      <trkpt lat="44.10016" lon="7.0379">
        <ele>1604.3</ele>
        <time>2018-06-10T07:43:38Z</time>
      </trkpt>
      <trkpt lat="44.1003" lon="7.0377">
        <ele>1607.1</ele>
        <time>2018-06-10T07:43:48Z</time>
      </trkpt>
      <trkpt lat="44.10042" lon="7.0375">
        <ele>1608.2</ele>
        <time>2018-06-10T07:43:57Z</time>
      </trkpt>
      <trkpt lat="44.10054" lon="7.03729">
        <ele>1609.3</ele>
        <time>2018-06-10T07:44:07Z</time>
      </trkpt>
      <trkpt lat="44.10067" lon="7.03708">
        <ele>1611.2</ele>
        <time>2018-06-10T07:44:17Z</time>
      </trkpt>
      <trkpt lat="44.10077" lon="7.03687">
        <ele>1612.5</ele>
        <time>2018-06-10T07:44:26Z</time>
      </trkpt>
      <trkpt lat="44.10089" lon="7.03665">
        <ele>1614.5</ele>
        <time>2018-06-10T07:44:36Z</time>
      </trkpt>
      <trkpt lat="44.101" lon="7.03644">
        <ele>1616.5</ele>
        <time>2018-06-10T07:44:45Z</time>
      </trkpt>
      <trkpt lat="44.10113" lon="7.03627">
        <ele>1618.9</ele>
        <time>2018-06-10T07:44:54Z</time>
      </trkpt>
      <trkpt lat="44.10122" lon="7.03603">
        <ele>1620.9</ele>
        <time>2018-06-10T07:45:04Z</time>
      </trkpt>
      <trkpt lat="44.10129" lon="7.03578">
        <ele>1621.6</ele>
        <time>2018-06-10T07:45:14Z</time>
      </trkpt>
      <trkpt lat="44.10135" lon="7.03552">
        <ele>1622.8</ele>
        <time>2018-06-10T07:45:24Z</time>
      </trkpt>
      <trkpt lat="44.10138" lon="7.03526">
        <ele>1623.7</ele>
        <time>2018-06-10T07:45:34Z</time>
      </trkpt>
      <trkpt lat="44.1014" lon="7.03499">
        <ele>1624.1</ele>
        <time>2018-06-10T07:45:44Z</time>
      </trkpt>
      <trkpt lat="44.10145" lon="7.03473">
        <ele>1625.2</ele>
        <time>2018-06-10T07:45:54Z</time>
      </trkpt>
      <trkpt lat="44.10152" lon="7.03447">
        <ele>1626.6</ele>
        <time>2018-06-10T07:46:04Z</time>
      </trkpt>
      <trkpt lat="44.1016" lon="7.03423">
        <ele>1627.8</ele>
        <time>2018-06-10T07:46:14Z</time>
      </trkpt>
      <trkpt lat="44.10171" lon="7.034">
        <ele>1630.6</ele>
        <time>2018-06-10T07:46:25Z</time>
      </trkpt>
      <trkpt lat="44.10179" lon="7.03376">
        <ele>1632.7</ele>
        <time>2018-06-10T07:46:36Z</time>
      </trkpt>
      <trkpt lat="44.10188" lon="7.03351">
        <ele>1634.7</ele>
        <time>2018-06-10T07:46:47Z</time>
      </trkpt>
      <trkpt lat="44.10196" lon="7.03327">
        <ele>1637.5</ele>
        <time>2018-06-10T07:46:57Z</time>
      </trkpt>
      <trkpt lat="44.10201" lon="7.03301">
        <ele>1640.5</ele>
        <time>2018-06-10T07:47:07Z</time>
      </trkpt>
      <trkpt lat="44.10202" lon="7.03273">
        <ele>1640.8</ele>
        <time>2018-06-10T07:47:17Z</time>
      </trkpt>
      <trkpt lat="44.10201" lon="7.03248">
        <ele>1641.1</ele>
        <time>2018-06-10T07:47:26Z</time>
      </trkpt>
      <trkpt lat="44.10202" lon="7.03223">
        <ele>1642.3</ele>
        <time>2018-06-10T07:47:35Z</time>
      </trkpt>
      <trkpt lat="44.10204" lon="7.03197">
        <ele>1645.2</ele>
        <time>2018-06-10T07:47:44Z</time>
      </trkpt>
      <trkpt lat="44.10204" lon="7.03172">
        <ele>1646.7</ele>
        <time>2018-06-10T07:47:53Z</time>
      </trkpt>
      <trkpt lat="44.102" lon="7.03146">
        <ele>1646.8</ele>
        <time>2018-06-10T07:48:03Z</time>
      </trkpt>
      <trkpt lat="44.10195" lon="7.0312">
        <ele>1646.7</ele>
        <time>2018-06-10T07:48:13Z</time>
      </trkpt>
      <trkpt lat="44.1019" lon="7.03095">
        <ele>1646.1</ele>
        <time>2018-06-10T07:48:23Z</time>
      </trkpt>
      <trkpt lat="44.10187" lon="7.0307">
        <ele>1644.8</ele>
        <time>2018-06-10T07:48:32Z</time>
      </trkpt>
      <trkpt lat="44.10187" lon="7.03044">
        <ele>1643.3</ele>
        <time>2018-06-10T07:48:41Z</time>
      </trkpt>
      <trkpt lat="44.10189" lon="7.03017">
        <ele>1644.1</ele>
        <time>2018-06-10T07:48:49Z</time>
      </trkpt>
      <trkpt lat="44.10195" lon="7.02991">
        <ele>1645.7</ele>
        <time>2018-06-10T07:48:57Z</time>
      </trkpt>
      <trkpt lat="44.10199" lon="7.02965">
        <ele>1648.2</ele>
        <time>2018-06-10T07:49:05Z</time>
      </trkpt>
      <trkpt lat="44.10204" lon="7.02939">
        <ele>1648.3</ele>
        <time>2018-06-10T07:49:13Z</time>
      </trkpt>
      <trkpt lat="44.10209" lon="7.0293">
        <ele>1651.2</ele>
        <time>2018-06-10T07:49:18Z</time>
      </trkpt>
      <trkpt lat="44.1021" lon="7.02937">
        <ele>1651.7</ele>
        <time>2018-06-10T07:49:22Z</time>
      </trkpt>
      <trkpt lat="44.10207" lon="7.02963">
        <ele>1652.7</ele>
        <time>2018-06-10T07:49:32Z</time>
      </trkpt>
      <trkpt lat="44.10207" lon="7.02989">
        <ele>1653.3</ele>
        <time>2018-06-10T07:49:44Z</time>
      </trkpt>
      <trkpt lat="44.10209" lon="7.03015">
        <ele>1653.9</ele>
        <time>2018-06-10T07:49:54Z</time>
      </trkpt>
      <trkpt lat="44.10218" lon="7.03038">
        <ele>1658.4</ele>
        <time>2018-06-10T07:50:06Z</time>
      </trkpt>
      <trkpt lat="44.10226" lon="7.0306">
        <ele>1662.9</ele>
        <time>2018-06-10T07:50:16Z</time>
      </trkpt>
      <trkpt lat="44.10234" lon="7.03083">
        <ele>1666.9</ele>
        <time>2018-06-10T07:50:27Z</time>
      </trkpt>
      <trkpt lat="44.10242" lon="7.03106">
        <ele>1668.2</ele>
        <time>2018-06-10T07:50:37Z</time>
      </trkpt>
      <trkpt lat="44.10251" lon="7.03129">
        <ele>1670.8</ele>
        <time>2018-06-10T07:50:48Z</time>
      </trkpt>
      <trkpt lat="44.1026" lon="7.03153">
        <ele>1672.3</ele>
        <time>2018-06-10T07:51:00Z</time>
      </trkpt>
      <trkpt lat="44.10273" lon="7.03172">
        <ele>1675.4</ele>
        <time>2018-06-10T07:51:11Z</time>
      </trkpt>
      <trkpt lat="44.1029" lon="7.03186">
        <ele>1679.8</ele>
        <time>2018-06-10T07:51:21Z</time>
      </trkpt>
      <trkpt lat="44.10304" lon="7.03205">
        <ele>1682.2</ele>
        <time>2018-06-10T07:51:30Z</time>
      </trkpt>
      <trkpt lat="44.10316" lon="7.03226">
        <ele>1684.3</ele>
        <time>2018-06-10T07:51:38Z</time>
      </trkpt>
      <trkpt lat="44.10329" lon="7.03247">
        <ele>1684.9</ele>
        <time>2018-06-10T07:51:46Z</time>
      </trkpt>
      <trkpt lat="44.10341" lon="7.03267">
        <ele>1686</ele>
        <time>2018-06-10T07:51:53Z</time>
      </trkpt>
      <trkpt lat="44.10348" lon="7.03292">
        <ele>1685.3</ele>
        <time>2018-06-10T07:52:00Z</time>
      </trkpt>
      <trkpt lat="44.10348" lon="7.03321">
        <ele>1683.9</ele>
        <time>2018-06-10T07:52:07Z</time>
      </trkpt>
      <trkpt lat="44.10342" lon="7.03346">
        <ele>1680.2</ele>
        <time>2018-06-10T07:52:13Z</time>
      </trkpt>
      <trkpt lat="44.10334" lon="7.03372">
        <ele>1677.9</ele>
        <time>2018-06-10T07:52:19Z</time>
      </trkpt>
      <trkpt lat="44.10336" lon="7.03385">
        <ele>1678.3</ele>
        <time>2018-06-10T07:52:22Z</time>
      </trkpt>
      <trkpt lat="44.10351" lon="7.03373">
        <ele>1680.8</ele>
        <time>2018-06-10T07:52:35Z</time>
      </trkpt>
      <trkpt lat="44.10363" lon="7.03363">
        <ele>1682.8</ele>
        <time>2018-06-10T07:52:45Z</time>
      </trkpt>
      <trkpt lat="44.10372" lon="7.03351">
        <ele>1684.7</ele>
        <time>2018-06-10T07:52:52Z</time>
      </trkpt>
      <trkpt lat="44.10379" lon="7.03326">
        <ele>1688</ele>
        <time>2018-06-10T07:53:01Z</time>
      </trkpt>
      <trkpt lat="44.10381" lon="7.03301">
        <ele>1691.4</ele>
        <time>2018-06-10T07:53:09Z</time>
      </trkpt>
      <trkpt lat="44.10383" lon="7.03274">
        <ele>1694.8</ele>
        <time>2018-06-10T07:53:17Z</time>
      </trkpt>
      <trkpt lat="44.10385" lon="7.0325">
        <ele>1698.6</ele>
        <time>2018-06-10T07:53:25Z</time>
      </trkpt>
      <trkpt lat="44.10396" lon="7.03229">
        <ele>1701.4</ele>
        <time>2018-06-10T07:53:35Z</time>
      </trkpt>
      <trkpt lat="44.10408" lon="7.03208">
        <ele>1704</ele>
        <time>2018-06-10T07:53:45Z</time>
      </trkpt>
      <trkpt lat="44.10425" lon="7.03195">
        <ele>1704.9</ele>
        <time>2018-06-10T07:53:56Z</time>
      </trkpt>
      <trkpt lat="44.10438" lon="7.03177">
        <ele>1706.8</ele>
        <time>2018-06-10T07:54:06Z</time>
      </trkpt>
      <trkpt lat="44.10449" lon="7.03155">
        <ele>1710.1</ele>
        <time>2018-06-10T07:54:15Z</time>
      </trkpt>
      <trkpt lat="44.10459" lon="7.0313">
        <ele>1716.4</ele>
        <time>2018-06-10T07:54:23Z</time>
      </trkpt>
      <trkpt lat="44.10474" lon="7.03114">
        <ele>1718.5</ele>
        <time>2018-06-10T07:54:32Z</time>
      </trkpt>
      <trkpt lat="44.10491" lon="7.0311">
        <ele>1716.1</ele>
        <time>2018-06-10T07:54:43Z</time>
      </trkpt>
      <trkpt lat="44.1051" lon="7.03109">
        <ele>1714.6</ele>
        <time>2018-06-10T07:54:56Z</time>
      </trkpt>
      <trkpt lat="44.10528" lon="7.031">
        <ele>1714.6</ele>
        <time>2018-06-10T07:55:06Z</time>
      </trkpt>
      <trkpt lat="44.10545" lon="7.03092">
        <ele>1717.2</ele>
        <time>2018-06-10T07:55:16Z</time>
      </trkpt>
      <trkpt lat="44.10557" lon="7.03085">
        <ele>1719.5</ele>
        <time>2018-06-10T07:55:25Z</time>
      </trkpt>
      <trkpt lat="44.10562" lon="7.03085">
        <ele>1719.8</ele>
        <time>2018-06-10T07:55:28Z</time>
      </trkpt>
      <trkpt lat="44.10596" lon="7.03062">
        <ele>1729.5</ele>
        <time>2018-06-10T07:55:52Z</time>
      </trkpt>
      <trkpt lat="44.10609" lon="7.03044">
        <ele>1733.9</ele>
        <time>2018-06-10T07:56:04Z</time>
      </trkpt>
      <trkpt lat="44.10621" lon="7.03024">
        <ele>1739.4</ele>
        <time>2018-06-10T07:56:16Z</time>
      </trkpt>
      <trkpt lat="44.10628" lon="7.02998">
        <ele>1743.9</ele>
        <time>2018-06-10T07:56:25Z</time>
      </trkpt>
      <trkpt lat="44.10627" lon="7.02972">
        <ele>1747.2</ele>
        <time>2018-06-10T07:56:34Z</time>
      </trkpt>
      <trkpt lat="44.10635" lon="7.02952">
        <ele>1749.5</ele>
        <time>2018-06-10T07:56:44Z</time>
      </trkpt>
      <trkpt lat="44.10654" lon="7.02955">
        <ele>1752</ele>
        <time>2018-06-10T07:56:56Z</time>
      </trkpt>
      <trkpt lat="44.10669" lon="7.02973">
        <ele>1756.2</ele>
        <time>2018-06-10T07:57:14Z</time>
      </trkpt>
      <trkpt lat="44.10679" lon="7.02975">
        <ele>1758</ele>
        <time>2018-06-10T07:57:21Z</time>
      </trkpt>
      <trkpt lat="44.10685" lon="7.02982">
        <ele>1759</ele>
        <time>2018-06-10T07:57:26Z</time>
      </trkpt>
      <trkpt lat="44.10693" lon="7.02984">
        <ele>1760.1</ele>
        <time>2018-06-10T07:57:33Z</time>
      </trkpt>
      <trkpt lat="44.10697" lon="7.02987">
        <ele>1760.5</ele>
        <time>2018-06-10T07:57:37Z</time>
      </trkpt>
      <trkpt lat="44.10734" lon="7.02978">
        <ele>1766.1</ele>
        <time>2018-06-10T07:58:41Z</time>
      </trkpt>
      <trkpt lat="44.1073" lon="7.02953">
        <ele>1767.1</ele>
        <time>2018-06-10T07:58:53Z</time>
      </trkpt>
      <trkpt lat="44.10722" lon="7.02928">
        <ele>1767.1</ele>
        <time>2018-06-10T07:59:06Z</time>
      </trkpt>
      <trkpt lat="44.10714" lon="7.02903">
        <ele>1767.8</ele>
        <time>2018-06-10T07:59:19Z</time>
      </trkpt>
      <trkpt lat="44.10701" lon="7.02886">
        <ele>1768.2</ele>
        <time>2018-06-10T07:59:32Z</time>
      </trkpt>
      <trkpt lat="44.10686" lon="7.02871">
        <ele>1768</ele>
        <time>2018-06-10T07:59:45Z</time>
      </trkpt>
      <trkpt lat="44.10675" lon="7.02851">
        <ele>1767.3</ele>
        <time>2018-06-10T07:59:58Z</time>
      </trkpt>
      <trkpt lat="44.10668" lon="7.02828">
        <ele>1766.1</ele>
        <time>2018-06-10T08:00:09Z</time>
      </trkpt>
      <trkpt lat="44.1067" lon="7.02803">
        <ele>1765.2</ele>
        <time>2018-06-10T08:00:21Z</time>
      </trkpt>
      <trkpt lat="44.10679" lon="7.02799">
        <ele>1765</ele>
        <time>2018-06-10T08:00:26Z</time>
      </trkpt>
      <trkpt lat="44.10697" lon="7.02809">
        <ele>1765.5</ele>
        <time>2018-06-10T08:00:36Z</time>
      </trkpt>
      <trkpt lat="44.10714" lon="7.02821">
        <ele>1768.6</ele>
        <time>2018-06-10T08:00:44Z</time>
      </trkpt>
      <trkpt lat="44.10733" lon="7.02832">
        <ele>1772.4</ele>
        <time>2018-06-10T08:00:51Z</time>
      </trkpt>
      <trkpt lat="44.1075" lon="7.02842">
        <ele>1775.2</ele>
        <time>2018-06-10T08:01:00Z</time>
      </trkpt>
      <trkpt lat="44.10767" lon="7.02839">
        <ele>1777.4</ele>
        <time>2018-06-10T08:01:11Z</time>
      </trkpt>
      <trkpt lat="44.10784" lon="7.02826">
        <ele>1779.2</ele>
        <time>2018-06-10T08:01:21Z</time>
      </trkpt>
      <trkpt lat="44.10798" lon="7.02808">
        <ele>1780.1</ele>
        <time>2018-06-10T08:01:28Z</time>
      </trkpt>
      <trkpt lat="44.10812" lon="7.02794">
        <ele>1781.5</ele>
        <time>2018-06-10T08:01:40Z</time>
      </trkpt>
      <trkpt lat="44.10829" lon="7.02786">
        <ele>1782.2</ele>
        <time>2018-06-10T08:01:52Z</time>
      </trkpt>
      <trkpt lat="44.10846" lon="7.02773">
        <ele>1784.1</ele>
        <time>2018-06-10T08:02:02Z</time>
      </trkpt>
      <trkpt lat="44.10861" lon="7.02757">
        <ele>1786.9</ele>
        <time>2018-06-10T08:02:10Z</time>
      </trkpt>
      <trkpt lat="44.10872" lon="7.02737">
        <ele>1788.6</ele>
        <time>2018-06-10T08:02:18Z</time>
      </trkpt>
      <trkpt lat="44.10882" lon="7.02716">
        <ele>1790.4</ele>
        <time>2018-06-10T08:02:23Z</time>
      </trkpt>
      <trkpt lat="44.10889" lon="7.02703">
        <ele>1791.1</ele>
        <time>2018-06-10T08:02:25Z</time>
      </trkpt>
      <trkpt lat="44.109" lon="7.02684">
        <ele>1792.6</ele>
        <time>2018-06-10T08:02:28Z</time>
      </trkpt>
      <trkpt lat="44.10903" lon="7.02677">
        <ele>1793.3</ele>
        <time>2018-06-10T08:02:29Z</time>
      </trkpt>
      <trkpt lat="44.10908" lon="7.02652">
        <ele>1795.1</ele>
        <time>2018-06-10T08:02:33Z</time>
      </trkpt>
      <trkpt lat="44.1091" lon="7.02625">
        <ele>1797.2</ele>
        <time>2018-06-10T08:02:39Z</time>
      </trkpt>
      <trkpt lat="44.10913" lon="7.026">
        <ele>1799</ele>
        <time>2018-06-10T08:02:48Z</time>
      </trkpt>
      <trkpt lat="44.10919" lon="7.02576">
        <ele>1800.4</ele>
        <time>2018-06-10T08:02:57Z</time>
      </trkpt>
      <trkpt lat="44.10926" lon="7.02551">
        <ele>1801.6</ele>
        <time>2018-06-10T08:03:07Z</time>
      </trkpt>
      <trkpt lat="44.10934" lon="7.02528">
        <ele>1803.1</ele>
        <time>2018-06-10T08:03:17Z</time>
      </trkpt>
      <trkpt lat="44.10941" lon="7.02502">
        <ele>1805.2</ele>
        <time>2018-06-10T08:03:27Z</time>
      </trkpt>
      <trkpt lat="44.10945" lon="7.02476">
        <ele>1807</ele>
        <time>2018-06-10T08:03:36Z</time>
      </trkpt>
      <trkpt lat="44.10934" lon="7.02453">
        <ele>1807.8</ele>
        <time>2018-06-10T08:03:45Z</time>
      </trkpt>
      <trkpt lat="44.10921" lon="7.02433">
        <ele>1807.8</ele>
        <time>2018-06-10T08:03:54Z</time>
      </trkpt>
      <trkpt lat="44.10906" lon="7.02419">
        <ele>1809.1</ele>
        <time>2018-06-10T08:04:04Z</time>
      </trkpt>
      <trkpt lat="44.10899" lon="7.02395">
        <ele>1810.8</ele>
        <time>2018-06-10T08:04:16Z</time>
      </trkpt>
      <trkpt lat="44.10885" lon="7.02376">
        <ele>1813.6</ele>
        <time>2018-06-10T08:04:29Z</time>
      </trkpt>
      <trkpt lat="44.10883" lon="7.02372">
        <ele>1814.2</ele>
        <time>2018-06-10T08:04:33Z</time>
      </trkpt>
      <trkpt lat="44.10875" lon="7.02391">
        <ele>1812.9</ele>
        <time>2018-06-10T08:28:36Z</time>
      </trkpt>
      <trkpt lat="44.10883" lon="7.02421">
        <ele>1809.4</ele>
        <time>2018-06-10T08:28:39Z</time>
      </trkpt>
      <trkpt lat="44.10889" lon="7.02449">
        <ele>1806.6</ele>
        <time>2018-06-10T08:28:41Z</time>
      </trkpt>
      <trkpt lat="44.10897" lon="7.02476">
        <ele>1804.5</ele>
        <time>2018-06-10T08:28:43Z</time>
      </trkpt>
      <trkpt lat="44.10901" lon="7.02508">
        <ele>1803</ele>
        <time>2018-06-10T08:28:46Z</time>
      </trkpt>
      <trkpt lat="44.10898" lon="7.02517">
        <ele>1802.4</ele>
        <time>2018-06-10T08:28:47Z</time>
      </trkpt>
      <trkpt lat="44.10895" lon="7.02527">
        <ele>1801.8</ele>
        <time>2018-06-10T08:28:48Z</time>
      </trkpt>
      <trkpt lat="44.10895" lon="7.0256">
        <ele>1800.8</ele>
        <time>2018-06-10T08:28:51Z</time>
      </trkpt>
      <trkpt lat="44.10901" lon="7.02594">
        <ele>1800.2</ele>
        <time>2018-06-10T08:28:54Z</time>
      </trkpt>
      <trkpt lat="44.10905" lon="7.02629">
        <ele>1798.2</ele>
        <time>2018-06-10T08:28:57Z</time>
      </trkpt>
      <trkpt lat="44.10905" lon="7.02655">
        <ele>1796.2</ele>
        <time>2018-06-10T08:28:59Z</time>
      </trkpt>
      <trkpt lat="44.10901" lon="7.02681">
        <ele>1794.5</ele>
        <time>2018-06-10T08:29:01Z</time>
      </trkpt>
      <trkpt lat="44.10892" lon="7.02703">
        <ele>1792.6</ele>
        <time>2018-06-10T08:29:03Z</time>
      </trkpt>
      <trkpt lat="44.10877" lon="7.0273">
        <ele>1790.9</ele>
        <time>2018-06-10T08:29:06Z</time>
      </trkpt>
      <trkpt lat="44.10869" lon="7.02744">
        <ele>1789.8</ele>
        <time>2018-06-10T08:29:08Z</time>
      </trkpt>
      <trkpt lat="44.10853" lon="7.02764">
        <ele>1787.8</ele>
        <time>2018-06-10T08:29:11Z</time>
      </trkpt>
      <trkpt lat="44.10847" lon="7.0277">
        <ele>1787.3</ele>
        <time>2018-06-10T08:29:12Z</time>
      </trkpt>
      <trkpt lat="44.10827" lon="7.02788">
        <ele>1784.1</ele>
        <time>2018-06-10T08:29:15Z</time>
      </trkpt>
      <trkpt lat="44.10821" lon="7.02797">
        <ele>1783</ele>
        <time>2018-06-10T08:29:16Z</time>
      </trkpt>
      <trkpt lat="44.10809" lon="7.02818">
        <ele>1782.8</ele>
        <time>2018-06-10T08:29:18Z</time>
      </trkpt>
      <trkpt lat="44.108" lon="7.02841">
        <ele>1781.5</ele>
        <time>2018-06-10T08:29:20Z</time>
      </trkpt>
      <trkpt lat="44.10792" lon="7.02864">
        <ele>1780</ele>
        <time>2018-06-10T08:29:22Z</time>
      </trkpt>
      <trkpt lat="44.10783" lon="7.02888">
        <ele>1779.9</ele>
        <time>2018-06-10T08:29:24Z</time>
      </trkpt>
      <trkpt lat="44.10779" lon="7.02902">
        <ele>1779.7</ele>
        <time>2018-06-10T08:29:25Z</time>
      </trkpt>
      <trkpt lat="44.10778" lon="7.0293">
        <ele>1779.2</ele>
        <time>2018-06-10T08:29:27Z</time>
      </trkpt>
      <trkpt lat="44.10783" lon="7.02955">
        <ele>1779</ele>
        <time>2018-06-10T08:29:29Z</time>
      </trkpt>
      <trkpt lat="44.10788" lon="7.02968">
        <ele>1779.3</ele>
        <time>2018-06-10T08:29:30Z</time>
      </trkpt>
      <trkpt lat="44.10793" lon="7.0298">
        <ele>1779.4</ele>
        <time>2018-06-10T08:29:31Z</time>
      </trkpt>
      <trkpt lat="44.10807" lon="7.02995">
        <ele>1779.5</ele>
        <time>2018-06-10T08:29:33Z</time>
      </trkpt>
      <trkpt lat="44.10825" lon="7.03009">
        <ele>1778.5</ele>
        <time>2018-06-10T08:29:36Z</time>
      </trkpt>
      <trkpt lat="44.10839" lon="7.03011">
        <ele>1777</ele>
        <time>2018-06-10T08:29:42Z</time>
      </trkpt>
      <trkpt lat="44.10845" lon="7.03011">
        <ele>1776.2</ele>
        <time>2018-06-10T08:29:45Z</time>
      </trkpt>
      <trkpt lat="44.10855" lon="7.03033">
        <ele>1775</ele>
        <time>2018-06-10T08:29:51Z</time>
      </trkpt>
      <trkpt lat="44.10875" lon="7.03039">
        <ele>1772.4</ele>
        <time>2018-06-10T08:29:57Z</time>
      </trkpt>
      <trkpt lat="44.10889" lon="7.03023">
        <ele>1770.8</ele>
        <time>2018-06-10T08:30:01Z</time>
      </trkpt>
      <trkpt lat="44.10893" lon="7.0301">
        <ele>1771.1</ele>
        <time>2018-06-10T08:30:03Z</time>
      </trkpt>
      <trkpt lat="44.10894" lon="7.03003">
        <ele>1771.5</ele>
        <time>2018-06-10T08:30:04Z</time>
      </trkpt>
      <trkpt lat="44.10892" lon="7.02976">
        <ele>1771.9</ele>
        <time>2018-06-10T08:30:08Z</time>
      </trkpt>
      <trkpt lat="44.1091" lon="7.02956">
        <ele>1771.9</ele>
        <time>2018-06-10T08:30:12Z</time>
      </trkpt>
      <trkpt lat="44.1093" lon="7.02946">
        <ele>1772.5</ele>
        <time>2018-06-10T08:30:15Z</time>
      </trkpt>
      <trkpt lat="44.10948" lon="7.02955">
        <ele>1773.8</ele>
        <time>2018-06-10T08:30:20Z</time>
      </trkpt>
      <trkpt lat="44.1095" lon="7.02958">
        <ele>1774.2</ele>
        <time>2018-06-10T08:30:21Z</time>
      </trkpt>
      <trkpt lat="44.10954" lon="7.02979">
        <ele>1774.5</ele>
        <time>2018-06-10T08:30:27Z</time>
      </trkpt>
      <trkpt lat="44.10952" lon="7.03001">
        <ele>1774</ele>
        <time>2018-06-10T08:30:31Z</time>
      </trkpt>
      <trkpt lat="44.10962" lon="7.03027">
        <ele>1774.2</ele>
        <time>2018-06-10T08:30:36Z</time>
      </trkpt>
      <trkpt lat="44.10967" lon="7.03031">
        <ele>1774.7</ele>
        <time>2018-06-10T08:30:37Z</time>
      </trkpt>
      <trkpt lat="44.1097" lon="7.03036">
        <ele>1775.1</ele>
        <time>2018-06-10T08:30:38Z</time>
      </trkpt>
      <trkpt lat="44.10974" lon="7.03068">
        <ele>1773.4</ele>
        <time>2018-06-10T08:30:41Z</time>
      </trkpt>
      <trkpt lat="44.1097" lon="7.03098">
        <ele>1769.9</ele>
        <time>2018-06-10T08:30:44Z</time>
      </trkpt>
      <trkpt lat="44.10952" lon="7.03114">
        <ele>1765.5</ele>
        <time>2018-06-10T08:30:48Z</time>
      </trkpt>
      <trkpt lat="44.10948" lon="7.03117">
        <ele>1764.7</ele>
        <time>2018-06-10T08:30:49Z</time>
      </trkpt>
      <trkpt lat="44.10932" lon="7.03131">
        <ele>1761.4</ele>
        <time>2018-06-10T08:30:53Z</time>
      </trkpt>
      <trkpt lat="44.10918" lon="7.03152">
        <ele>1755.9</ele>
        <time>2018-06-10T08:30:56Z</time>
      </trkpt>
      <trkpt lat="44.10899" lon="7.03172">
        <ele>1751.2</ele>
        <time>2018-06-10T08:30:59Z</time>
      </trkpt>
      <trkpt lat="44.1088" lon="7.03189">
        <ele>1749.7</ele>
        <time>2018-06-10T08:31:02Z</time>
      </trkpt>
      <trkpt lat="44.10861" lon="7.03207">
        <ele>1741.8</ele>
        <time>2018-06-10T08:31:05Z</time>
      </trkpt>
      <trkpt lat="44.1085" lon="7.03217">
        <ele>1740.7</ele>
        <time>2018-06-10T08:31:07Z</time>
      </trkpt>
      <trkpt lat="44.10832" lon="7.03228">
        <ele>1740.9</ele>
        <time>2018-06-10T08:31:10Z</time>
      </trkpt>
      <trkpt lat="44.10812" lon="7.03238">
        <ele>1737.2</ele>
        <time>2018-06-10T08:31:14Z</time>
      </trkpt>
      <trkpt lat="44.10808" lon="7.03239">
        <ele>1738.8</ele>
        <time>2018-06-10T08:31:15Z</time>
      </trkpt>
      <trkpt lat="44.10789" lon="7.03241">
        <ele>1740.5</ele>
        <time>2018-06-10T08:31:20Z</time>
      </trkpt>
      <trkpt lat="44.10771" lon="7.03243">
        <ele>1744.3</ele>
        <time>2018-06-10T08:31:24Z</time>
      </trkpt>
      <trkpt lat="44.10753" lon="7.0324">
        <ele>1750.1</ele>
        <time>2018-06-10T08:31:27Z</time>
      </trkpt>
      <trkpt lat="44.10735" lon="7.03228">
        <ele>1755.2</ele>
        <time>2018-06-10T08:31:31Z</time>
      </trkpt>
      <trkpt lat="44.10715" lon="7.03217">
        <ele>1750.8</ele>
        <time>2018-06-10T08:31:37Z</time>
      </trkpt>
      <trkpt lat="44.10697" lon="7.03208">
        <ele>1745.9</ele>
        <time>2018-06-10T08:31:41Z</time>
      </trkpt>
      <trkpt lat="44.10694" lon="7.03203">
        <ele>1747.4</ele>
        <time>2018-06-10T08:31:42Z</time>
      </trkpt>
      <trkpt lat="44.10688" lon="7.03193">
        <ele>1747.6</ele>
        <time>2018-06-10T08:31:44Z</time>
      </trkpt>
      <trkpt lat="44.10671" lon="7.03171">
        <ele>1747.5</ele>
        <time>2018-06-10T08:31:48Z</time>
      </trkpt>
      <trkpt lat="44.10667" lon="7.03165">
        <ele>1747.4</ele>
        <time>2018-06-10T08:31:49Z</time>
      </trkpt>
      <trkpt lat="44.10659" lon="7.03146">
        <ele>1748.9</ele>
        <time>2018-06-10T08:31:53Z</time>
      </trkpt>
      <trkpt lat="44.10638" lon="7.03156">
        <ele>1738.7</ele>
        <time>2018-06-10T08:31:59Z</time>
      </trkpt>
      <trkpt lat="44.10618" lon="7.0316">
        <ele>1732.7</ele>
        <time>2018-06-10T08:32:03Z</time>
      </trkpt>
      <trkpt lat="44.10598" lon="7.03165">
        <ele>1726.9</ele>
        <time>2018-06-10T08:32:07Z</time>
      </trkpt>
      <trkpt lat="44.10576" lon="7.03176">
        <ele>1722</ele>
        <time>2018-06-10T08:32:11Z</time>
      </trkpt>
      <trkpt lat="44.10559" lon="7.03183">
        <ele>1718.8</ele>
        <time>2018-06-10T08:32:14Z</time>
      </trkpt>
      <trkpt lat="44.10543" lon="7.03191">
        <ele>1716</ele>
        <time>2018-06-10T08:32:17Z</time>
      </trkpt>
      <trkpt lat="44.10523" lon="7.03197">
        <ele>1716.3</ele>
        <time>2018-06-10T08:32:21Z</time>
      </trkpt>
      <trkpt lat="44.10506" lon="7.03216">
        <ele>1716.7</ele>
        <time>2018-06-10T08:32:26Z</time>
      </trkpt>
      <trkpt lat="44.10492" lon="7.03235">
        <ele>1718.2</ele>
        <time>2018-06-10T08:32:30Z</time>
      </trkpt>
      <trkpt lat="44.10477" lon="7.03256">
        <ele>1719.3</ele>
        <time>2018-06-10T08:32:34Z</time>
      </trkpt>
      <trkpt lat="44.10461" lon="7.03275">
        <ele>1720.2</ele>
        <time>2018-06-10T08:32:38Z</time>
      </trkpt>
      <trkpt lat="44.10449" lon="7.03296">
        <ele>1720.5</ele>
        <time>2018-06-10T08:32:42Z</time>
      </trkpt>
      <trkpt lat="44.10437" lon="7.03315">
        <ele>1720.2</ele>
        <time>2018-06-10T08:32:48Z</time>
      </trkpt>
      <trkpt lat="44.10423" lon="7.03338">
        <ele>1719.2</ele>
        <time>2018-06-10T08:32:54Z</time>
      </trkpt>
      <trkpt lat="44.10409" lon="7.03359">
        <ele>1720.1</ele>
        <time>2018-06-10T08:32:59Z</time>
      </trkpt>
      <trkpt lat="44.10396" lon="7.03373">
        <ele>1721.1</ele>
        <time>2018-06-10T08:33:02Z</time>
      </trkpt>
      <trkpt lat="44.10382" lon="7.03392">
        <ele>1720.7</ele>
        <time>2018-06-10T08:33:06Z</time>
      </trkpt>
      <trkpt lat="44.10379" lon="7.03396">
        <ele>1720.9</ele>
        <time>2018-06-10T08:33:07Z</time>
      </trkpt>
      <trkpt lat="44.10381" lon="7.03425">
        <ele>1717</ele>
        <time>2018-06-10T08:33:13Z</time>
      </trkpt>
      <trkpt lat="44.10381" lon="7.03432">
        <ele>1716</ele>
        <time>2018-06-10T08:33:14Z</time>
      </trkpt>
      <trkpt lat="44.10382" lon="7.03457">
        <ele>1713</ele>
        <time>2018-06-10T08:33:18Z</time>
      </trkpt>
      <trkpt lat="44.10375" lon="7.03485">
        <ele>1711.4</ele>
        <time>2018-06-10T08:33:22Z</time>
      </trkpt>
      <trkpt lat="44.10369" lon="7.03509">
        <ele>1709.8</ele>
        <time>2018-06-10T08:33:25Z</time>
      </trkpt>
      <trkpt lat="44.10362" lon="7.03526">
        <ele>1709.4</ele>
        <time>2018-06-10T08:33:31Z</time>
      </trkpt>
      <trkpt lat="44.10362" lon="7.03533">
        <ele>1708.6</ele>
        <time>2018-06-10T08:33:33Z</time>
      </trkpt>
      <trkpt lat="44.10381" lon="7.03538">
        <ele>1702.5</ele>
        <time>2018-06-10T08:33:41Z</time>
      </trkpt>
      <trkpt lat="44.10389" lon="7.03558">
        <ele>1695.4</ele>
        <time>2018-06-10T08:33:49Z</time>
      </trkpt>
      <trkpt lat="44.10389" lon="7.03561">
        <ele>1695</ele>
        <time>2018-06-10T08:33:50Z</time>
      </trkpt>
      <trkpt lat="44.10404" lon="7.03567">
        <ele>1688.3</ele>
        <time>2018-06-10T08:33:58Z</time>
      </trkpt>
      <trkpt lat="44.10402" lon="7.03593">
        <ele>1683.2</ele>
        <time>2018-06-10T08:34:02Z</time>
      </trkpt>
      <trkpt lat="44.10404" lon="7.036">
        <ele>1682.6</ele>
        <time>2018-06-10T08:34:05Z</time>
      </trkpt>
      <trkpt lat="44.10414" lon="7.03592">
        <ele>1677.6</ele>
        <time>2018-06-10T08:34:08Z</time>
      </trkpt>
      <trkpt lat="44.10432" lon="7.03582">
        <ele>1670.7</ele>
        <time>2018-06-10T08:34:12Z</time>
      </trkpt>
      <trkpt lat="44.10443" lon="7.03573">
        <ele>1666</ele>
        <time>2018-06-10T08:34:14Z</time>
      </trkpt>
      <trkpt lat="44.10445" lon="7.03572">
        <ele>1664.5</ele>
        <time>2018-06-10T08:34:15Z</time>
      </trkpt>
      <trkpt lat="44.10467" lon="7.03555">
        <ele>1658</ele>
        <time>2018-06-10T08:34:19Z</time>
      </trkpt>
      <trkpt lat="44.10485" lon="7.0354">
        <ele>1654.6</ele>
        <time>2018-06-10T08:34:22Z</time>
      </trkpt>
      <trkpt lat="44.10491" lon="7.03536">
        <ele>1654</ele>
        <time>2018-06-10T08:34:23Z</time>
      </trkpt>
      <trkpt lat="44.10511" lon="7.03524">
        <ele>1650.4</ele>
        <time>2018-06-10T08:34:26Z</time>
      </trkpt>
      <trkpt lat="44.10525" lon="7.03518">
        <ele>1649</ele>
        <time>2018-06-10T08:34:29Z</time>
      </trkpt>
      <trkpt lat="44.10544" lon="7.03504">
        <ele>1649.2</ele>
        <time>2018-06-10T08:34:32Z</time>
      </trkpt>
      <trkpt lat="44.10568" lon="7.03485">
        <ele>1652</ele>
        <time>2018-06-10T08:34:35Z</time>
      </trkpt>
      <trkpt lat="44.10587" lon="7.03472">
        <ele>1655.1</ele>
        <time>2018-06-10T08:34:37Z</time>
      </trkpt>
      <trkpt lat="44.10604" lon="7.03455">
        <ele>1662.1</ele>
        <time>2018-06-10T08:34:39Z</time>
      </trkpt>
      <trkpt lat="44.10621" lon="7.03447">
        <ele>1666.2</ele>
        <time>2018-06-10T08:34:42Z</time>
      </trkpt>
      <trkpt lat="44.10616" lon="7.03472">
        <ele>1657.9</ele>
        <time>2018-06-10T08:34:48Z</time>
      </trkpt>
      <trkpt lat="44.1061" lon="7.0348">
        <ele>1654.6</ele>
        <time>2018-06-10T08:34:50Z</time>
      </trkpt>
      <trkpt lat="44.10599" lon="7.03496">
        <ele>1649.2</ele>
        <time>2018-06-10T08:34:56Z</time>
      </trkpt>
      <trkpt lat="44.10587" lon="7.03511">
        <ele>1645.5</ele>
        <time>2018-06-10T08:35:00Z</time>
      </trkpt>
      <trkpt lat="44.10583" lon="7.03536">
        <ele>1639.4</ele>
        <time>2018-06-10T08:35:05Z</time>
      </trkpt>
      <trkpt lat="44.10579" lon="7.03546">
        <ele>1636.2</ele>
        <time>2018-06-10T08:35:08Z</time>
      </trkpt>
      <trkpt lat="44.10576" lon="7.0356">
        <ele>1632.6</ele>
        <time>2018-06-10T08:35:12Z</time>
      </trkpt>
      <trkpt lat="44.10576" lon="7.03565">
        <ele>1631.6</ele>
        <time>2018-06-10T08:35:15Z</time>
      </trkpt>
      <trkpt lat="44.10572" lon="7.03574">
        <ele>1629.5</ele>
        <time>2018-06-10T08:35:19Z</time>
      </trkpt>
      <trkpt lat="44.10568" lon="7.03587">
        <ele>1625.9</ele>
        <time>2018-06-10T08:35:23Z</time>
      </trkpt>
      <trkpt lat="44.10563" lon="7.03611">
        <ele>1618.2</ele>
        <time>2018-06-10T08:35:28Z</time>
      </trkpt>
      <trkpt lat="44.10556" lon="7.03636">
        <ele>1613.1</ele>
        <time>2018-06-10T08:35:31Z</time>
      </trkpt>
      <trkpt lat="44.10554" lon="7.03646">
        <ele>1609.9</ele>
        <time>2018-06-10T08:35:32Z</time>
      </trkpt>
      <trkpt lat="44.10549" lon="7.03674">
        <ele>1604</ele>
        <time>2018-06-10T08:35:35Z</time>
      </trkpt>
      <trkpt lat="44.10548" lon="7.03681">
        <ele>1601.7</ele>
        <time>2018-06-10T08:35:36Z</time>
      </trkpt>
      <trkpt lat="44.10538" lon="7.03703">
        <ele>1597.7</ele>
        <time>2018-06-10T08:35:39Z</time>
      </trkpt>
      <trkpt lat="44.1053" lon="7.03727">
        <ele>1595.2</ele>
        <time>2018-06-10T08:35:44Z</time>
      </trkpt>
      <trkpt lat="44.10535" lon="7.03742">
        <ele>1590.5</ele>
        <time>2018-06-10T08:35:47Z</time>
      </trkpt>
      <trkpt lat="44.10536" lon="7.03757">
        <ele>1587.8</ele>
        <time>2018-06-10T08:35:49Z</time>
      </trkpt>
      <trkpt lat="44.10539" lon="7.03785">
        <ele>1582.9</ele>
        <time>2018-06-10T08:35:52Z</time>
      </trkpt>
      <trkpt lat="44.10544" lon="7.03822">
        <ele>1575.2</ele>
        <time>2018-06-10T08:35:55Z</time>
      </trkpt>
      <trkpt lat="44.10545" lon="7.03845">
        <ele>1570.9</ele>
        <time>2018-06-10T08:35:57Z</time>
      </trkpt>
      <trkpt lat="44.10543" lon="7.03874">
        <ele>1564.1</ele>
        <time>2018-06-10T08:36:01Z</time>
      </trkpt>
      <trkpt lat="44.10548" lon="7.039">
        <ele>1558.4</ele>
        <time>2018-06-10T08:36:05Z</time>
      </trkpt>
      <trkpt lat="44.10547" lon="7.03928">
        <ele>1552.6</ele>
        <time>2018-06-10T08:36:11Z</time>
      </trkpt>
      <trkpt lat="44.10554" lon="7.03955">
        <ele>1546.4</ele>
        <time>2018-06-10T08:36:17Z</time>
      </trkpt>
      <trkpt lat="44.10551" lon="7.03967">
        <ele>1544.6</ele>
        <time>2018-06-10T08:36:22Z</time>
      </trkpt>
      <trkpt lat="44.10551" lon="7.03997">
        <ele>1538.7</ele>
        <time>2018-06-10T08:36:28Z</time>
      </trkpt>
      <trkpt lat="44.10554" lon="7.04011">
        <ele>1535.6</ele>
        <time>2018-06-10T08:36:31Z</time>
      </trkpt>
      <trkpt lat="44.10562" lon="7.04018">
        <ele>1532.7</ele>
        <time>2018-06-10T08:36:35Z</time>
      </trkpt>
      <trkpt lat="44.10561" lon="7.04024">
        <ele>1532.7</ele>
        <time>2018-06-10T08:36:37Z</time>
      </trkpt>
      <trkpt lat="44.10558" lon="7.04049">
        <ele>1527.3</ele>
        <time>2018-06-10T08:36:41Z</time>
      </trkpt>
      <trkpt lat="44.10559" lon="7.0408">
        <ele>1519.5</ele>
        <time>2018-06-10T08:36:48Z</time>
      </trkpt>
      <trkpt lat="44.10549" lon="7.04102">
        <ele>1516.2</ele>
        <time>2018-06-10T08:36:51Z</time>
      </trkpt>
      <trkpt lat="44.10542" lon="7.0413">
        <ele>1511.8</ele>
        <time>2018-06-10T08:36:54Z</time>
      </trkpt>
      <trkpt lat="44.10529" lon="7.04155">
        <ele>1510.2</ele>
        <time>2018-06-10T08:36:58Z</time>
      </trkpt>
      <trkpt lat="44.10528" lon="7.04162">
        <ele>1508.6</ele>
        <time>2018-06-10T08:36:59Z</time>
      </trkpt>
      <trkpt lat="44.10522" lon="7.04189">
        <ele>1504</ele>
        <time>2018-06-10T08:37:02Z</time>
      </trkpt>
      <trkpt lat="44.10517" lon="7.042">
        <ele>1502.9</ele>
        <time>2018-06-10T08:37:03Z</time>
      </trkpt>
      <trkpt lat="44.10502" lon="7.04215">
        <ele>1504.7</ele>
        <time>2018-06-10T08:37:05Z</time>
      </trkpt>
      <trkpt lat="44.10497" lon="7.04225">
        <ele>1503</ele>
        <time>2018-06-10T08:37:06Z</time>
      </trkpt>
      <trkpt lat="44.1049" lon="7.04242">
        <ele>1502.8</ele>
        <time>2018-06-10T08:37:08Z</time>
      </trkpt>
      <trkpt lat="44.10489" lon="7.04272">
        <ele>1493.5</ele>
        <time>2018-06-10T08:37:11Z</time>
      </trkpt>
      <trkpt lat="44.10488" lon="7.04281">
        <ele>1490.8</ele>
        <time>2018-06-10T08:37:12Z</time>
      </trkpt>
      <trkpt lat="44.10486" lon="7.04307">
        <ele>1483.6</ele>
        <time>2018-06-10T08:37:15Z</time>
      </trkpt>
      <trkpt lat="44.10487" lon="7.04318">
        <ele>1480.7</ele>
        <time>2018-06-10T08:37:16Z</time>
      </trkpt>
      <trkpt lat="44.10484" lon="7.04343">
        <ele>1473.6</ele>
        <time>2018-06-10T08:37:18Z</time>
      </trkpt>
      <trkpt lat="44.10475" lon="7.04373">
        <ele>1466.7</ele>
        <time>2018-06-10T08:37:21Z</time>
      </trkpt>
      <trkpt lat="44.10462" lon="7.04393">
        <ele>1463</ele>
        <time>2018-06-10T08:37:25Z</time>
      </trkpt>
      <trkpt lat="44.10461" lon="7.04395">
        <ele>1463.3</ele>
        <time>2018-06-10T08:37:26Z</time>
      </trkpt>
      <trkpt lat="44.10457" lon="7.044">
        <ele>1460.4</ele>
        <time>2018-06-10T08:37:28Z</time>
      </trkpt>
      <trkpt lat="44.10451" lon="7.04406">
        <ele>1460.6</ele>
        <time>2018-06-10T08:37:31Z</time>
      </trkpt>
      <trkpt lat="44.10466" lon="7.04414">
        <ele>1452.4</ele>
        <time>2018-06-10T08:37:36Z</time>
      </trkpt>
      <trkpt lat="44.1047" lon="7.04415">
        <ele>1450.1</ele>
        <time>2018-06-10T08:37:37Z</time>
      </trkpt>
      <trkpt lat="44.10479" lon="7.04415">
        <ele>1446.3</ele>
        <time>2018-06-10T08:37:41Z</time>
      </trkpt>
      <trkpt lat="44.10477" lon="7.04433">
        <ele>1440.1</ele>
        <time>2018-06-10T08:37:50Z</time>
      </trkpt>
      <trkpt lat="44.10481" lon="7.04438">
        <ele>1437.3</ele>
        <time>2018-06-10T08:37:53Z</time>
      </trkpt>
      <trkpt lat="44.10486" lon="7.04438">
        <ele>1435.4</ele>
        <time>2018-06-10T08:37:55Z</time>
      </trkpt>
      <trkpt lat="44.10486" lon="7.04455">
        <ele>1428.1</ele>
        <time>2018-06-10T08:38:02Z</time>
      </trkpt>
      <trkpt lat="44.10492" lon="7.04452">
        <ele>1426.6</ele>
        <time>2018-06-10T08:38:03Z</time>
      </trkpt>
      <trkpt lat="44.10496" lon="7.0445">
        <ele>1427.7</ele>
        <time>2018-06-10T08:38:04Z</time>
      </trkpt>
      <trkpt lat="44.10501" lon="7.04452">
        <ele>1424.3</ele>
        <time>2018-06-10T08:38:09Z</time>
      </trkpt>
      <trkpt lat="44.10493" lon="7.04465">
        <ele>1422.2</ele>
        <time>2018-06-10T08:38:14Z</time>
      </trkpt>
      <trkpt lat="44.10481" lon="7.04477">
        <ele>1422.5</ele>
        <time>2018-06-10T08:38:21Z</time>
      </trkpt>
      <trkpt lat="44.10464" lon="7.04478">
        <ele>1431.1</ele>
        <time>2018-06-10T08:39:41Z</time>
      </trkpt>
      <trkpt lat="44.10444" lon="7.0448">
        <ele>1436.9</ele>
        <time>2018-06-10T08:39:47Z</time>
      </trkpt>
      <trkpt lat="44.10425" lon="7.04483">
        <ele>1440.2</ele>
        <time>2018-06-10T08:39:53Z</time>
      </trkpt>
      <trkpt lat="44.10405" lon="7.0448">
        <ele>1447.1</ele>
        <time>2018-06-10T08:39:58Z</time>
      </trkpt>
      <trkpt lat="44.10385" lon="7.04484">
        <ele>1455.4</ele>
        <time>2018-06-10T08:40:04Z</time>
      </trkpt>
      <trkpt lat="44.10368" lon="7.04496">
        <ele>1451</ele>
        <time>2018-06-10T08:40:10Z</time>
      </trkpt>
      <trkpt lat="44.10357" lon="7.04521">
        <ele>1446.7</ele>
        <time>2018-06-10T08:40:16Z</time>
      </trkpt>
      <trkpt lat="44.10345" lon="7.04542">
        <ele>1440.5</ele>
        <time>2018-06-10T08:40:23Z</time>
      </trkpt>
      <trkpt lat="44.10327" lon="7.04553">
        <ele>1442.2</ele>
        <time>2018-06-10T08:40:31Z</time>
      </trkpt>
      <trkpt lat="44.10308" lon="7.04559">
        <ele>1453.3</ele>
        <time>2018-06-10T08:40:39Z</time>
      </trkpt>
      <trkpt lat="44.10289" lon="7.04564">
        <ele>1470.2</ele>
        <time>2018-06-10T08:40:46Z</time>
      </trkpt>
      <trkpt lat="44.10287" lon="7.04567">
        <ele>1472.6</ele>
        <time>2018-06-10T08:40:47Z</time>
      </trkpt>
      <trkpt lat="44.10287" lon="7.04583">
        <ele>1465.2</ele>
        <time>2018-06-10T08:40:51Z</time>
      </trkpt>
      <trkpt lat="44.10291" lon="7.04601">
        <ele>1458.1</ele>
        <time>2018-06-10T08:40:55Z</time>
      </trkpt>
      <trkpt lat="44.10278" lon="7.04623">
        <ele>1451.5</ele>
        <time>2018-06-10T08:41:00Z</time>
      </trkpt>
      <trkpt lat="44.1026" lon="7.04628">
        <ele>1457.5</ele>
        <time>2018-06-10T08:41:07Z</time>
      </trkpt>
      <trkpt lat="44.10254" lon="7.04629">
        <ele>1462.6</ele>
        <time>2018-06-10T08:41:09Z</time>
      </trkpt>
      <trkpt lat="44.10234" lon="7.04639">
        <ele>1474.1</ele>
        <time>2018-06-10T08:41:14Z</time>
      </trkpt>
      <trkpt lat="44.10216" lon="7.04652">
        <ele>1479.4</ele>
        <time>2018-06-10T08:41:20Z</time>
      </trkpt>
      <trkpt lat="44.10198" lon="7.0466">
        <ele>1489.1</ele>
        <time>2018-06-10T08:41:26Z</time>
      </trkpt>
      <trkpt lat="44.1019" lon="7.04682">
        <ele>1483.9</ele>
        <time>2018-06-10T08:41:31Z</time>
      </trkpt>
      <trkpt lat="44.10191" lon="7.04707">
        <ele>1465.4</ele>
        <time>2018-06-10T08:41:36Z</time>
      </trkpt>
      <trkpt lat="44.10188" lon="7.0472">
        <ele>1453.7</ele>
        <time>2018-06-10T08:41:38Z</time>
      </trkpt>
      <trkpt lat="44.10178" lon="7.04748">
        <ele>1450.7</ele>
        <time>2018-06-10T08:41:42Z</time>
      </trkpt>
      <trkpt lat="44.10168" lon="7.04771">
        <ele>1456.2</ele>
        <time>2018-06-10T08:41:46Z</time>
      </trkpt>
      <trkpt lat="44.10149" lon="7.04784">
        <ele>1461</ele>
        <time>2018-06-10T08:41:51Z</time>
      </trkpt>
      <trkpt lat="44.1013" lon="7.04793">
        <ele>1467.3</ele>
        <time>2018-06-10T08:41:55Z</time>
      </trkpt>
      <trkpt lat="44.10125" lon="7.04796">
        <ele>1468.3</ele>
        <time>2018-06-10T08:41:56Z</time>
      </trkpt>
      <trkpt lat="44.10108" lon="7.04806">
        <ele>1471.4</ele>
        <time>2018-06-10T08:41:59Z</time>
      </trkpt>
      <trkpt lat="44.10088" lon="7.04818">
        <ele>1471.1</ele>
        <time>2018-06-10T08:42:03Z</time>
      </trkpt>
      <trkpt lat="44.10083" lon="7.04823">
        <ele>1470.5</ele>
        <time>2018-06-10T08:42:04Z</time>
      </trkpt>
      <trkpt lat="44.10073" lon="7.04844">
        <ele>1453.3</ele>
        <time>2018-06-10T08:42:07Z</time>
      </trkpt>
      <trkpt lat="44.10063" lon="7.04865">
        <ele>1440</ele>
        <time>2018-06-10T08:42:10Z</time>
      </trkpt>
      <trkpt lat="44.1006" lon="7.04881">
        <ele>1430.2</ele>
        <time>2018-06-10T08:42:12Z</time>
      </trkpt>
      <trkpt lat="44.10057" lon="7.04908">
        <ele>1413.2</ele>
        <time>2018-06-10T08:42:16Z</time>
      </trkpt>
      <trkpt lat="44.10048" lon="7.04937">
        <ele>1407.8</ele>
        <time>2018-06-10T08:42:20Z</time>
      </trkpt>
      <trkpt lat="44.10045" lon="7.04944">
        <ele>1406.4</ele>
        <time>2018-06-10T08:42:21Z</time>
      </trkpt>
      <trkpt lat="44.1003" lon="7.04969">
        <ele>1401.5</ele>
        <time>2018-06-10T08:42:25Z</time>
      </trkpt>
      <trkpt lat="44.10021" lon="7.04977">
        <ele>1401.9</ele>
        <time>2018-06-10T08:42:27Z</time>
      </trkpt>
      <trkpt lat="44.10004" lon="7.0499">
        <ele>1402.1</ele>
        <time>2018-06-10T08:42:30Z</time>
      </trkpt>
      <trkpt lat="44.09994" lon="7.04996">
        <ele>1402.5</ele>
        <time>2018-06-10T08:42:32Z</time>
      </trkpt>
      <trkpt lat="44.09975" lon="7.04998">
        <ele>1405.1</ele>
        <time>2018-06-10T08:42:36Z</time>
      </trkpt>
      <trkpt lat="44.09965" lon="7.05002">
        <ele>1405.2</ele>
        <time>2018-06-10T08:42:38Z</time>
      </trkpt>
      <trkpt lat="44.0995" lon="7.05012">
        <ele>1402.4</ele>
        <time>2018-06-10T08:42:41Z</time>
      </trkpt>
      <trkpt lat="44.0993" lon="7.05029">
        <ele>1394.9</ele>
        <time>2018-06-10T08:42:45Z</time>
      </trkpt>
      <trkpt lat="44.0991" lon="7.05037">
        <ele>1398.3</ele>
        <time>2018-06-10T08:42:50Z</time>
      </trkpt>
      <trkpt lat="44.099" lon="7.05038">
        <ele>1398.6</ele>
        <time>2018-06-10T08:42:52Z</time>
      </trkpt>
      <trkpt lat="44.09889" lon="7.05041">
        <ele>1399</ele>
        <time>2018-06-10T08:42:54Z</time>
      </trkpt>
      <trkpt lat="44.09868" lon="7.05054">
        <ele>1391.8</ele>
        <time>2018-06-10T08:42:58Z</time>
      </trkpt>
      <trkpt lat="44.09853" lon="7.05066">
        <ele>1384.8</ele>
        <time>2018-06-10T08:43:01Z</time>
      </trkpt>
      <trkpt lat="44.09832" lon="7.0507">
        <ele>1377.6</ele>
        <time>2018-06-10T08:43:04Z</time>
      </trkpt>
      <trkpt lat="44.09827" lon="7.05073">
        <ele>1376.6</ele>
        <time>2018-06-10T08:43:05Z</time>
      </trkpt>
      <trkpt lat="44.09815" lon="7.05077">
        <ele>1372.1</ele>
        <time>2018-06-10T08:43:07Z</time>
      </trkpt>
      <trkpt lat="44.09801" lon="7.05062">
        <ele>1379.4</ele>
        <time>2018-06-10T08:43:11Z</time>
      </trkpt>
      <trkpt lat="44.09797" lon="7.05048">
        <ele>1383.6</ele>
        <time>2018-06-10T08:43:13Z</time>
      </trkpt>
      <trkpt lat="44.09788" lon="7.05019">
        <ele>1397.3</ele>
        <time>2018-06-10T08:43:17Z</time>
      </trkpt>
      <trkpt lat="44.09769" lon="7.05011">
        <ele>1402.8</ele>
        <time>2018-06-10T08:43:21Z</time>
      </trkpt>
      <trkpt lat="44.09764" lon="7.05011">
        <ele>1402.2</ele>
        <time>2018-06-10T08:43:22Z</time>
      </trkpt>
      <trkpt lat="44.09743" lon="7.05013">
        <ele>1398.9</ele>
        <time>2018-06-10T08:43:26Z</time>
      </trkpt>
      <trkpt lat="44.09725" lon="7.05013">
        <ele>1399.4</ele>
        <time>2018-06-10T08:43:29Z</time>
      </trkpt>
      <trkpt lat="44.09706" lon="7.0502">
        <ele>1397.3</ele>
        <time>2018-06-10T08:43:32Z</time>
      </trkpt>
      <trkpt lat="44.09695" lon="7.05025">
        <ele>1392.8</ele>
        <time>2018-06-10T08:43:34Z</time>
      </trkpt>
      <trkpt lat="44.09677" lon="7.05027">
        <ele>1389.4</ele>
        <time>2018-06-10T08:43:37Z</time>
      </trkpt>
      <trkpt lat="44.09664" lon="7.05024">
        <ele>1389.7</ele>
        <time>2018-06-10T08:43:39Z</time>
      </trkpt>
      <trkpt lat="44.09651" lon="7.05022">
        <ele>1392.7</ele>
        <time>2018-06-10T08:43:41Z</time>
      </trkpt>
      <trkpt lat="44.09632" lon="7.05029">
        <ele>1387</ele>
        <time>2018-06-10T08:43:44Z</time>
      </trkpt>
      <trkpt lat="44.09627" lon="7.05032">
        <ele>1383.7</ele>
        <time>2018-06-10T08:43:45Z</time>
      </trkpt>
      <trkpt lat="44.09613" lon="7.0504">
        <ele>1374.5</ele>
        <time>2018-06-10T08:43:48Z</time>
      </trkpt>
      <trkpt lat="44.09593" lon="7.05038">
        <ele>1368.5</ele>
        <time>2018-06-10T08:43:52Z</time>
      </trkpt>
      <trkpt lat="44.09581" lon="7.05015">
        <ele>1367.1</ele>
        <time>2018-06-10T08:43:56Z</time>
      </trkpt>
      <trkpt lat="44.0957" lon="7.04993">
        <ele>1385.8</ele>
        <time>2018-06-10T08:43:59Z</time>
      </trkpt>
      <trkpt lat="44.09558" lon="7.04983">
        <ele>1390.4</ele>
        <time>2018-06-10T08:44:01Z</time>
      </trkpt>
      <trkpt lat="44.09553" lon="7.04978">
        <ele>1394.6</ele>
        <time>2018-06-10T08:44:02Z</time>
      </trkpt>
      <trkpt lat="44.09539" lon="7.04957">
        <ele>1401.8</ele>
        <time>2018-06-10T08:44:05Z</time>
      </trkpt>
      <trkpt lat="44.09534" lon="7.0495">
        <ele>1408</ele>
        <time>2018-06-10T08:44:06Z</time>
      </trkpt>
      <trkpt lat="44.09513" lon="7.04939">
        <ele>1420.8</ele>
        <time>2018-06-10T08:44:09Z</time>
      </trkpt>
      <trkpt lat="44.09491" lon="7.04939">
        <ele>1417</ele>
        <time>2018-06-10T08:44:12Z</time>
      </trkpt>
      <trkpt lat="44.09477" lon="7.04943">
        <ele>1415</ele>
        <time>2018-06-10T08:44:14Z</time>
      </trkpt>
      <trkpt lat="44.09457" lon="7.04951">
        <ele>1411</ele>
        <time>2018-06-10T08:44:17Z</time>
      </trkpt>
      <trkpt lat="44.09437" lon="7.04963">
        <ele>1403.7</ele>
        <time>2018-06-10T08:44:20Z</time>
      </trkpt>
      <trkpt lat="44.09417" lon="7.04976">
        <ele>1399.1</ele>
        <time>2018-06-10T08:44:23Z</time>
      </trkpt>
      <trkpt lat="44.09403" lon="7.04986">
        <ele>1394.5</ele>
        <time>2018-06-10T08:44:25Z</time>
      </trkpt>
      <trkpt lat="44.09388" lon="7.05009">
        <ele>1388</ele>
        <time>2018-06-10T08:44:28Z</time>
      </trkpt>
      <trkpt lat="44.0938" lon="7.05029">
        <ele>1387.7</ele>
        <time>2018-06-10T08:44:30Z</time>
      </trkpt>
      <trkpt lat="44.09367" lon="7.05056">
        <ele>1374.8</ele>
        <time>2018-06-10T08:44:33Z</time>
      </trkpt>
      <trkpt lat="44.09359" lon="7.05076">
        <ele>1365.5</ele>
        <time>2018-06-10T08:44:35Z</time>
      </trkpt>
      <trkpt lat="44.09351" lon="7.05102">
        <ele>1355</ele>
        <time>2018-06-10T08:44:38Z</time>
      </trkpt>
      <trkpt lat="44.09339" lon="7.05128">
        <ele>1355</ele>
        <time>2018-06-10T08:44:42Z</time>
      </trkpt>
      <trkpt lat="44.09335" lon="7.05129">
        <ele>1355</ele>
        <time>2018-06-10T08:44:43Z</time>
      </trkpt>
      <trkpt lat="44.09315" lon="7.05137">
        <ele>1338.2</ele>
        <time>2018-06-10T08:44:48Z</time>
      </trkpt>
      <trkpt lat="44.09318" lon="7.05135">
        <ele>1323</ele>
        <time>2018-06-10T08:44:49Z</time>
      </trkpt>
      <trkpt lat="44.09308" lon="7.05127">
        <ele>1323</ele>
        <time>2018-06-10T08:44:54Z</time>
      </trkpt>
      <trkpt lat="44.09301" lon="7.05102">
        <ele>1326.7</ele>
        <time>2018-06-10T08:45:02Z</time>
      </trkpt>
      <trkpt lat="44.09293" lon="7.05076">
        <ele>1338.3</ele>
        <time>2018-06-10T08:45:09Z</time>
      </trkpt>
      <trkpt lat="44.09279" lon="7.05059">
        <ele>1348.7</ele>
        <time>2018-06-10T08:45:13Z</time>
      </trkpt>
      <trkpt lat="44.0927" lon="7.05052">
        <ele>1348</ele>
        <time>2018-06-10T08:45:15Z</time>
      </trkpt>
      <trkpt lat="44.09249" lon="7.05038">
        <ele>1346</ele>
        <time>2018-06-10T08:45:19Z</time>
      </trkpt>
      <trkpt lat="44.09245" lon="7.05033">
        <ele>1345.4</ele>
        <time>2018-06-10T08:45:20Z</time>
      </trkpt>
      <trkpt lat="44.09235" lon="7.05024">
        <ele>1344</ele>
        <time>2018-06-10T08:45:22Z</time>
      </trkpt>
      <trkpt lat="44.09221" lon="7.05001">
        <ele>1340</ele>
        <time>2018-06-10T08:45:25Z</time>
      </trkpt>
      <trkpt lat="44.09207" lon="7.04969">
        <ele>1335.9</ele>
        <time>2018-06-10T08:45:28Z</time>
      </trkpt>
      <trkpt lat="44.09198" lon="7.04945">
        <ele>1332.5</ele>
        <time>2018-06-10T08:45:30Z</time>
      </trkpt>
      <trkpt lat="44.09189" lon="7.04918">
        <ele>1329</ele>
        <time>2018-06-10T08:45:32Z</time>
      </trkpt>
      <trkpt lat="44.09185" lon="7.04904">
        <ele>1327.2</ele>
        <time>2018-06-10T08:45:33Z</time>
      </trkpt>
      <trkpt lat="44.09181" lon="7.04877">
        <ele>1328.5</ele>
        <time>2018-06-10T08:45:35Z</time>
      </trkpt>
      <trkpt lat="44.09174" lon="7.04845">
        <ele>1329.9</ele>
        <time>2018-06-10T08:45:38Z</time>
      </trkpt>
      <trkpt lat="44.0917" lon="7.04819">
        <ele>1330.7</ele>
        <time>2018-06-10T08:45:41Z</time>
      </trkpt>
      <trkpt lat="44.09167" lon="7.04793">
        <ele>1331.5</ele>
        <time>2018-06-10T08:45:45Z</time>
      </trkpt>
      <trkpt lat="44.09164" lon="7.04766">
        <ele>1332.2</ele>
        <time>2018-06-10T08:45:51Z</time>
      </trkpt>
      <trkpt lat="44.0916" lon="7.04739">
        <ele>1332.9</ele>
        <time>2018-06-10T08:45:59Z</time>
      </trkpt>
      <trkpt lat="44.09163" lon="7.04713">
        <ele>1333.6</ele>
        <time>2018-06-10T08:46:08Z</time>
      </trkpt>
      <trkpt lat="44.09164" lon="7.04685">
        <ele>1334.3</ele>
        <time>2018-06-10T08:46:17Z</time>
      </trkpt>
      <trkpt lat="44.09165" lon="7.04658">
        <ele>1335.1</ele>
        <time>2018-06-10T08:46:26Z</time>
      </trkpt>
      <trkpt lat="44.09167" lon="7.04632">
        <ele>1336</ele>
        <time>2018-06-10T08:46:35Z</time>
      </trkpt>
      <trkpt lat="44.09167" lon="7.04604">
        <ele>1336.9</ele>
        <time>2018-06-10T08:46:44Z</time>
      </trkpt>
      <trkpt lat="44.0917" lon="7.04578">
        <ele>1337.8</ele>
        <time>2018-06-10T08:46:53Z</time>
      </trkpt>
      <trkpt lat="44.09171" lon="7.04553">
        <ele>1338.5</ele>
        <time>2018-06-10T08:47:02Z</time>
      </trkpt>
      <trkpt lat="44.09172" lon="7.04525">
        <ele>1339.1</ele>
        <time>2018-06-10T08:47:12Z</time>
      </trkpt>
      <trkpt lat="44.09172" lon="7.04498">
        <ele>1339.7</ele>
        <time>2018-06-10T08:47:22Z</time>
      </trkpt>
      <trkpt lat="44.09172" lon="7.04471">
        <ele>1340.2</ele>
        <time>2018-06-10T08:47:31Z</time>
      </trkpt>
      <trkpt lat="44.09172" lon="7.04445">
        <ele>1340.6</ele>
        <time>2018-06-10T08:47:40Z</time>
      </trkpt>
      <trkpt lat="44.09174" lon="7.0442">
        <ele>1340.9</ele>
        <time>2018-06-10T08:47:49Z</time>
      </trkpt>
      <trkpt lat="44.0918" lon="7.04395">
        <ele>1344.6</ele>
        <time>2018-06-10T08:47:58Z</time>
      </trkpt>
      <trkpt lat="44.09187" lon="7.04371">
        <ele>1348.3</ele>
        <time>2018-06-10T08:48:08Z</time>
      </trkpt>
      <trkpt lat="44.09196" lon="7.04348">
        <ele>1352.2</ele>
        <time>2018-06-10T08:48:18Z</time>
      </trkpt>
      <trkpt lat="44.09202" lon="7.04325">
        <ele>1356</ele>
        <time>2018-06-10T08:48:27Z</time>
      </trkpt>
      <trkpt lat="44.09207" lon="7.043">
        <ele>1359.9</ele>
        <time>2018-06-10T08:48:36Z</time>
      </trkpt>
      <trkpt lat="44.09211" lon="7.04276">
        <ele>1364</ele>
        <time>2018-06-10T08:48:45Z</time>
      </trkpt>
      <trkpt lat="44.09212" lon="7.04249">
        <ele>1368.4</ele>
        <time>2018-06-10T08:48:54Z</time>
      </trkpt>
      <trkpt lat="44.09209" lon="7.04223">
        <ele>1372.8</ele>
        <time>2018-06-10T08:49:02Z</time>
      </trkpt>
      <trkpt lat="44.0921" lon="7.04197">
        <ele>1377</ele>
        <time>2018-06-10T08:49:12Z</time>
      </trkpt>
      <trkpt lat="44.09218" lon="7.04173">
        <ele>1381.2</ele>
        <time>2018-06-10T08:49:22Z</time>
      </trkpt>
      <trkpt lat="44.09222" lon="7.04149">
        <ele>1384.8</ele>
        <time>2018-06-10T08:49:31Z</time>
      </trkpt>
      <trkpt lat="44.09224" lon="7.04123">
        <ele>1388.5</ele>
        <time>2018-06-10T08:49:40Z</time>
      </trkpt>
      <trkpt lat="44.09221" lon="7.04097">
        <ele>1392.1</ele>
        <time>2018-06-10T08:49:49Z</time>
      </trkpt>
      <trkpt lat="44.09225" lon="7.0407">
        <ele>1395.9</ele>
        <time>2018-06-10T08:49:59Z</time>
      </trkpt>
      <trkpt lat="44.09231" lon="7.04044">
        <ele>1399.7</ele>
        <time>2018-06-10T08:50:09Z</time>
      </trkpt>
      <trkpt lat="44.09237" lon="7.04019">
        <ele>1403.2</ele>
        <time>2018-06-10T08:50:19Z</time>
      </trkpt>
      <trkpt lat="44.09239" lon="7.03993">
        <ele>1405.8</ele>
        <time>2018-06-10T08:50:28Z</time>
      </trkpt>
      <trkpt lat="44.09239" lon="7.03967">
        <ele>1408.2</ele>
        <time>2018-06-10T08:50:37Z</time>
      </trkpt>
      <trkpt lat="44.09231" lon="7.03942">
        <ele>1411.3</ele>
        <time>2018-06-10T08:50:46Z</time>
      </trkpt>
      <trkpt lat="44.09212" lon="7.03936">
        <ele>1413.7</ele>
        <time>2018-06-10T08:50:52Z</time>
      </trkpt>
      <trkpt lat="44.09195" lon="7.03947">
        <ele>1414.9</ele>
        <time>2018-06-10T08:51:00Z</time>
      </trkpt>
      <trkpt lat="44.09182" lon="7.03968">
        <ele>1416.3</ele>
        <time>2018-06-10T08:51:09Z</time>
      </trkpt>
      <trkpt lat="44.09175" lon="7.03993">
        <ele>1417.6</ele>
        <time>2018-06-10T08:51:18Z</time>
      </trkpt>
      <trkpt lat="44.09162" lon="7.04014">
        <ele>1418.8</ele>
        <time>2018-06-10T08:51:28Z</time>
      </trkpt>
      <trkpt lat="44.09155" lon="7.04038">
        <ele>1419.8</ele>
        <time>2018-06-10T08:51:38Z</time>
      </trkpt>
      <trkpt lat="44.09147" lon="7.04064">
        <ele>1420.7</ele>
        <time>2018-06-10T08:51:48Z</time>
      </trkpt>
      <trkpt lat="44.09137" lon="7.04088">
        <ele>1421.5</ele>
        <time>2018-06-10T08:51:59Z</time>
      </trkpt>
      <trkpt lat="44.09126" lon="7.04109">
        <ele>1422.2</ele>
        <time>2018-06-10T08:52:09Z</time>
      </trkpt>
      <trkpt lat="44.09114" lon="7.04128">
        <ele>1422.9</ele>
        <time>2018-06-10T08:52:17Z</time>
      </trkpt>
      <trkpt lat="44.09103" lon="7.04151">
        <ele>1423.6</ele>
        <time>2018-06-10T08:52:26Z</time>
      </trkpt>
      <trkpt lat="44.09092" lon="7.04173">
        <ele>1424.2</ele>
        <time>2018-06-10T08:52:35Z</time>
      </trkpt>
      <trkpt lat="44.09084" lon="7.04199">
        <ele>1424.8</ele>
        <time>2018-06-10T08:52:46Z</time>
      </trkpt>
      <trkpt lat="44.09075" lon="7.04223">
        <ele>1425.5</ele>
        <time>2018-06-10T08:52:57Z</time>
      </trkpt>
      <trkpt lat="44.09058" lon="7.04234">
        <ele>1426.1</ele>
        <time>2018-06-10T08:53:07Z</time>
      </trkpt>
      <trkpt lat="44.09042" lon="7.04246">
        <ele>1426.7</ele>
        <time>2018-06-10T08:53:18Z</time>
      </trkpt>
      <trkpt lat="44.09026" lon="7.04262">
        <ele>1427.3</ele>
        <time>2018-06-10T08:53:28Z</time>
      </trkpt>
      <trkpt lat="44.09012" lon="7.04278">
        <ele>1427.9</ele>
        <time>2018-06-10T08:53:38Z</time>
      </trkpt>
      <trkpt lat="44.08999" lon="7.04298">
        <ele>1429</ele>
        <time>2018-06-10T08:53:46Z</time>
      </trkpt>
      <trkpt lat="44.08987" lon="7.0432">
        <ele>1430.3</ele>
        <time>2018-06-10T08:53:54Z</time>
      </trkpt>
      <trkpt lat="44.08969" lon="7.04328">
        <ele>1431.5</ele>
        <time>2018-06-10T08:54:05Z</time>
      </trkpt>
      <trkpt lat="44.08951" lon="7.04325">
        <ele>1432.5</ele>
        <time>2018-06-10T08:54:15Z</time>
      </trkpt>
      <trkpt lat="44.08933" lon="7.04319">
        <ele>1433.4</ele>
        <time>2018-06-10T08:54:25Z</time>
      </trkpt>
      <trkpt lat="44.08914" lon="7.04309">
        <ele>1434</ele>
        <time>2018-06-10T08:54:34Z</time>
      </trkpt>
      <trkpt lat="44.08898" lon="7.04294">
        <ele>1434.5</ele>
        <time>2018-06-10T08:54:45Z</time>
      </trkpt>
      <trkpt lat="44.08883" lon="7.04277">
        <ele>1434.8</ele>
        <time>2018-06-10T08:54:54Z</time>
      </trkpt>
      <trkpt lat="44.08872" lon="7.04257">
        <ele>1435.1</ele>
        <time>2018-06-10T08:55:03Z</time>
      </trkpt>
      <trkpt lat="44.08865" lon="7.04233">
        <ele>1435.3</ele>
        <time>2018-06-10T08:55:13Z</time>
      </trkpt>
      <trkpt lat="44.0885" lon="7.04217">
        <ele>1435.6</ele>
        <time>2018-06-10T08:55:22Z</time>
      </trkpt>
      <trkpt lat="44.08834" lon="7.04226">
        <ele>1436</ele>
        <time>2018-06-10T08:55:30Z</time>
      </trkpt>
      <trkpt lat="44.08823" lon="7.04247">
        <ele>1437.8</ele>
        <time>2018-06-10T08:55:40Z</time>
      </trkpt>
      <trkpt lat="44.08815" lon="7.04271">
        <ele>1439.4</ele>
        <time>2018-06-10T08:55:50Z</time>
      </trkpt>
      <trkpt lat="44.08806" lon="7.04296">
        <ele>1440.3</ele>
        <time>2018-06-10T08:56:00Z</time>
      </trkpt>
      <trkpt lat="44.088" lon="7.04321">
        <ele>1440.9</ele>
        <time>2018-06-10T08:56:09Z</time>
      </trkpt>
      <trkpt lat="44.08795" lon="7.04346">
        <ele>1441.4</ele>
        <time>2018-06-10T08:56:18Z</time>
      </trkpt>
      <trkpt lat="44.0879" lon="7.04373">
        <ele>1441.8</ele>
        <time>2018-06-10T08:56:28Z</time>
      </trkpt>
      <trkpt lat="44.08778" lon="7.04384">
        <ele>1441.9</ele>
        <time>2018-06-10T08:56:36Z</time>
      </trkpt>
      <trkpt lat="44.08781" lon="7.04364">
        <ele>1444</ele>
        <time>2018-06-10T08:56:44Z</time>
      </trkpt>
      <trkpt lat="44.08791" lon="7.0434">
        <ele>1447.3</ele>
        <time>2018-06-10T08:56:53Z</time>
      </trkpt>
      <trkpt lat="44.08796" lon="7.04314">
        <ele>1450.1</ele>
        <time>2018-06-10T08:57:03Z</time>
      </trkpt>
      <trkpt lat="44.08799" lon="7.04288">
        <ele>1452.6</ele>
        <time>2018-06-10T08:57:13Z</time>
      </trkpt>
      <trkpt lat="44.08804" lon="7.04261">
        <ele>1455.2</ele>
        <time>2018-06-10T08:57:22Z</time>
      </trkpt>
      <trkpt lat="44.08808" lon="7.04236">
        <ele>1457.7</ele>
        <time>2018-06-10T08:57:31Z</time>
      </trkpt>
      <trkpt lat="44.08814" lon="7.04209">
        <ele>1460.2</ele>
        <time>2018-06-10T08:57:41Z</time>
      </trkpt>
      <trkpt lat="44.08822" lon="7.04184">
        <ele>1462.6</ele>
        <time>2018-06-10T08:57:51Z</time>
      </trkpt>
      <trkpt lat="44.08828" lon="7.0416">
        <ele>1464.7</ele>
        <time>2018-06-10T08:58:01Z</time>
      </trkpt>
      <trkpt lat="44.08831" lon="7.04133">
        <ele>1466.9</ele>
        <time>2018-06-10T08:58:12Z</time>
      </trkpt>
      <trkpt lat="44.08836" lon="7.04107">
        <ele>1469.1</ele>
        <time>2018-06-10T08:58:22Z</time>
      </trkpt>
      <trkpt lat="44.08841" lon="7.04081">
        <ele>1471.2</ele>
        <time>2018-06-10T08:58:32Z</time>
      </trkpt>
      <trkpt lat="44.08845" lon="7.04055">
        <ele>1473.1</ele>
        <time>2018-06-10T08:58:41Z</time>
      </trkpt>
      <trkpt lat="44.08853" lon="7.04033">
        <ele>1475</ele>
        <time>2018-06-10T08:58:50Z</time>
      </trkpt>
      <trkpt lat="44.08863" lon="7.0401">
        <ele>1476.9</ele>
        <time>2018-06-10T08:59:00Z</time>
      </trkpt>
      <trkpt lat="44.08866" lon="7.04">
        <ele>1477.7</ele>
        <time>2018-06-10T08:59:04Z</time>
      </trkpt>
      <trkpt lat="44.08869" lon="7.03974">
        <ele>1479.7</ele>
        <time>2018-06-10T08:59:15Z</time>
      </trkpt>
      <trkpt lat="44.08873" lon="7.03948">
        <ele>1481.6</ele>
        <time>2018-06-10T08:59:24Z</time>
      </trkpt>
      <trkpt lat="44.08874" lon="7.03922">
        <ele>1483.6</ele>
        <time>2018-06-10T08:59:34Z</time>
      </trkpt>
      <trkpt lat="44.08874" lon="7.03895">
        <ele>1485.7</ele>
        <time>2018-06-10T08:59:44Z</time>
      </trkpt>
      <trkpt lat="44.08878" lon="7.03867">
        <ele>1487.8</ele>
        <time>2018-06-10T08:59:54Z</time>
      </trkpt>
      <trkpt lat="44.08883" lon="7.03843">
        <ele>1489.9</ele>
        <time>2018-06-10T09:00:03Z</time>
      </trkpt>
      <trkpt lat="44.08886" lon="7.03832">
        <ele>1490.6</ele>
        <time>2018-06-10T09:00:07Z</time>
      </trkpt>
      <trkpt lat="44.08902" lon="7.03831">
        <ele>1491.5</ele>
        <time>2018-06-10T09:00:15Z</time>
      </trkpt>
      <trkpt lat="44.08905" lon="7.0385">
        <ele>1492</ele>
        <time>2018-06-10T09:00:21Z</time>
      </trkpt>
      <trkpt lat="44.08908" lon="7.03877">
        <ele>1492.6</ele>
        <time>2018-06-10T09:00:30Z</time>
      </trkpt>
      <trkpt lat="44.08913" lon="7.03901">
        <ele>1493.4</ele>
        <time>2018-06-10T09:00:37Z</time>
      </trkpt>
      <trkpt lat="44.08928" lon="7.03917">
        <ele>1494.3</ele>
        <time>2018-06-10T09:00:45Z</time>
      </trkpt>
      <trkpt lat="44.08947" lon="7.03919">
        <ele>1495.3</ele>
        <time>2018-06-10T09:00:54Z</time>
      </trkpt>
      <trkpt lat="44.08966" lon="7.03922">
        <ele>1496.2</ele>
        <time>2018-06-10T09:01:03Z</time>
      </trkpt>
      <trkpt lat="44.08986" lon="7.0392">
        <ele>1497.2</ele>
        <time>2018-06-10T09:01:13Z</time>
      </trkpt>
      <trkpt lat="44.09" lon="7.03903">
        <ele>1498.3</ele>
        <time>2018-06-10T09:01:22Z</time>
      </trkpt>
      <trkpt lat="44.09012" lon="7.03881">
        <ele>1499.3</ele>
        <time>2018-06-10T09:01:31Z</time>
      </trkpt>
      <trkpt lat="44.09022" lon="7.03859">
        <ele>1500.2</ele>
        <time>2018-06-10T09:01:40Z</time>
      </trkpt>
      <trkpt lat="44.09034" lon="7.03839">
        <ele>1501</ele>
        <time>2018-06-10T09:01:49Z</time>
      </trkpt>
      <trkpt lat="44.0905" lon="7.03825">
        <ele>1501.9</ele>
        <time>2018-06-10T09:01:59Z</time>
      </trkpt>
      <trkpt lat="44.09063" lon="7.03807">
        <ele>1502.7</ele>
        <time>2018-06-10T09:02:09Z</time>
      </trkpt>
      <trkpt lat="44.09076" lon="7.03785">
        <ele>1503.5</ele>
        <time>2018-06-10T09:02:19Z</time>
      </trkpt>
      <trkpt lat="44.0908" lon="7.03776">
        <ele>1503.9</ele>
        <time>2018-06-10T09:02:23Z</time>
      </trkpt>
      <trkpt lat="44.09083" lon="7.03768">
        <ele>1504.1</ele>
        <time>2018-06-10T09:02:27Z</time>
      </trkpt>
      <trkpt lat="44.09094" lon="7.03748">
        <ele>1505</ele>
        <time>2018-06-10T09:02:36Z</time>
      </trkpt>
      <trkpt lat="44.09109" lon="7.0373">
        <ele>1506</ele>
        <time>2018-06-10T09:02:44Z</time>
      </trkpt>
      <trkpt lat="44.09121" lon="7.03708">
        <ele>1506.7</ele>
        <time>2018-06-10T09:02:54Z</time>
      </trkpt>
      <trkpt lat="44.09135" lon="7.03693">
        <ele>1507.2</ele>
        <time>2018-06-10T09:03:03Z</time>
      </trkpt>
      <trkpt lat="44.09151" lon="7.03676">
        <ele>1507.6</ele>
        <time>2018-06-10T09:03:13Z</time>
      </trkpt>
      <trkpt lat="44.09169" lon="7.03665">
        <ele>1508.3</ele>
        <time>2018-06-10T09:03:23Z</time>
      </trkpt>
      <trkpt lat="44.09186" lon="7.03658">
        <ele>1509.9</ele>
        <time>2018-06-10T09:03:34Z</time>
      </trkpt>
      <trkpt lat="44.09204" lon="7.0365">
        <ele>1511.7</ele>
        <time>2018-06-10T09:03:44Z</time>
      </trkpt>
      <trkpt lat="44.09219" lon="7.03634">
        <ele>1513.5</ele>
        <time>2018-06-10T09:03:54Z</time>
      </trkpt>
      <trkpt lat="44.09232" lon="7.03615">
        <ele>1515.4</ele>
        <time>2018-06-10T09:04:04Z</time>
      </trkpt>
      <trkpt lat="44.09247" lon="7.036">
        <ele>1517.1</ele>
        <time>2018-06-10T09:04:15Z</time>
      </trkpt>
      <trkpt lat="44.09264" lon="7.0359">
        <ele>1518.8</ele>
        <time>2018-06-10T09:04:25Z</time>
      </trkpt>
      <trkpt lat="44.09281" lon="7.03579">
        <ele>1520.3</ele>
        <time>2018-06-10T09:04:35Z</time>
      </trkpt>
      <trkpt lat="44.09297" lon="7.03566">
        <ele>1521.7</ele>
        <time>2018-06-10T09:04:44Z</time>
      </trkpt>
      <trkpt lat="44.09314" lon="7.03552">
        <ele>1522.9</ele>
        <time>2018-06-10T09:04:53Z</time>
      </trkpt>
      <trkpt lat="44.09329" lon="7.03538">
        <ele>1523.9</ele>
        <time>2018-06-10T09:05:02Z</time>
      </trkpt>
      <trkpt lat="44.0934" lon="7.03517">
        <ele>1525.1</ele>
        <time>2018-06-10T09:05:11Z</time>
      </trkpt>
      <trkpt lat="44.09349" lon="7.03491">
        <ele>1526.1</ele>
        <time>2018-06-10T09:05:20Z</time>
      </trkpt>
      <trkpt lat="44.09351" lon="7.03475">
        <ele>1526.6</ele>
        <time>2018-06-10T09:05:25Z</time>
      </trkpt>
      <trkpt lat="44.09344" lon="7.03475">
        <ele>1527</ele>
        <time>2018-06-10T09:05:29Z</time>
      </trkpt>
      <trkpt lat="44.0933" lon="7.03492">
        <ele>1527.9</ele>
        <time>2018-06-10T09:05:37Z</time>
      </trkpt>
      <trkpt lat="44.09318" lon="7.03511">
        <ele>1528.9</ele>
        <time>2018-06-10T09:05:45Z</time>
      </trkpt>
      <trkpt lat="44.09301" lon="7.03523">
        <ele>1529.7</ele>
        <time>2018-06-10T09:05:55Z</time>
      </trkpt>
      <trkpt lat="44.09283" lon="7.03531">
        <ele>1530.4</ele>
        <time>2018-06-10T09:06:05Z</time>
      </trkpt>
      <trkpt lat="44.09264" lon="7.03537">
        <ele>1531.1</ele>
        <time>2018-06-10T09:06:14Z</time>
      </trkpt>
      <trkpt lat="44.09246" lon="7.03542">
        <ele>1531.8</ele>
        <time>2018-06-10T09:06:23Z</time>
      </trkpt>
      <trkpt lat="44.09229" lon="7.03549">
        <ele>1532.5</ele>
        <time>2018-06-10T09:06:32Z</time>
      </trkpt>
      <trkpt lat="44.09209" lon="7.03553">
        <ele>1533.2</ele>
        <time>2018-06-10T09:06:41Z</time>
      </trkpt>
      <trkpt lat="44.09191" lon="7.03558">
        <ele>1533.7</ele>
        <time>2018-06-10T09:06:52Z</time>
      </trkpt>
      <trkpt lat="44.09172" lon="7.03556">
        <ele>1534.2</ele>
        <time>2018-06-10T09:07:01Z</time>
      </trkpt>
      <trkpt lat="44.09155" lon="7.03544">
        <ele>1534.8</ele>
        <time>2018-06-10T09:07:10Z</time>
      </trkpt>
      <trkpt lat="44.09153" lon="7.0354">
        <ele>1535</ele>
        <time>2018-06-10T09:07:12Z</time>
      </trkpt>
      <trkpt lat="44.09154" lon="7.03514">
        <ele>1535.9</ele>
        <time>2018-06-10T09:07:22Z</time>
      </trkpt>
      <trkpt lat="44.09159" lon="7.03488">
        <ele>1536.3</ele>
        <time>2018-06-10T09:07:32Z</time>
      </trkpt>
      <trkpt lat="44.09166" lon="7.03465">
        <ele>1536.6</ele>
        <time>2018-06-10T09:07:42Z</time>
      </trkpt>
      <trkpt lat="44.09172" lon="7.03439">
        <ele>1537.1</ele>
        <time>2018-06-10T09:07:52Z</time>
      </trkpt>
      <trkpt lat="44.09161" lon="7.03419">
        <ele>1537.7</ele>
        <time>2018-06-10T09:08:01Z</time>
      </trkpt>
      <trkpt lat="44.09143" lon="7.03412">
        <ele>1538.4</ele>
        <time>2018-06-10T09:08:09Z</time>
      </trkpt>
      <trkpt lat="44.09125" lon="7.03403">
        <ele>1538.9</ele>
        <time>2018-06-10T09:08:18Z</time>
      </trkpt>
      <trkpt lat="44.09107" lon="7.03396">
        <ele>1539.4</ele>
        <time>2018-06-10T09:08:27Z</time>
      </trkpt>
      <trkpt lat="44.09087" lon="7.03391">
        <ele>1539.9</ele>
        <time>2018-06-10T09:08:37Z</time>
      </trkpt>
      <trkpt lat="44.09067" lon="7.03388">
        <ele>1540.1</ele>
        <time>2018-06-10T09:08:46Z</time>
      </trkpt>
      <trkpt lat="44.09058" lon="7.03372">
        <ele>1541.8</ele>
        <time>2018-06-10T09:08:55Z</time>
      </trkpt>
      <trkpt lat="44.09073" lon="7.03368">
        <ele>1544.6</ele>
        <time>2018-06-10T09:09:02Z</time>
      </trkpt>
      <trkpt lat="44.09091" lon="7.0336">
        <ele>1550.1</ele>
        <time>2018-06-10T09:09:12Z</time>
      </trkpt>
      <trkpt lat="44.09105" lon="7.03342">
        <ele>1554.1</ele>
        <time>2018-06-10T09:09:21Z</time>
      </trkpt>
      <trkpt lat="44.09119" lon="7.03324">
        <ele>1557.3</ele>
        <time>2018-06-10T09:09:31Z</time>
      </trkpt>
      <trkpt lat="44.09134" lon="7.03308">
        <ele>1559.4</ele>
        <time>2018-06-10T09:09:40Z</time>
      </trkpt>
      <trkpt lat="44.09148" lon="7.0329">
        <ele>1562.5</ele>
        <time>2018-06-10T09:09:50Z</time>
      </trkpt>
      <trkpt lat="44.09161" lon="7.0327">
        <ele>1566.2</ele>
        <time>2018-06-10T09:10:00Z</time>
      </trkpt>
      <trkpt lat="44.09175" lon="7.03251">
        <ele>1570.1</ele>
        <time>2018-06-10T09:10:10Z</time>
      </trkpt>
      <trkpt lat="44.09189" lon="7.03235">
        <ele>1574.1</ele>
        <time>2018-06-10T09:10:20Z</time>
      </trkpt>
      <trkpt lat="44.09203" lon="7.03218">
        <ele>1578.2</ele>
        <time>2018-06-10T09:10:30Z</time>
      </trkpt>
      <trkpt lat="44.09217" lon="7.03201">
        <ele>1581.9</ele>
        <time>2018-06-10T09:10:40Z</time>
      </trkpt>
      <trkpt lat="44.09232" lon="7.03187">
        <ele>1585.2</ele>
        <time>2018-06-10T09:10:50Z</time>
      </trkpt>
      <trkpt lat="44.09247" lon="7.03171">
        <ele>1588.3</ele>
        <time>2018-06-10T09:11:00Z</time>
      </trkpt>
      <trkpt lat="44.09259" lon="7.03149">
        <ele>1591.1</ele>
        <time>2018-06-10T09:11:10Z</time>
      </trkpt>
      <trkpt lat="44.09269" lon="7.03127">
        <ele>1593.7</ele>
        <time>2018-06-10T09:11:20Z</time>
      </trkpt>
      <trkpt lat="44.09278" lon="7.03105">
        <ele>1596.1</ele>
        <time>2018-06-10T09:11:31Z</time>
      </trkpt>
      <trkpt lat="44.09287" lon="7.03081">
        <ele>1598.9</ele>
        <time>2018-06-10T09:11:41Z</time>
      </trkpt>
      <trkpt lat="44.09287" lon="7.03076">
        <ele>1599.4</ele>
        <time>2018-06-10T09:11:43Z</time>
      </trkpt>
      <trkpt lat="44.09276" lon="7.03081">
        <ele>1600.9</ele>
        <time>2018-06-10T09:11:49Z</time>
      </trkpt>
      <trkpt lat="44.09262" lon="7.03099">
        <ele>1602.3</ele>
        <time>2018-06-10T09:12:00Z</time>
      </trkpt>
      <trkpt lat="44.09247" lon="7.03114">
        <ele>1602.6</ele>
        <time>2018-06-10T09:12:09Z</time>
      </trkpt>
      <trkpt lat="44.09231" lon="7.03126">
        <ele>1603.5</ele>
        <time>2018-06-10T09:12:19Z</time>
      </trkpt>
      <trkpt lat="44.09214" lon="7.03139">
        <ele>1604.4</ele>
        <time>2018-06-10T09:12:29Z</time>
      </trkpt>
      <trkpt lat="44.09196" lon="7.03147">
        <ele>1606.4</ele>
        <time>2018-06-10T09:12:39Z</time>
      </trkpt>
      <trkpt lat="44.09178" lon="7.0315">
        <ele>1608.4</ele>
        <time>2018-06-10T09:12:49Z</time>
      </trkpt>
      <trkpt lat="44.0916" lon="7.03154">
        <ele>1610.4</ele>
        <time>2018-06-10T09:12:59Z</time>
      </trkpt>
      <trkpt lat="44.09141" lon="7.03152">
        <ele>1613</ele>
        <time>2018-06-10T09:13:11Z</time>
      </trkpt>
      <trkpt lat="44.09122" lon="7.03146">
        <ele>1615.9</ele>
        <time>2018-06-10T09:13:21Z</time>
      </trkpt>
      <trkpt lat="44.09107" lon="7.03134">
        <ele>1620.6</ele>
        <time>2018-06-10T09:13:29Z</time>
      </trkpt>
      <trkpt lat="44.09092" lon="7.03118">
        <ele>1624.1</ele>
        <time>2018-06-10T09:13:39Z</time>
      </trkpt>
      <trkpt lat="44.09075" lon="7.03105">
        <ele>1626.9</ele>
        <time>2018-06-10T09:13:49Z</time>
      </trkpt>
      <trkpt lat="44.09059" lon="7.03092">
        <ele>1629.3</ele>
        <time>2018-06-10T09:14:01Z</time>
      </trkpt>
      <trkpt lat="44.09042" lon="7.03078">
        <ele>1631.3</ele>
        <time>2018-06-10T09:14:11Z</time>
      </trkpt>
      <trkpt lat="44.09032" lon="7.03072">
        <ele>1632.5</ele>
        <time>2018-06-10T09:14:20Z</time>
      </trkpt>
      <trkpt lat="44.0902" lon="7.03066">
        <ele>1633.3</ele>
        <time>2018-06-10T09:14:49Z</time>
      </trkpt>
      <trkpt lat="44.09025" lon="7.03058">
        <ele>1633.5</ele>
        <time>2018-06-10T09:14:56Z</time>
      </trkpt>
      <trkpt lat="44.09035" lon="7.0306">
        <ele>1634.1</ele>
        <time>2018-06-10T09:15:04Z</time>
      </trkpt>
      <trkpt lat="44.09054" lon="7.03064">
        <ele>1633.5</ele>
        <time>2018-06-10T09:15:16Z</time>
      </trkpt>
      <trkpt lat="44.09073" lon="7.03068">
        <ele>1632.8</ele>
        <time>2018-06-10T09:15:26Z</time>
      </trkpt>
      <trkpt lat="44.09092" lon="7.03073">
        <ele>1632.9</ele>
        <time>2018-06-10T09:15:37Z</time>
      </trkpt>
      <trkpt lat="44.0911" lon="7.03077">
        <ele>1631.2</ele>
        <time>2018-06-10T09:15:47Z</time>
      </trkpt>
      <trkpt lat="44.09129" lon="7.03078">
        <ele>1628.8</ele>
        <time>2018-06-10T09:15:58Z</time>
      </trkpt>
      <trkpt lat="44.09145" lon="7.03067">
        <ele>1628.5</ele>
        <time>2018-06-10T09:16:07Z</time>
      </trkpt>
      <trkpt lat="44.0916" lon="7.03052">
        <ele>1628.8</ele>
        <time>2018-06-10T09:16:16Z</time>
      </trkpt>
      <trkpt lat="44.09173" lon="7.03035">
        <ele>1629.1</ele>
        <time>2018-06-10T09:16:25Z</time>
      </trkpt>
      <trkpt lat="44.09184" lon="7.03014">
        <ele>1630.6</ele>
        <time>2018-06-10T09:16:37Z</time>
      </trkpt>
      <trkpt lat="44.09187" lon="7.02987">
        <ele>1632.3</ele>
        <time>2018-06-10T09:16:48Z</time>
      </trkpt>
      <trkpt lat="44.09188" lon="7.02976">
        <ele>1633.1</ele>
        <time>2018-06-10T09:16:52Z</time>
      </trkpt>
      <trkpt lat="44.0919" lon="7.02964">
        <ele>1635</ele>
        <time>2018-06-10T09:16:57Z</time>
      </trkpt>
      <trkpt lat="44.09184" lon="7.02944">
        <ele>1637.7</ele>
        <time>2018-06-10T09:17:10Z</time>
      </trkpt>
      <trkpt lat="44.09172" lon="7.02962">
        <ele>1636.1</ele>
        <time>2018-06-10T09:17:20Z</time>
      </trkpt>
      <trkpt lat="44.09158" lon="7.02981">
        <ele>1636.7</ele>
        <time>2018-06-10T09:17:30Z</time>
      </trkpt>
      <trkpt lat="44.09143" lon="7.02997">
        <ele>1637.2</ele>
        <time>2018-06-10T09:17:40Z</time>
      </trkpt>
      <trkpt lat="44.09125" lon="7.03006">
        <ele>1639.9</ele>
        <time>2018-06-10T09:17:49Z</time>
      </trkpt>
      <trkpt lat="44.09107" lon="7.03">
        <ele>1642.8</ele>
        <time>2018-06-10T09:17:57Z</time>
      </trkpt>
      <trkpt lat="44.09088" lon="7.02997">
        <ele>1645.4</ele>
        <time>2018-06-10T09:18:04Z</time>
      </trkpt>
      <trkpt lat="44.09069" lon="7.0299">
        <ele>1648.1</ele>
        <time>2018-06-10T09:18:13Z</time>
      </trkpt>
      <trkpt lat="44.0905" lon="7.02982">
        <ele>1650.5</ele>
        <time>2018-06-10T09:18:20Z</time>
      </trkpt>
      <trkpt lat="44.09031" lon="7.02974">
        <ele>1652.4</ele>
        <time>2018-06-10T09:18:28Z</time>
      </trkpt>
      <trkpt lat="44.09015" lon="7.02962">
        <ele>1653.5</ele>
        <time>2018-06-10T09:18:36Z</time>
      </trkpt>
      <trkpt lat="44.08999" lon="7.02949">
        <ele>1655</ele>
        <time>2018-06-10T09:18:46Z</time>
      </trkpt>
      <trkpt lat="44.08984" lon="7.02932">
        <ele>1659.6</ele>
        <time>2018-06-10T09:18:57Z</time>
      </trkpt>
      <trkpt lat="44.08969" lon="7.02914">
        <ele>1662.8</ele>
        <time>2018-06-10T09:19:07Z</time>
      </trkpt>
      <trkpt lat="44.08966" lon="7.02907">
        <ele>1663.2</ele>
        <time>2018-06-10T09:19:10Z</time>
      </trkpt>
      <trkpt lat="44.08973" lon="7.02897">
        <ele>1663.7</ele>
        <time>2018-06-10T09:19:17Z</time>
      </trkpt>
      <trkpt lat="44.0899" lon="7.02908">
        <ele>1663.8</ele>
        <time>2018-06-10T09:19:30Z</time>
      </trkpt>
      <trkpt lat="44.09009" lon="7.02913">
        <ele>1662.9</ele>
        <time>2018-06-10T09:19:42Z</time>
      </trkpt>
      <trkpt lat="44.09027" lon="7.0291">
        <ele>1662.8</ele>
        <time>2018-06-10T09:19:53Z</time>
      </trkpt>
      <trkpt lat="44.09041" lon="7.02903">
        <ele>1661.9</ele>
        <time>2018-06-10T09:20:01Z</time>
      </trkpt>
      <trkpt lat="44.09059" lon="7.02892">
        <ele>1661.1</ele>
        <time>2018-06-10T09:20:12Z</time>
      </trkpt>
      <trkpt lat="44.09076" lon="7.02885">
        <ele>1661</ele>
        <time>2018-06-10T09:20:23Z</time>
      </trkpt>
      <trkpt lat="44.09084" lon="7.02883">
        <ele>1660.8</ele>
        <time>2018-06-10T09:20:28Z</time>
      </trkpt>
      <trkpt lat="44.09073" lon="7.0287">
        <ele>1664.7</ele>
        <time>2018-06-10T09:20:39Z</time>
      </trkpt>
      <trkpt lat="44.09053" lon="7.02867">
        <ele>1667.3</ele>
        <time>2018-06-10T09:20:51Z</time>
      </trkpt>
      <trkpt lat="44.09036" lon="7.02862">
        <ele>1668.6</ele>
        <time>2018-06-10T09:21:00Z</time>
      </trkpt>
      <trkpt lat="44.09018" lon="7.02854">
        <ele>1669.4</ele>
        <time>2018-06-10T09:21:11Z</time>
      </trkpt>
      <trkpt lat="44.09002" lon="7.0284">
        <ele>1671.8</ele>
        <time>2018-06-10T09:21:23Z</time>
      </trkpt>
      <trkpt lat="44.08986" lon="7.02826">
        <ele>1673.8</ele>
        <time>2018-06-10T09:21:34Z</time>
      </trkpt>
      <trkpt lat="44.08975" lon="7.02818">
        <ele>1674.7</ele>
        <time>2018-06-10T09:21:41Z</time>
      </trkpt>
      <trkpt lat="44.08969" lon="7.02803">
        <ele>1674.6</ele>
        <time>2018-06-10T09:21:48Z</time>
      </trkpt>
      <trkpt lat="44.08978" lon="7.02796">
        <ele>1676.2</ele>
        <time>2018-06-10T09:21:56Z</time>
      </trkpt>
      <trkpt lat="44.08983" lon="7.02801">
        <ele>1677.5</ele>
        <time>2018-06-10T09:22:00Z</time>
      </trkpt>
      <trkpt lat="44.09001" lon="7.02811">
        <ele>1679.3</ele>
        <time>2018-06-10T09:22:13Z</time>
      </trkpt>
      <trkpt lat="44.0902" lon="7.02813">
        <ele>1679</ele>
        <time>2018-06-10T09:22:26Z</time>
      </trkpt>
      <trkpt lat="44.09039" lon="7.02809">
        <ele>1679</ele>
        <time>2018-06-10T09:22:38Z</time>
      </trkpt>
      <trkpt lat="44.09056" lon="7.02802">
        <ele>1679.5</ele>
        <time>2018-06-10T09:22:49Z</time>
      </trkpt>
      <trkpt lat="44.09059" lon="7.02802">
        <ele>1679.9</ele>
        <time>2018-06-10T09:22:51Z</time>
      </trkpt>
      <trkpt lat="44.09065" lon="7.0278">
        <ele>1682.8</ele>
        <time>2018-06-10T09:23:04Z</time>
      </trkpt>
      <trkpt lat="44.09062" lon="7.02777">
        <ele>1683.2</ele>
        <time>2018-06-10T09:23:08Z</time>
      </trkpt>
      <trkpt lat="44.09056" lon="7.02775">
        <ele>1683.9</ele>
        <time>2018-06-10T09:23:13Z</time>
      </trkpt>
      <trkpt lat="44.09038" lon="7.02769">
        <ele>1687.3</ele>
        <time>2018-06-10T09:23:25Z</time>
      </trkpt>
      <trkpt lat="44.0902" lon="7.02759">
        <ele>1689.2</ele>
        <time>2018-06-10T09:23:38Z</time>
      </trkpt>
      <trkpt lat="44.09004" lon="7.02748">
        <ele>1690.6</ele>
        <time>2018-06-10T09:23:49Z</time>
      </trkpt>
      <trkpt lat="44.08988" lon="7.02734">
        <ele>1691</ele>
        <time>2018-06-10T09:24:01Z</time>
      </trkpt>
      <trkpt lat="44.08975" lon="7.02717">
        <ele>1691</ele>
        <time>2018-06-10T09:24:14Z</time>
      </trkpt>
      <trkpt lat="44.08962" lon="7.02699">
        <ele>1692.7</ele>
        <time>2018-06-10T09:24:26Z</time>
      </trkpt>
      <trkpt lat="44.08949" lon="7.0268">
        <ele>1694.6</ele>
        <time>2018-06-10T09:24:37Z</time>
      </trkpt>
      <trkpt lat="44.08937" lon="7.02661">
        <ele>1695.7</ele>
        <time>2018-06-10T09:24:50Z</time>
      </trkpt>
      <trkpt lat="44.08923" lon="7.02643">
        <ele>1699.6</ele>
        <time>2018-06-10T09:25:02Z</time>
      </trkpt>
      <trkpt lat="44.0891" lon="7.02624">
        <ele>1703.4</ele>
        <time>2018-06-10T09:25:16Z</time>
      </trkpt>
      <trkpt lat="44.089" lon="7.02603">
        <ele>1709.5</ele>
        <time>2018-06-10T09:25:29Z</time>
      </trkpt>
      <trkpt lat="44.08887" lon="7.02583">
        <ele>1713.4</ele>
        <time>2018-06-10T09:25:40Z</time>
      </trkpt>
      <trkpt lat="44.08871" lon="7.02571">
        <ele>1716.2</ele>
        <time>2018-06-10T09:25:51Z</time>
      </trkpt>
      <trkpt lat="44.08867" lon="7.02568">
        <ele>1715.4</ele>
        <time>2018-06-10T09:25:54Z</time>
      </trkpt>
      <trkpt lat="44.0886" lon="7.02569">
        <ele>1713.2</ele>
        <time>2018-06-10T09:25:58Z</time>
      </trkpt>
      <trkpt lat="44.08851" lon="7.02567">
        <ele>1711.9</ele>
        <time>2018-06-10T09:26:03Z</time>
      </trkpt>
      <trkpt lat="44.08833" lon="7.02573">
        <ele>1708.6</ele>
        <time>2018-06-10T09:26:15Z</time>
      </trkpt>
      <trkpt lat="44.08814" lon="7.02575">
        <ele>1704.9</ele>
        <time>2018-06-10T09:26:27Z</time>
      </trkpt>
      <trkpt lat="44.08795" lon="7.02575">
        <ele>1704.3</ele>
        <time>2018-06-10T09:26:39Z</time>
      </trkpt>
      <trkpt lat="44.08776" lon="7.02571">
        <ele>1705.5</ele>
        <time>2018-06-10T09:26:51Z</time>
      </trkpt>
      <trkpt lat="44.08757" lon="7.02571">
        <ele>1706.9</ele>
        <time>2018-06-10T09:27:03Z</time>
      </trkpt>
      <trkpt lat="44.08739" lon="7.02571">
        <ele>1708</ele>
        <time>2018-06-10T09:27:14Z</time>
      </trkpt>
      <trkpt lat="44.08719" lon="7.02565">
        <ele>1707.9</ele>
        <time>2018-06-10T09:27:26Z</time>
      </trkpt>
      <trkpt lat="44.08706" lon="7.02547">
        <ele>1713.2</ele>
        <time>2018-06-10T09:27:36Z</time>
      </trkpt>
      <trkpt lat="44.08696" lon="7.02525">
        <ele>1716.4</ele>
        <time>2018-06-10T09:27:46Z</time>
      </trkpt>
      <trkpt lat="44.0868" lon="7.02515">
        <ele>1718.5</ele>
        <time>2018-06-10T09:27:58Z</time>
      </trkpt>
      <trkpt lat="44.08661" lon="7.02512">
        <ele>1719.4</ele>
        <time>2018-06-10T09:28:10Z</time>
      </trkpt>
      <trkpt lat="44.08643" lon="7.02504">
        <ele>1719.7</ele>
        <time>2018-06-10T09:28:23Z</time>
      </trkpt>
      <trkpt lat="44.08626" lon="7.02497">
        <ele>1719.6</ele>
        <time>2018-06-10T09:28:34Z</time>
      </trkpt>
      <trkpt lat="44.08609" lon="7.02483">
        <ele>1719.9</ele>
        <time>2018-06-10T09:28:46Z</time>
      </trkpt>
      <trkpt lat="44.08596" lon="7.02466">
        <ele>1720</ele>
        <time>2018-06-10T09:28:57Z</time>
      </trkpt>
      <trkpt lat="44.08589" lon="7.02441">
        <ele>1720.1</ele>
        <time>2018-06-10T09:29:09Z</time>
      </trkpt>
      <trkpt lat="44.08584" lon="7.02415">
        <ele>1721.7</ele>
        <time>2018-06-10T09:29:21Z</time>
      </trkpt>
      <trkpt lat="44.08574" lon="7.02394">
        <ele>1723.3</ele>
        <time>2018-06-10T09:29:31Z</time>
      </trkpt>
      <trkpt lat="44.08557" lon="7.02382">
        <ele>1724.5</ele>
        <time>2018-06-10T09:29:40Z</time>
      </trkpt>
      <trkpt lat="44.08538" lon="7.02375">
        <ele>1723.1</ele>
        <time>2018-06-10T09:29:48Z</time>
      </trkpt>
      <trkpt lat="44.0852" lon="7.02374">
        <ele>1723</ele>
        <time>2018-06-10T09:29:56Z</time>
      </trkpt>
      <trkpt lat="44.08502" lon="7.02372">
        <ele>1722.6</ele>
        <time>2018-06-10T09:30:04Z</time>
      </trkpt>
      <trkpt lat="44.08483" lon="7.02368">
        <ele>1723.9</ele>
        <time>2018-06-10T09:30:15Z</time>
      </trkpt>
      <trkpt lat="44.08472" lon="7.02366">
        <ele>1725.6</ele>
        <time>2018-06-10T09:30:23Z</time>
      </trkpt>
      <trkpt lat="44.08455" lon="7.02359">
        <ele>1727.9</ele>
        <time>2018-06-10T09:30:36Z</time>
      </trkpt>
      <trkpt lat="44.0844" lon="7.02345">
        <ele>1727.9</ele>
        <time>2018-06-10T09:30:49Z</time>
      </trkpt>
      <trkpt lat="44.08424" lon="7.0233">
        <ele>1727.8</ele>
        <time>2018-06-10T09:31:01Z</time>
      </trkpt>
      <trkpt lat="44.08406" lon="7.02322">
        <ele>1728</ele>
        <time>2018-06-10T09:31:12Z</time>
      </trkpt>
      <trkpt lat="44.08387" lon="7.02315">
        <ele>1728.1</ele>
        <time>2018-06-10T09:31:23Z</time>
      </trkpt>
      <trkpt lat="44.08367" lon="7.02312">
        <ele>1727.8</ele>
        <time>2018-06-10T09:31:33Z</time>
      </trkpt>
      <trkpt lat="44.08348" lon="7.0231">
        <ele>1727.2</ele>
        <time>2018-06-10T09:31:43Z</time>
      </trkpt>
      <trkpt lat="44.08337" lon="7.02303">
        <ele>1726.6</ele>
        <time>2018-06-10T09:31:53Z</time>
      </trkpt>
      <trkpt lat="44.08334" lon="7.023">
        <ele>1726.4</ele>
        <time>2018-06-10T10:03:41Z</time>
      </trkpt>
      <trkpt lat="44.08316" lon="7.02305">
        <ele>1725</ele>
        <time>2018-06-10T10:03:44Z</time>
      </trkpt>
      <trkpt lat="44.08301" lon="7.02303">
        <ele>1722.6</ele>
        <time>2018-06-10T10:03:46Z</time>
      </trkpt>
      <trkpt lat="44.08284" lon="7.02298">
        <ele>1720.6</ele>
        <time>2018-06-10T10:03:48Z</time>
      </trkpt>
      <trkpt lat="44.08268" lon="7.02287">
        <ele>1718.4</ele>
        <time>2018-06-10T10:03:50Z</time>
      </trkpt>
      <trkpt lat="44.08247" lon="7.02263">
        <ele>1717</ele>
        <time>2018-06-10T10:03:53Z</time>
      </trkpt>
      <trkpt lat="44.08239" lon="7.0224">
        <ele>1717.7</ele>
        <time>2018-06-10T10:03:55Z</time>
      </trkpt>
      <trkpt lat="44.08231" lon="7.02208">
        <ele>1718.5</ele>
        <time>2018-06-10T10:03:58Z</time>
      </trkpt>
      <trkpt lat="44.08211" lon="7.02208">
        <ele>1716.1</ele>
        <time>2018-06-10T10:04:02Z</time>
      </trkpt>
      <trkpt lat="44.08205" lon="7.02209">
        <ele>1715.1</ele>
        <time>2018-06-10T10:04:03Z</time>
      </trkpt>
      <trkpt lat="44.0819" lon="7.02194">
        <ele>1713</ele>
        <time>2018-06-10T10:04:06Z</time>
      </trkpt>
      <trkpt lat="44.0817" lon="7.02187">
        <ele>1709.5</ele>
        <time>2018-06-10T10:04:09Z</time>
      </trkpt>
      <trkpt lat="44.08163" lon="7.02207">
        <ele>1707.3</ele>
        <time>2018-06-10T10:04:13Z</time>
      </trkpt>
      <trkpt lat="44.08164" lon="7.02215">
        <ele>1706.9</ele>
        <time>2018-06-10T10:04:14Z</time>
      </trkpt>
      <trkpt lat="44.08147" lon="7.02236">
        <ele>1702.9</ele>
        <time>2018-06-10T10:04:18Z</time>
      </trkpt>
      <trkpt lat="44.08125" lon="7.02227">
        <ele>1698.9</ele>
        <time>2018-06-10T10:04:21Z</time>
      </trkpt>
      <trkpt lat="44.08111" lon="7.02214">
        <ele>1697.2</ele>
        <time>2018-06-10T10:04:23Z</time>
      </trkpt>
      <trkpt lat="44.08097" lon="7.02187">
        <ele>1695.8</ele>
        <time>2018-06-10T10:04:26Z</time>
      </trkpt>
      <trkpt lat="44.08092" lon="7.02177">
        <ele>1695</ele>
        <time>2018-06-10T10:04:27Z</time>
      </trkpt>
      <trkpt lat="44.08079" lon="7.02147">
        <ele>1692.6</ele>
        <time>2018-06-10T10:04:30Z</time>
      </trkpt>
      <trkpt lat="44.0807" lon="7.02113">
        <ele>1690.3</ele>
        <time>2018-06-10T10:04:33Z</time>
      </trkpt>
      <trkpt lat="44.08063" lon="7.02079">
        <ele>1688</ele>
        <time>2018-06-10T10:04:36Z</time>
      </trkpt>
      <trkpt lat="44.08055" lon="7.02045">
        <ele>1685.2</ele>
        <time>2018-06-10T10:04:39Z</time>
      </trkpt>
      <trkpt lat="44.08054" lon="7.02033">
        <ele>1684.5</ele>
        <time>2018-06-10T10:04:40Z</time>
      </trkpt>
      <trkpt lat="44.08051" lon="7.02">
        <ele>1681.9</ele>
        <time>2018-06-10T10:04:43Z</time>
      </trkpt>
      <trkpt lat="44.08048" lon="7.01978">
        <ele>1680.2</ele>
        <time>2018-06-10T10:04:45Z</time>
      </trkpt>
      <trkpt lat="44.08048" lon="7.01949">
        <ele>1678.1</ele>
        <time>2018-06-10T10:04:48Z</time>
      </trkpt>
      <trkpt lat="44.08048" lon="7.0194">
        <ele>1676.9</ele>
        <time>2018-06-10T10:04:49Z</time>
      </trkpt>
      <trkpt lat="44.08047" lon="7.01908">
        <ele>1674</ele>
        <time>2018-06-10T10:04:52Z</time>
      </trkpt>
      <trkpt lat="44.08047" lon="7.01883">
        <ele>1670.8</ele>
        <time>2018-06-10T10:04:54Z</time>
      </trkpt>
      <trkpt lat="44.08047" lon="7.01856">
        <ele>1668.1</ele>
        <time>2018-06-10T10:04:56Z</time>
      </trkpt>
      <trkpt lat="44.08048" lon="7.0183">
        <ele>1664.6</ele>
        <time>2018-06-10T10:04:58Z</time>
      </trkpt>
      <trkpt lat="44.08045" lon="7.01805">
        <ele>1661.1</ele>
        <time>2018-06-10T10:05:00Z</time>
      </trkpt>
      <trkpt lat="44.08045" lon="7.01781">
        <ele>1656.4</ele>
        <time>2018-06-10T10:05:02Z</time>
      </trkpt>
      <trkpt lat="44.08048" lon="7.0177">
        <ele>1656</ele>
        <time>2018-06-10T10:05:03Z</time>
      </trkpt>
      <trkpt lat="44.08061" lon="7.01744">
        <ele>1654.3</ele>
        <time>2018-06-10T10:05:06Z</time>
      </trkpt>
      <trkpt lat="44.08065" lon="7.01734">
        <ele>1654</ele>
        <time>2018-06-10T10:05:07Z</time>
      </trkpt>
      <trkpt lat="44.08074" lon="7.01713">
        <ele>1651.6</ele>
        <time>2018-06-10T10:05:09Z</time>
      </trkpt>
      <trkpt lat="44.08086" lon="7.01693">
        <ele>1650</ele>
        <time>2018-06-10T10:05:11Z</time>
      </trkpt>
      <trkpt lat="44.08101" lon="7.01674">
        <ele>1647.1</ele>
        <time>2018-06-10T10:05:13Z</time>
      </trkpt>
      <trkpt lat="44.0812" lon="7.01652">
        <ele>1643.7</ele>
        <time>2018-06-10T10:05:16Z</time>
      </trkpt>
      <trkpt lat="44.08141" lon="7.0164">
        <ele>1642.8</ele>
        <time>2018-06-10T10:05:19Z</time>
      </trkpt>
      <trkpt lat="44.08149" lon="7.01638">
        <ele>1643.6</ele>
        <time>2018-06-10T10:05:20Z</time>
      </trkpt>
      <trkpt lat="44.08173" lon="7.01634">
        <ele>1646.3</ele>
        <time>2018-06-10T10:05:23Z</time>
      </trkpt>
      <trkpt lat="44.08193" lon="7.01636">
        <ele>1648.5</ele>
        <time>2018-06-10T10:05:26Z</time>
      </trkpt>
      <trkpt lat="44.08207" lon="7.0162">
        <ele>1646.4</ele>
        <time>2018-06-10T10:05:29Z</time>
      </trkpt>
      <trkpt lat="44.08213" lon="7.01615">
        <ele>1645.5</ele>
        <time>2018-06-10T10:05:30Z</time>
      </trkpt>
      <trkpt lat="44.08231" lon="7.01596">
        <ele>1644.9</ele>
        <time>2018-06-10T10:05:33Z</time>
      </trkpt>
      <trkpt lat="44.08244" lon="7.01584">
        <ele>1645.7</ele>
        <time>2018-06-10T10:05:35Z</time>
      </trkpt>
      <trkpt lat="44.08267" lon="7.01572">
        <ele>1648.6</ele>
        <time>2018-06-10T10:05:38Z</time>
      </trkpt>
      <trkpt lat="44.08287" lon="7.01567">
        <ele>1652.6</ele>
        <time>2018-06-10T10:05:41Z</time>
      </trkpt>
      <trkpt lat="44.08286" lon="7.01549">
        <ele>1649.8</ele>
        <time>2018-06-10T10:05:47Z</time>
      </trkpt>
      <trkpt lat="44.08274" lon="7.01529">
        <ele>1646.7</ele>
        <time>2018-06-10T10:05:54Z</time>
      </trkpt>
      <trkpt lat="44.08273" lon="7.01526">
        <ele>1646.3</ele>
        <time>2018-06-10T10:05:55Z</time>
      </trkpt>
      <trkpt lat="44.08254" lon="7.0151">
        <ele>1640.1</ele>
        <time>2018-06-10T10:06:01Z</time>
      </trkpt>
      <trkpt lat="44.08238" lon="7.01497">
        <ele>1635.4</ele>
        <time>2018-06-10T10:06:04Z</time>
      </trkpt>
      <trkpt lat="44.08221" lon="7.0148">
        <ele>1628.7</ele>
        <time>2018-06-10T10:06:07Z</time>
      </trkpt>
      <trkpt lat="44.08203" lon="7.01464">
        <ele>1623</ele>
        <time>2018-06-10T10:06:11Z</time>
      </trkpt>
      <trkpt lat="44.08192" lon="7.01439">
        <ele>1619.3</ele>
        <time>2018-06-10T10:06:15Z</time>
      </trkpt>
      <trkpt lat="44.0819" lon="7.01432">
        <ele>1617.6</ele>
        <time>2018-06-10T10:06:16Z</time>
      </trkpt>
      <trkpt lat="44.08185" lon="7.01405">
        <ele>1616.2</ele>
        <time>2018-06-10T10:06:21Z</time>
      </trkpt>
      <trkpt lat="44.08186" lon="7.01399">
        <ele>1616.6</ele>
        <time>2018-06-10T10:06:23Z</time>
      </trkpt>
      <trkpt lat="44.08192" lon="7.01371">
        <ele>1616.6</ele>
        <time>2018-06-10T10:06:29Z</time>
      </trkpt>
      <trkpt lat="44.08195" lon="7.01343">
        <ele>1616.5</ele>
        <time>2018-06-10T10:06:34Z</time>
      </trkpt>
      <trkpt lat="44.08195" lon="7.01336">
        <ele>1616.8</ele>
        <time>2018-06-10T10:06:35Z</time>
      </trkpt>
      <trkpt lat="44.08195" lon="7.01314">
        <ele>1617.2</ele>
        <time>2018-06-10T10:06:38Z</time>
      </trkpt>
      <trkpt lat="44.08198" lon="7.0129">
        <ele>1617.3</ele>
        <time>2018-06-10T10:06:41Z</time>
      </trkpt>
      <trkpt lat="44.08199" lon="7.01259">
        <ele>1616.5</ele>
        <time>2018-06-10T10:06:45Z</time>
      </trkpt>
      <trkpt lat="44.08198" lon="7.01242">
        <ele>1616.8</ele>
        <time>2018-06-10T10:06:47Z</time>
      </trkpt>
      <trkpt lat="44.08202" lon="7.01218">
        <ele>1617.9</ele>
        <time>2018-06-10T10:06:50Z</time>
      </trkpt>
      <trkpt lat="44.08203" lon="7.01211">
        <ele>1618.6</ele>
        <time>2018-06-10T10:06:51Z</time>
      </trkpt>
      <trkpt lat="44.08205" lon="7.01205">
        <ele>1619.2</ele>
        <time>2018-06-10T10:06:52Z</time>
      </trkpt>
      <trkpt lat="44.0821" lon="7.01184">
        <ele>1619.7</ele>
        <time>2018-06-10T10:06:57Z</time>
      </trkpt>
      <trkpt lat="44.08212" lon="7.01156">
        <ele>1620.4</ele>
        <time>2018-06-10T10:07:01Z</time>
      </trkpt>
      <trkpt lat="44.08212" lon="7.01141">
        <ele>1620.2</ele>
        <time>2018-06-10T10:07:03Z</time>
      </trkpt>
      <trkpt lat="44.0821" lon="7.01113">
        <ele>1619.1</ele>
        <time>2018-06-10T10:07:07Z</time>
      </trkpt>
      <trkpt lat="44.082" lon="7.01083">
        <ele>1614.1</ele>
        <time>2018-06-10T10:07:11Z</time>
      </trkpt>
      <trkpt lat="44.08195" lon="7.01067">
        <ele>1611.5</ele>
        <time>2018-06-10T10:07:13Z</time>
      </trkpt>
      <trkpt lat="44.08194" lon="7.01041">
        <ele>1610.1</ele>
        <time>2018-06-10T10:07:16Z</time>
      </trkpt>
      <trkpt lat="44.08195" lon="7.01032">
        <ele>1610</ele>
        <time>2018-06-10T10:07:17Z</time>
      </trkpt>
      <trkpt lat="44.082" lon="7.01004">
        <ele>1609.5</ele>
        <time>2018-06-10T10:07:20Z</time>
      </trkpt>
      <trkpt lat="44.08209" lon="7.00975">
        <ele>1606.9</ele>
        <time>2018-06-10T10:07:23Z</time>
      </trkpt>
      <trkpt lat="44.08211" lon="7.00964">
        <ele>1605</ele>
        <time>2018-06-10T10:07:24Z</time>
      </trkpt>
      <trkpt lat="44.08216" lon="7.00928">
        <ele>1601</ele>
        <time>2018-06-10T10:07:27Z</time>
      </trkpt>
      <trkpt lat="44.08221" lon="7.00904">
        <ele>1598.7</ele>
        <time>2018-06-10T10:07:29Z</time>
      </trkpt>
      <trkpt lat="44.08226" lon="7.00894">
        <ele>1598.3</ele>
        <time>2018-06-10T10:07:30Z</time>
      </trkpt>
      <trkpt lat="44.08244" lon="7.00873">
        <ele>1599.7</ele>
        <time>2018-06-10T10:07:33Z</time>
      </trkpt>
      <trkpt lat="44.08256" lon="7.00862">
        <ele>1601.3</ele>
        <time>2018-06-10T10:07:35Z</time>
      </trkpt>
      <trkpt lat="44.08271" lon="7.00842">
        <ele>1602.4</ele>
        <time>2018-06-10T10:07:38Z</time>
      </trkpt>
      <trkpt lat="44.08282" lon="7.0083">
        <ele>1603.1</ele>
        <time>2018-06-10T10:07:40Z</time>
      </trkpt>
      <trkpt lat="44.08295" lon="7.0081">
        <ele>1603.5</ele>
        <time>2018-06-10T10:07:43Z</time>
      </trkpt>
      <trkpt lat="44.08308" lon="7.00792">
        <ele>1604</ele>
        <time>2018-06-10T10:07:46Z</time>
      </trkpt>
      <trkpt lat="44.08319" lon="7.00772">
        <ele>1604.1</ele>
        <time>2018-06-10T10:07:49Z</time>
      </trkpt>
      <trkpt lat="44.08332" lon="7.00753">
        <ele>1607.4</ele>
        <time>2018-06-10T10:07:52Z</time>
      </trkpt>
      <trkpt lat="44.0834" lon="7.00738">
        <ele>1609</ele>
        <time>2018-06-10T10:07:54Z</time>
      </trkpt>
      <trkpt lat="44.0835" lon="7.00715">
        <ele>1609</ele>
        <time>2018-06-10T10:07:57Z</time>
      </trkpt>
      <trkpt lat="44.08373" lon="7.0071">
        <ele>1606.9</ele>
        <time>2018-06-10T10:08:01Z</time>
      </trkpt>
      <trkpt lat="44.08394" lon="7.0071">
        <ele>1603.9</ele>
        <time>2018-06-10T10:08:04Z</time>
      </trkpt>
      <trkpt lat="44.08398" lon="7.00709">
        <ele>1603.3</ele>
        <time>2018-06-10T10:08:05Z</time>
      </trkpt>
      <trkpt lat="44.08403" lon="7.00691">
        <ele>1601.6</ele>
        <time>2018-06-10T10:08:10Z</time>
      </trkpt>
      <trkpt lat="44.08405" lon="7.00688">
        <ele>1601.2</ele>
        <time>2018-06-10T10:08:11Z</time>
      </trkpt>
      <trkpt lat="44.08421" lon="7.00702">
        <ele>1600.3</ele>
        <time>2018-06-10T10:08:15Z</time>
      </trkpt>
      <trkpt lat="44.0844" lon="7.00718">
        <ele>1598.1</ele>
        <time>2018-06-10T10:08:18Z</time>
      </trkpt>
      <trkpt lat="44.08463" lon="7.00718">
        <ele>1594.7</ele>
        <time>2018-06-10T10:08:21Z</time>
      </trkpt>
      <trkpt lat="44.0847" lon="7.00716">
        <ele>1593.5</ele>
        <time>2018-06-10T10:08:22Z</time>
      </trkpt>
      <trkpt lat="44.08489" lon="7.00707">
        <ele>1590.7</ele>
        <time>2018-06-10T10:08:25Z</time>
      </trkpt>
      <trkpt lat="44.08506" lon="7.00699">
        <ele>1588.4</ele>
        <time>2018-06-10T10:08:28Z</time>
      </trkpt>
      <trkpt lat="44.08518" lon="7.00693">
        <ele>1586.9</ele>
        <time>2018-06-10T10:08:30Z</time>
      </trkpt>
      <trkpt lat="44.08537" lon="7.00684">
        <ele>1584.5</ele>
        <time>2018-06-10T10:08:33Z</time>
      </trkpt>
      <trkpt lat="44.08549" lon="7.00677">
        <ele>1583.7</ele>
        <time>2018-06-10T10:08:35Z</time>
      </trkpt>
      <trkpt lat="44.08563" lon="7.00673">
        <ele>1585</ele>
        <time>2018-06-10T10:08:37Z</time>
      </trkpt>
      <trkpt lat="44.08581" lon="7.00675">
        <ele>1589.3</ele>
        <time>2018-06-10T10:08:40Z</time>
      </trkpt>
      <trkpt lat="44.0859" lon="7.00688">
        <ele>1586.9</ele>
        <time>2018-06-10T10:08:43Z</time>
      </trkpt>
      <trkpt lat="44.08594" lon="7.00691">
        <ele>1586.1</ele>
        <time>2018-06-10T10:08:44Z</time>
      </trkpt>
      <trkpt lat="44.08607" lon="7.00668">
        <ele>1580.6</ele>
        <time>2018-06-10T10:08:48Z</time>
      </trkpt>
      <trkpt lat="44.08612" lon="7.00643">
        <ele>1574.7</ele>
        <time>2018-06-10T10:08:51Z</time>
      </trkpt>
      <trkpt lat="44.08612" lon="7.00628">
        <ele>1573.5</ele>
        <time>2018-06-10T10:08:53Z</time>
      </trkpt>
      <trkpt lat="44.08611" lon="7.00616">
        <ele>1572.5</ele>
        <time>2018-06-10T10:08:55Z</time>
      </trkpt>
      <trkpt lat="44.08618" lon="7.00593">
        <ele>1570.1</ele>
        <time>2018-06-10T10:08:58Z</time>
      </trkpt>
      <trkpt lat="44.08629" lon="7.00578">
        <ele>1569.7</ele>
        <time>2018-06-10T10:09:00Z</time>
      </trkpt>
      <trkpt lat="44.08635" lon="7.0057">
        <ele>1570.5</ele>
        <time>2018-06-10T10:09:01Z</time>
      </trkpt>
      <trkpt lat="44.08647" lon="7.00553">
        <ele>1566.5</ele>
        <time>2018-06-10T10:09:03Z</time>
      </trkpt>
      <trkpt lat="44.08661" lon="7.00533">
        <ele>1562.7</ele>
        <time>2018-06-10T10:09:06Z</time>
      </trkpt>
      <trkpt lat="44.08667" lon="7.00501">
        <ele>1557.3</ele>
        <time>2018-06-10T10:09:09Z</time>
      </trkpt>
      <trkpt lat="44.08671" lon="7.00482">
        <ele>1554.4</ele>
        <time>2018-06-10T10:09:11Z</time>
      </trkpt>
      <trkpt lat="44.08673" lon="7.00473">
        <ele>1552.4</ele>
        <time>2018-06-10T10:09:12Z</time>
      </trkpt>
      <trkpt lat="44.08678" lon="7.00443">
        <ele>1544.5</ele>
        <time>2018-06-10T10:09:15Z</time>
      </trkpt>
      <trkpt lat="44.08683" lon="7.00422">
        <ele>1538.6</ele>
        <time>2018-06-10T10:09:17Z</time>
      </trkpt>
      <trkpt lat="44.08689" lon="7.0039">
        <ele>1532.3</ele>
        <time>2018-06-10T10:09:20Z</time>
      </trkpt>
      <trkpt lat="44.08691" lon="7.00375">
        <ele>1528.7</ele>
        <time>2018-06-10T10:09:22Z</time>
      </trkpt>
      <trkpt lat="44.08682" lon="7.00355">
        <ele>1524.1</ele>
        <time>2018-06-10T10:09:28Z</time>
      </trkpt>
      <trkpt lat="44.08681" lon="7.00349">
        <ele>1524</ele>
        <time>2018-06-10T10:09:32Z</time>
      </trkpt>
      <trkpt lat="44.08677" lon="7.00335">
        <ele>1519.1</ele>
        <time>2018-06-10T10:09:39Z</time>
      </trkpt>
      <trkpt lat="44.08683" lon="7.00322">
        <ele>1516</ele>
        <time>2018-06-10T10:09:42Z</time>
      </trkpt>
      <trkpt lat="44.08684" lon="7.00314">
        <ele>1514.9</ele>
        <time>2018-06-10T10:09:44Z</time>
      </trkpt>
      <trkpt lat="44.08687" lon="7.00295">
        <ele>1511.1</ele>
        <time>2018-06-10T10:09:52Z</time>
      </trkpt>
      <trkpt lat="44.08673" lon="7.00286">
        <ele>1507</ele>
        <time>2018-06-10T10:09:55Z</time>
      </trkpt>
      <trkpt lat="44.08671" lon="7.00284">
        <ele>1506.2</ele>
        <time>2018-06-10T10:09:56Z</time>
      </trkpt>
      <trkpt lat="44.08674" lon="7.00264">
        <ele>1503.1</ele>
        <time>2018-06-10T10:10:02Z</time>
      </trkpt>
      <trkpt lat="44.08664" lon="7.00266">
        <ele>1502.3</ele>
        <time>2018-06-10T10:10:04Z</time>
      </trkpt>
      <trkpt lat="44.08661" lon="7.00266">
        <ele>1501.4</ele>
        <time>2018-06-10T10:10:05Z</time>
      </trkpt>
      <trkpt lat="44.08674" lon="7.00242">
        <ele>1496.8</ele>
        <time>2018-06-10T10:10:10Z</time>
      </trkpt>
      <trkpt lat="44.08677" lon="7.00234">
        <ele>1495</ele>
        <time>2018-06-10T10:10:12Z</time>
      </trkpt>
      <trkpt lat="44.08662" lon="7.00228">
        <ele>1490.8</ele>
        <time>2018-06-10T10:10:19Z</time>
      </trkpt>
      <trkpt lat="44.08663" lon="7.00222">
        <ele>1491.2</ele>
        <time>2018-06-10T10:10:20Z</time>
      </trkpt>
      <trkpt lat="44.08665" lon="7.00215">
        <ele>1489.2</ele>
        <time>2018-06-10T10:10:21Z</time>
      </trkpt>
      <trkpt lat="44.08673" lon="7.00193">
        <ele>1487.6</ele>
        <time>2018-06-10T10:10:24Z</time>
      </trkpt>
      <trkpt lat="44.08682" lon="7.00176">
        <ele>1484.4</ele>
        <time>2018-06-10T10:10:28Z</time>
      </trkpt>
      <trkpt lat="44.0868" lon="7.00176">
        <ele>1483.7</ele>
        <time>2018-06-10T10:10:29Z</time>
      </trkpt>
      <trkpt lat="44.08673" lon="7.00178">
        <ele>1481.3</ele>
        <time>2018-06-10T10:10:31Z</time>
      </trkpt>
      <trkpt lat="44.08672" lon="7.00168">
        <ele>1478.7</ele>
        <time>2018-06-10T10:10:38Z</time>
      </trkpt>
      <trkpt lat="44.08681" lon="7.00143">
        <ele>1475.9</ele>
        <time>2018-06-10T10:10:42Z</time>
      </trkpt>
      <trkpt lat="44.08686" lon="7.00124">
        <ele>1474.1</ele>
        <time>2018-06-10T10:10:47Z</time>
      </trkpt>
      <trkpt lat="44.08675" lon="7.0013">
        <ele>1470.7</ele>
        <time>2018-06-10T10:10:51Z</time>
      </trkpt>
      <trkpt lat="44.08675" lon="7.00127">
        <ele>1470.3</ele>
        <time>2018-06-10T10:10:52Z</time>
      </trkpt>
      <trkpt lat="44.0868" lon="7.00106">
        <ele>1464.5</ele>
        <time>2018-06-10T10:10:56Z</time>
      </trkpt>
      <trkpt lat="44.08679" lon="7.00072">
        <ele>1454.6</ele>
        <time>2018-06-10T10:11:00Z</time>
      </trkpt>
      <trkpt lat="44.08678" lon="7.00056">
        <ele>1450.4</ele>
        <time>2018-06-10T10:11:02Z</time>
      </trkpt>
      <trkpt lat="44.0868" lon="7.00031">
        <ele>1444.4</ele>
        <time>2018-06-10T10:11:05Z</time>
      </trkpt>
      <trkpt lat="44.08686" lon="7.00013">
        <ele>1440.8</ele>
        <time>2018-06-10T10:11:08Z</time>
      </trkpt>
      <trkpt lat="44.0868" lon="6.99997">
        <ele>1441.1</ele>
        <time>2018-06-10T10:11:16Z</time>
      </trkpt>
      <trkpt lat="44.08667" lon="7.00006">
        <ele>1438.9</ele>
        <time>2018-06-10T10:11:22Z</time>
      </trkpt>
      <trkpt lat="44.08667" lon="6.99982">
        <ele>1436</ele>
        <time>2018-06-10T10:11:27Z</time>
      </trkpt>
      <trkpt lat="44.08675" lon="6.99964">
        <ele>1434.1</ele>
        <time>2018-06-10T10:11:32Z</time>
      </trkpt>
      <trkpt lat="44.08671" lon="6.99964">
        <ele>1433.8</ele>
        <time>2018-06-10T10:11:33Z</time>
      </trkpt>
      <trkpt lat="44.08658" lon="6.99961">
        <ele>1431.8</ele>
        <time>2018-06-10T10:11:40Z</time>
      </trkpt>
      <trkpt lat="44.0866" lon="6.99939">
        <ele>1428.1</ele>
        <time>2018-06-10T10:11:43Z</time>
      </trkpt>
      <trkpt lat="44.08676" lon="6.99927">
        <ele>1425.3</ele>
        <time>2018-06-10T10:11:47Z</time>
      </trkpt>
      <trkpt lat="44.08682" lon="6.99925">
        <ele>1423.6</ele>
        <time>2018-06-10T10:11:48Z</time>
      </trkpt>
      <trkpt lat="44.08701" lon="6.99909">
        <ele>1417.5</ele>
        <time>2018-06-10T10:11:51Z</time>
      </trkpt>
      <trkpt lat="44.08707" lon="6.99904">
        <ele>1415.6</ele>
        <time>2018-06-10T10:11:52Z</time>
      </trkpt>
      <trkpt lat="44.08726" lon="6.99894">
        <ele>1410</ele>
        <time>2018-06-10T10:11:55Z</time>
      </trkpt>
      <trkpt lat="44.08739" lon="6.99891">
        <ele>1405.5</ele>
        <time>2018-06-10T10:11:57Z</time>
      </trkpt>
      <trkpt lat="44.08762" lon="6.99888">
        <ele>1395.9</ele>
        <time>2018-06-10T10:12:01Z</time>
      </trkpt>
      <trkpt lat="44.08774" lon="6.99889">
        <ele>1393.1</ele>
        <time>2018-06-10T10:12:03Z</time>
      </trkpt>
      <trkpt lat="44.08789" lon="6.99894">
        <ele>1389.3</ele>
        <time>2018-06-10T10:12:06Z</time>
      </trkpt>
      <trkpt lat="44.08808" lon="6.99909">
        <ele>1386.3</ele>
        <time>2018-06-10T10:12:10Z</time>
      </trkpt>
      <trkpt lat="44.08818" lon="6.99936">
        <ele>1388</ele>
        <time>2018-06-10T10:12:14Z</time>
      </trkpt>
      <trkpt lat="44.0882" lon="6.99943">
        <ele>1389.2</ele>
        <time>2018-06-10T10:12:15Z</time>
      </trkpt>
      <trkpt lat="44.08822" lon="6.99949">
        <ele>1389.1</ele>
        <time>2018-06-10T10:12:16Z</time>
      </trkpt>
      <trkpt lat="44.08835" lon="6.99976">
        <ele>1391.8</ele>
        <time>2018-06-10T10:12:20Z</time>
      </trkpt>
      <trkpt lat="44.08844" lon="6.9999">
        <ele>1391.8</ele>
        <time>2018-06-10T10:12:22Z</time>
      </trkpt>
      <trkpt lat="44.08861" lon="6.99986">
        <ele>1388.1</ele>
        <time>2018-06-10T10:12:25Z</time>
      </trkpt>
      <trkpt lat="44.08865" lon="6.99978">
        <ele>1387.8</ele>
        <time>2018-06-10T10:12:26Z</time>
      </trkpt>
      <trkpt lat="44.0887" lon="6.99971">
        <ele>1387.4</ele>
        <time>2018-06-10T10:12:27Z</time>
      </trkpt>
      <trkpt lat="44.08877" lon="6.99956">
        <ele>1386.8</ele>
        <time>2018-06-10T10:12:31Z</time>
      </trkpt>
      <trkpt lat="44.08873" lon="6.99954">
        <ele>1386.6</ele>
        <time>2018-06-10T10:12:34Z</time>
      </trkpt>
      <trkpt lat="44.08864" lon="6.9994">
        <ele>1385.1</ele>
        <time>2018-06-10T10:13:07Z</time>
      </trkpt>
      <trkpt lat="44.08859" lon="6.99916">
        <ele>1381.6</ele>
        <time>2018-06-10T10:13:13Z</time>
      </trkpt>
      <trkpt lat="44.08851" lon="6.99889">
        <ele>1378.2</ele>
        <time>2018-06-10T10:13:17Z</time>
      </trkpt>
      <trkpt lat="44.08848" lon="6.99863">
        <ele>1374.9</ele>
        <time>2018-06-10T10:13:20Z</time>
      </trkpt>
      <trkpt lat="44.08847" lon="6.99854">
        <ele>1373.7</ele>
        <time>2018-06-10T10:13:21Z</time>
      </trkpt>
      <trkpt lat="44.0885" lon="6.99822">
        <ele>1369</ele>
        <time>2018-06-10T10:13:24Z</time>
      </trkpt>
      <trkpt lat="44.08852" lon="6.99788">
        <ele>1365.5</ele>
        <time>2018-06-10T10:13:27Z</time>
      </trkpt>
      <trkpt lat="44.08852" lon="6.99776">
        <ele>1364.2</ele>
        <time>2018-06-10T10:13:28Z</time>
      </trkpt>
      <trkpt lat="44.0885" lon="6.99743">
        <ele>1361.5</ele>
        <time>2018-06-10T10:13:31Z</time>
      </trkpt>
      <trkpt lat="44.08846" lon="6.99711">
        <ele>1358.4</ele>
        <time>2018-06-10T10:13:34Z</time>
      </trkpt>
      <trkpt lat="44.08832" lon="6.9968">
        <ele>1354.7</ele>
        <time>2018-06-10T10:13:37Z</time>
      </trkpt>
      <trkpt lat="44.08816" lon="6.99666">
        <ele>1351.1</ele>
        <time>2018-06-10T10:13:39Z</time>
      </trkpt>
      <trkpt lat="44.08801" lon="6.99651">
        <ele>1347</ele>
        <time>2018-06-10T10:13:41Z</time>
      </trkpt>
      <trkpt lat="44.08787" lon="6.99621">
        <ele>1343.5</ele>
        <time>2018-06-10T10:13:44Z</time>
      </trkpt>
      <trkpt lat="44.08778" lon="6.99587">
        <ele>1338.6</ele>
        <time>2018-06-10T10:13:47Z</time>
      </trkpt>
      <trkpt lat="44.08774" lon="6.99557">
        <ele>1334.9</ele>
        <time>2018-06-10T10:13:50Z</time>
      </trkpt>
      <trkpt lat="44.08774" lon="6.99551">
        <ele>1334.2</ele>
        <time>2018-06-10T10:13:51Z</time>
      </trkpt>
      <trkpt lat="44.08787" lon="6.99535">
        <ele>1333.4</ele>
        <time>2018-06-10T10:13:58Z</time>
      </trkpt>
      <trkpt lat="44.08805" lon="6.99533">
        <ele>1333.9</ele>
        <time>2018-06-10T10:14:09Z</time>
      </trkpt>
      <trkpt lat="44.0881" lon="6.99537">
        <ele>1334.2</ele>
        <time>2018-06-10T10:14:13Z</time>
      </trkpt>
      <trkpt lat="44.08825" lon="6.9955">
        <ele>1336.7</ele>
        <time>2018-06-10T10:14:24Z</time>
      </trkpt>
      <trkpt lat="44.08838" lon="6.99566">
        <ele>1339.4</ele>
        <time>2018-06-10T10:14:36Z</time>
      </trkpt>
      <trkpt lat="44.08857" lon="6.99568">
        <ele>1340.3</ele>
        <time>2018-06-10T10:14:48Z</time>
      </trkpt>
      <trkpt lat="44.08876" lon="6.99556">
        <ele>1341.1</ele>
        <time>2018-06-10T10:14:56Z</time>
      </trkpt>
      <trkpt lat="44.08891" lon="6.99542">
        <ele>1341.6</ele>
        <time>2018-06-10T10:15:01Z</time>
      </trkpt>
      <trkpt lat="44.08908" lon="6.99526">
        <ele>1342.2</ele>
        <time>2018-06-10T10:15:07Z</time>
      </trkpt>
      <trkpt lat="44.08925" lon="6.9951">
        <ele>1342.7</ele>
        <time>2018-06-10T10:15:12Z</time>
      </trkpt>
      <trkpt lat="44.08932" lon="6.99503">
        <ele>1342.8</ele>
        <time>2018-06-10T10:15:14Z</time>
      </trkpt>
      <trkpt lat="44.08951" lon="6.9949">
        <ele>1343</ele>
        <time>2018-06-10T10:15:19Z</time>
      </trkpt>
      <trkpt lat="44.0897" lon="6.9948">
        <ele>1343.4</ele>
        <time>2018-06-10T10:15:24Z</time>
      </trkpt>
      <trkpt lat="44.08983" lon="6.99475">
        <ele>1343.7</ele>
        <time>2018-06-10T10:15:27Z</time>
      </trkpt>
      <trkpt lat="44.09003" lon="6.99468">
        <ele>1343.9</ele>
        <time>2018-06-10T10:15:32Z</time>
      </trkpt>
      <trkpt lat="44.09021" lon="6.99459">
        <ele>1344.1</ele>
        <time>2018-06-10T10:15:37Z</time>
      </trkpt>
      <trkpt lat="44.0904" lon="6.99447">
        <ele>1344.4</ele>
        <time>2018-06-10T10:15:44Z</time>
      </trkpt>
      <trkpt lat="44.09044" lon="6.99446">
        <ele>1344.5</ele>
        <time>2018-06-10T10:15:45Z</time>
      </trkpt>
      <trkpt lat="44.09063" lon="6.99445">
        <ele>1345</ele>
        <time>2018-06-10T10:15:49Z</time>
      </trkpt>
      <trkpt lat="44.09081" lon="6.99443">
        <ele>1345.6</ele>
        <time>2018-06-10T10:15:53Z</time>
      </trkpt>
      <trkpt lat="44.09103" lon="6.99441">
        <ele>1346.5</ele>
        <time>2018-06-10T10:15:58Z</time>
      </trkpt>
      <trkpt lat="44.09123" lon="6.99439">
        <ele>1347.6</ele>
        <time>2018-06-10T10:16:03Z</time>
      </trkpt>
      <trkpt lat="44.09142" lon="6.99439">
        <ele>1348.8</ele>
        <time>2018-06-10T10:16:08Z</time>
      </trkpt>
      <trkpt lat="44.09162" lon="6.99439">
        <ele>1350.3</ele>
        <time>2018-06-10T10:16:14Z</time>
      </trkpt>
      <trkpt lat="44.09176" lon="6.99422">
        <ele>1351.4</ele>
        <time>2018-06-10T10:16:20Z</time>
      </trkpt>
      <trkpt lat="44.09191" lon="6.99401">
        <ele>1352.7</ele>
        <time>2018-06-10T10:16:26Z</time>
      </trkpt>
      <trkpt lat="44.09206" lon="6.99397">
        <ele>1355.9</ele>
        <time>2018-06-10T10:16:33Z</time>
      </trkpt>
      <trkpt lat="44.09231" lon="6.99465">
        <ele>1361.6</ele>
        <time>2018-06-10T10:24:15Z</time>
      </trkpt>
      <trkpt lat="44.09233" lon="6.99491">
        <ele>1363.7</ele>
        <time>2018-06-10T10:24:26Z</time>
      </trkpt>
      <trkpt lat="44.09237" lon="6.99516">
        <ele>1365.9</ele>
        <time>2018-06-10T10:24:37Z</time>
      </trkpt>
      <trkpt lat="44.09238" lon="6.99536">
        <ele>1367.7</ele>
        <time>2018-06-10T10:24:46Z</time>
      </trkpt>
      <trkpt lat="44.09239" lon="6.99563">
        <ele>1370.5</ele>
        <time>2018-06-10T10:24:58Z</time>
      </trkpt>
      <trkpt lat="44.09246" lon="6.99588">
        <ele>1373</ele>
        <time>2018-06-10T10:25:12Z</time>
      </trkpt>
      <trkpt lat="44.09253" lon="6.99597">
        <ele>1373</ele>
        <time>2018-06-10T10:25:21Z</time>
      </trkpt>
      <trkpt lat="44.09125" lon="6.99749">
        <ele>1428.2</ele>
        <time>2018-06-10T10:34:33Z</time>
      </trkpt>
      <trkpt lat="44.09109" lon="6.9976">
        <ele>1429.6</ele>
        <time>2018-06-10T10:34:45Z</time>
      </trkpt>
      <trkpt lat="44.09091" lon="6.99769">
        <ele>1430.2</ele>
        <time>2018-06-10T10:34:58Z</time>
      </trkpt>
      <trkpt lat="44.09072" lon="6.99772">
        <ele>1428.3</ele>
        <time>2018-06-10T10:35:11Z</time>
      </trkpt>
      <trkpt lat="44.09053" lon="6.99775">
        <ele>1425.4</ele>
        <time>2018-06-10T10:35:22Z</time>
      </trkpt>
      <trkpt lat="44.09037" lon="6.99789">
        <ele>1425.4</ele>
        <time>2018-06-10T10:35:33Z</time>
      </trkpt>
      <trkpt lat="44.09031" lon="6.99811">
        <ele>1429.8</ele>
        <time>2018-06-10T10:35:46Z</time>
      </trkpt>
      <trkpt lat="44.09028" lon="6.99837">
        <ele>1437.3</ele>
        <time>2018-06-10T10:35:59Z</time>
      </trkpt>
      <trkpt lat="44.09024" lon="6.99854">
        <ele>1440</ele>
        <time>2018-06-10T10:36:08Z</time>
      </trkpt>
      <trkpt lat="44.09022" lon="6.99861">
        <ele>1440.5</ele>
        <time>2018-06-10T10:36:12Z</time>
      </trkpt>
      <trkpt lat="44.09013" lon="6.99885">
        <ele>1440.4</ele>
        <time>2018-06-10T10:36:25Z</time>
      </trkpt>
      <trkpt lat="44.09007" lon="6.99911">
        <ele>1439.4</ele>
        <time>2018-06-10T10:36:41Z</time>
      </trkpt>
      <trkpt lat="44.0901" lon="6.99937">
        <ele>1442.6</ele>
        <time>2018-06-10T10:36:53Z</time>
      </trkpt>
      <trkpt lat="44.09021" lon="6.99957">
        <ele>1450</ele>
        <time>2018-06-10T10:37:06Z</time>
      </trkpt>
      <trkpt lat="44.09031" lon="6.99979">
        <ele>1455.2</ele>
        <time>2018-06-10T10:37:19Z</time>
      </trkpt>
      <trkpt lat="44.09047" lon="6.99991">
        <ele>1462.6</ele>
        <time>2018-06-10T10:37:32Z</time>
      </trkpt>
      <trkpt lat="44.09063" lon="7.00004">
        <ele>1470.6</ele>
        <time>2018-06-10T10:37:45Z</time>
      </trkpt>
      <trkpt lat="44.09081" lon="7.0001">
        <ele>1480.1</ele>
        <time>2018-06-10T10:37:58Z</time>
      </trkpt>
      <trkpt lat="44.09088" lon="7.00015">
        <ele>1485.3</ele>
        <time>2018-06-10T10:38:06Z</time>
      </trkpt>
      <trkpt lat="44.09086" lon="7.00036">
        <ele>1484.5</ele>
        <time>2018-06-10T10:38:15Z</time>
      </trkpt>
      <trkpt lat="44.09083" lon="7.00058">
        <ele>1482.7</ele>
        <time>2018-06-10T10:38:28Z</time>
      </trkpt>
      <trkpt lat="44.09072" lon="7.00079">
        <ele>1472.6</ele>
        <time>2018-06-10T10:38:42Z</time>
      </trkpt>
      <trkpt lat="44.09067" lon="7.00096">
        <ele>1469.2</ele>
        <time>2018-06-10T10:38:54Z</time>
      </trkpt>
      <trkpt lat="44.09057" lon="7.0012">
        <ele>1457.9</ele>
        <time>2018-06-10T10:39:10Z</time>
      </trkpt>
      <trkpt lat="44.09063" lon="7.00147">
        <ele>1461.9</ele>
        <time>2018-06-10T10:39:19Z</time>
      </trkpt>
      <trkpt lat="44.09064" lon="7.00173">
        <ele>1464.2</ele>
        <time>2018-06-10T10:39:30Z</time>
      </trkpt>
      <trkpt lat="44.09061" lon="7.00197">
        <ele>1461.6</ele>
        <time>2018-06-10T10:39:41Z</time>
      </trkpt>
      <trkpt lat="44.09067" lon="7.0021">
        <ele>1466.8</ele>
        <time>2018-06-10T10:39:48Z</time>
      </trkpt>
      <trkpt lat="44.09063" lon="7.00237">
        <ele>1460.6</ele>
        <time>2018-06-10T10:39:59Z</time>
      </trkpt>
      <trkpt lat="44.09062" lon="7.00263">
        <ele>1459.6</ele>
        <time>2018-06-10T10:40:15Z</time>
      </trkpt>
      <trkpt lat="44.0906" lon="7.00289">
        <ele>1457.1</ele>
        <time>2018-06-10T10:40:27Z</time>
      </trkpt>
      <trkpt lat="44.09062" lon="7.00316">
        <ele>1459.6</ele>
        <time>2018-06-10T10:40:40Z</time>
      </trkpt>
      <trkpt lat="44.09068" lon="7.0034">
        <ele>1463.8</ele>
        <time>2018-06-10T10:40:53Z</time>
      </trkpt>
      <trkpt lat="44.09085" lon="7.00353">
        <ele>1475.5</ele>
        <time>2018-06-10T10:41:07Z</time>
      </trkpt>
      <trkpt lat="44.09099" lon="7.00369">
        <ele>1486.1</ele>
        <time>2018-06-10T10:41:20Z</time>
      </trkpt>
      <trkpt lat="44.09109" lon="7.00389">
        <ele>1490.2</ele>
        <time>2018-06-10T10:41:35Z</time>
      </trkpt>
      <trkpt lat="44.09122" lon="7.00408">
        <ele>1496.1</ele>
        <time>2018-06-10T10:41:48Z</time>
      </trkpt>
      <trkpt lat="44.09138" lon="7.0042">
        <ele>1504.2</ele>
        <time>2018-06-10T10:42:01Z</time>
      </trkpt>
      <trkpt lat="44.09149" lon="7.00439">
        <ele>1503.9</ele>
        <time>2018-06-10T10:42:13Z</time>
      </trkpt>
      <trkpt lat="44.0916" lon="7.00459">
        <ele>1504.6</ele>
        <time>2018-06-10T10:42:27Z</time>
      </trkpt>
      <trkpt lat="44.09174" lon="7.00477">
        <ele>1505.2</ele>
        <time>2018-06-10T10:42:38Z</time>
      </trkpt>
      <trkpt lat="44.09187" lon="7.00495">
        <ele>1507.3</ele>
        <time>2018-06-10T10:42:48Z</time>
      </trkpt>
      <trkpt lat="44.09204" lon="7.00505">
        <ele>1512.2</ele>
        <time>2018-06-10T10:43:02Z</time>
      </trkpt>
      <trkpt lat="44.09212" lon="7.00522">
        <ele>1511</ele>
        <time>2018-06-10T10:43:13Z</time>
      </trkpt>
      <trkpt lat="44.09215" lon="7.00525">
        <ele>1511.3</ele>
        <time>2018-06-10T10:43:16Z</time>
      </trkpt>
      <trkpt lat="44.09225" lon="7.00533">
        <ele>1513.9</ele>
        <time>2018-06-10T10:43:22Z</time>
      </trkpt>
      <trkpt lat="44.09237" lon="7.00552">
        <ele>1515.4</ele>
        <time>2018-06-10T10:43:36Z</time>
      </trkpt>
      <trkpt lat="44.09251" lon="7.00571">
        <ele>1517.9</ele>
        <time>2018-06-10T10:43:54Z</time>
      </trkpt>
      <trkpt lat="44.09259" lon="7.00594">
        <ele>1516.4</ele>
        <time>2018-06-10T10:44:06Z</time>
      </trkpt>
      <trkpt lat="44.09264" lon="7.00607">
        <ele>1516.5</ele>
        <time>2018-06-10T10:44:13Z</time>
      </trkpt>
      <trkpt lat="44.09281" lon="7.00619">
        <ele>1523.7</ele>
        <time>2018-06-10T10:44:24Z</time>
      </trkpt>
      <trkpt lat="44.09285" lon="7.00623">
        <ele>1525.9</ele>
        <time>2018-06-10T10:44:28Z</time>
      </trkpt>
      <trkpt lat="44.09284" lon="7.00649">
        <ele>1519.2</ele>
        <time>2018-06-10T10:44:38Z</time>
      </trkpt>
      <trkpt lat="44.09287" lon="7.00676">
        <ele>1516.7</ele>
        <time>2018-06-10T10:44:50Z</time>
      </trkpt>
      <trkpt lat="44.09297" lon="7.00697">
        <ele>1518.8</ele>
        <time>2018-06-10T10:45:01Z</time>
      </trkpt>
      <trkpt lat="44.0931" lon="7.00716">
        <ele>1525.3</ele>
        <time>2018-06-10T10:45:16Z</time>
      </trkpt>
      <trkpt lat="44.09325" lon="7.00731">
        <ele>1529.2</ele>
        <time>2018-06-10T10:45:30Z</time>
      </trkpt>
      <trkpt lat="44.09342" lon="7.00745">
        <ele>1535.8</ele>
        <time>2018-06-10T10:45:42Z</time>
      </trkpt>
      <trkpt lat="44.09354" lon="7.00767">
        <ele>1537</ele>
        <time>2018-06-10T10:45:55Z</time>
      </trkpt>
      <trkpt lat="44.09364" lon="7.00788">
        <ele>1537.2</ele>
        <time>2018-06-10T10:46:06Z</time>
      </trkpt>
      <trkpt lat="44.09365" lon="7.00789">
        <ele>1537.2</ele>
        <time>2018-06-10T10:46:07Z</time>
      </trkpt>
      <trkpt lat="44.09382" lon="7.008">
        <ele>1540.8</ele>
        <time>2018-06-10T10:46:20Z</time>
      </trkpt>
      <trkpt lat="44.09395" lon="7.00814">
        <ele>1542.7</ele>
        <time>2018-06-10T10:46:33Z</time>
      </trkpt>
      <trkpt lat="44.094" lon="7.00839">
        <ele>1539.8</ele>
        <time>2018-06-10T10:46:44Z</time>
      </trkpt>
      <trkpt lat="44.09412" lon="7.00854">
        <ele>1540.5</ele>
        <time>2018-06-10T10:46:54Z</time>
      </trkpt>
      <trkpt lat="44.09429" lon="7.00864">
        <ele>1544.8</ele>
        <time>2018-06-10T10:47:04Z</time>
      </trkpt>
      <trkpt lat="44.09428" lon="7.00866">
        <ele>1544.8</ele>
        <time>2018-06-10T10:47:05Z</time>
      </trkpt>
      <trkpt lat="44.0943" lon="7.00881">
        <ele>1541.9</ele>
        <time>2018-06-10T10:47:12Z</time>
      </trkpt>
      <trkpt lat="44.09435" lon="7.00892">
        <ele>1542.8</ele>
        <time>2018-06-10T10:47:18Z</time>
      </trkpt>
      <trkpt lat="44.09445" lon="7.009">
        <ele>1544.9</ele>
        <time>2018-06-10T10:47:56Z</time>
      </trkpt>
      <trkpt lat="44.09457" lon="7.0092">
        <ele>1546.9</ele>
        <time>2018-06-10T10:48:09Z</time>
      </trkpt>
      <trkpt lat="44.09467" lon="7.00941">
        <ele>1547.5</ele>
        <time>2018-06-10T10:48:23Z</time>
      </trkpt>
      <trkpt lat="44.09472" lon="7.00945">
        <ele>1550.2</ele>
        <time>2018-06-10T10:48:26Z</time>
      </trkpt>
      <trkpt lat="44.09474" lon="7.00951">
        <ele>1550.6</ele>
        <time>2018-06-10T10:48:30Z</time>
      </trkpt>
      <trkpt lat="44.09476" lon="7.00957">
        <ele>1550.2</ele>
        <time>2018-06-10T10:48:35Z</time>
      </trkpt>
      <trkpt lat="44.0949" lon="7.00968">
        <ele>1555.2</ele>
        <time>2018-06-10T10:48:48Z</time>
      </trkpt>
      <trkpt lat="44.09492" lon="7.00988">
        <ele>1553</ele>
        <time>2018-06-10T10:48:57Z</time>
      </trkpt>
      <trkpt lat="44.09499" lon="7.01011">
        <ele>1555</ele>
        <time>2018-06-10T10:49:10Z</time>
      </trkpt>
      <trkpt lat="44.09509" lon="7.01033">
        <ele>1556.3</ele>
        <time>2018-06-10T10:49:22Z</time>
      </trkpt>
      <trkpt lat="44.09518" lon="7.01057">
        <ele>1556.8</ele>
        <time>2018-06-10T10:49:37Z</time>
      </trkpt>
      <trkpt lat="44.0953" lon="7.01076">
        <ele>1560.1</ele>
        <time>2018-06-10T10:49:51Z</time>
      </trkpt>
      <trkpt lat="44.0954" lon="7.01097">
        <ele>1561.8</ele>
        <time>2018-06-10T10:50:07Z</time>
      </trkpt>
      <trkpt lat="44.09551" lon="7.01118">
        <ele>1564.1</ele>
        <time>2018-06-10T10:50:20Z</time>
      </trkpt>
      <trkpt lat="44.0956" lon="7.01141">
        <ele>1566.8</ele>
        <time>2018-06-10T10:50:33Z</time>
      </trkpt>
      <trkpt lat="44.09567" lon="7.01165">
        <ele>1567</ele>
        <time>2018-06-10T10:50:46Z</time>
      </trkpt>
      <trkpt lat="44.09576" lon="7.01188">
        <ele>1568.2</ele>
        <time>2018-06-10T10:50:59Z</time>
      </trkpt>
      <trkpt lat="44.09589" lon="7.01205">
        <ele>1571.1</ele>
        <time>2018-06-10T10:51:14Z</time>
      </trkpt>
      <trkpt lat="44.09592" lon="7.01206">
        <ele>1572.1</ele>
        <time>2018-06-10T10:51:16Z</time>
      </trkpt>
      <trkpt lat="44.09594" lon="7.01211">
        <ele>1572.3</ele>
        <time>2018-06-10T10:51:20Z</time>
      </trkpt>
      <trkpt lat="44.09605" lon="7.01232">
        <ele>1573.7</ele>
        <time>2018-06-10T10:51:33Z</time>
      </trkpt>
      <trkpt lat="44.09614" lon="7.01253">
        <ele>1575.3</ele>
        <time>2018-06-10T10:51:46Z</time>
      </trkpt>
      <trkpt lat="44.09678" lon="7.01406">
        <ele>1592.4</ele>
        <time>2018-06-10T10:54:06Z</time>
      </trkpt>
      <trkpt lat="44.09683" lon="7.0141">
        <ele>1593.2</ele>
        <time>2018-06-10T10:54:10Z</time>
      </trkpt>
      <trkpt lat="44.09684" lon="7.01424">
        <ele>1593.7</ele>
        <time>2018-06-10T10:54:19Z</time>
      </trkpt>
      <trkpt lat="44.09688" lon="7.01464">
        <ele>1593.9</ele>
        <time>2018-06-10T10:54:56Z</time>
      </trkpt>
      <trkpt lat="44.0969" lon="7.01488">
        <ele>1594.9</ele>
        <time>2018-06-10T10:55:09Z</time>
      </trkpt>
      <trkpt lat="44.09695" lon="7.01501">
        <ele>1595.7</ele>
        <time>2018-06-10T10:55:18Z</time>
      </trkpt>
      <trkpt lat="44.09695" lon="7.01506">
        <ele>1595.7</ele>
        <time>2018-06-10T10:55:21Z</time>
      </trkpt>
      <trkpt lat="44.09697" lon="7.01516">
        <ele>1596.5</ele>
        <time>2018-06-10T10:55:28Z</time>
      </trkpt>
      <trkpt lat="44.09785" lon="7.01718">
        <ele>1622.4</ele>
        <time>2018-06-10T10:58:38Z</time>
      </trkpt>
      <trkpt lat="44.09804" lon="7.01719">
        <ele>1625.6</ele>
        <time>2018-06-10T10:58:48Z</time>
      </trkpt>
      <trkpt lat="44.09822" lon="7.01723">
        <ele>1628.5</ele>
        <time>2018-06-10T10:58:59Z</time>
      </trkpt>
      <trkpt lat="44.0983" lon="7.01733">
        <ele>1630</ele>
        <time>2018-06-10T10:59:03Z</time>
      </trkpt>
      <trkpt lat="44.09836" lon="7.01757">
        <ele>1630.5</ele>
        <time>2018-06-10T10:59:09Z</time>
      </trkpt>
      <trkpt lat="44.09837" lon="7.01759">
        <ele>1630.7</ele>
        <time>2018-06-10T10:59:13Z</time>
      </trkpt>
      <trkpt lat="44.10069" lon="7.01995">
        <ele>1623.5</ele>
        <time>2018-06-10T11:04:31Z</time>
      </trkpt>
      <trkpt lat="44.10072" lon="7.02011">
        <ele>1626.1</ele>
        <time>2018-06-10T11:04:43Z</time>
      </trkpt>
      <trkpt lat="44.10075" lon="7.02015">
        <ele>1628.3</ele>
        <time>2018-06-10T11:04:46Z</time>
      </trkpt>
      <trkpt lat="44.10081" lon="7.02026">
        <ele>1631.5</ele>
        <time>2018-06-10T11:04:55Z</time>
      </trkpt>
      <trkpt lat="44.10089" lon="7.02042">
        <ele>1634.6</ele>
        <time>2018-06-10T11:05:09Z</time>
      </trkpt>
      <trkpt lat="44.10094" lon="7.02055">
        <ele>1637.5</ele>
        <time>2018-06-10T11:05:18Z</time>
      </trkpt>
      <trkpt lat="44.10104" lon="7.02075">
        <ele>1641.6</ele>
        <time>2018-06-10T11:05:34Z</time>
      </trkpt>
      <trkpt lat="44.10109" lon="7.02081">
        <ele>1644.7</ele>
        <time>2018-06-10T11:05:41Z</time>
      </trkpt>
      <trkpt lat="44.10125" lon="7.02092">
        <ele>1649.6</ele>
        <time>2018-06-10T11:05:57Z</time>
      </trkpt>
      <trkpt lat="44.10136" lon="7.021">
        <ele>1653.5</ele>
        <time>2018-06-10T11:06:09Z</time>
      </trkpt>
      <trkpt lat="44.10031" lon="7.02291">
        <ele>1677.4</ele>
        <time>2018-06-10T11:11:46Z</time>
      </trkpt>
      <trkpt lat="44.10027" lon="7.02286">
        <ele>1677.1</ele>
        <time>2018-06-10T11:11:50Z</time>
      </trkpt>
      <trkpt lat="44.10025" lon="7.02281">
        <ele>1676.6</ele>
        <time>2018-06-10T11:11:53Z</time>
      </trkpt>
      <trkpt lat="44.10008" lon="7.02271">
        <ele>1678.3</ele>
        <time>2018-06-10T11:12:06Z</time>
      </trkpt>
      <trkpt lat="44.0999" lon="7.02266">
        <ele>1680.5</ele>
        <time>2018-06-10T11:12:18Z</time>
      </trkpt>
      <trkpt lat="44.09971" lon="7.02264">
        <ele>1683.8</ele>
        <time>2018-06-10T11:12:31Z</time>
      </trkpt>
      <trkpt lat="44.09953" lon="7.02274">
        <ele>1686.2</ele>
        <time>2018-06-10T11:12:43Z</time>
      </trkpt>
      <trkpt lat="44.09937" lon="7.02289">
        <ele>1687</ele>
        <time>2018-06-10T11:12:53Z</time>
      </trkpt>
      <trkpt lat="44.09927" lon="7.02282">
        <ele>1687.2</ele>
        <time>2018-06-10T11:12:58Z</time>
      </trkpt>
      <trkpt lat="44.09923" lon="7.02273">
        <ele>1688.6</ele>
        <time>2018-06-10T11:13:02Z</time>
      </trkpt>
      <trkpt lat="44.09915" lon="7.02263">
        <ele>1689.9</ele>
        <time>2018-06-10T11:13:10Z</time>
      </trkpt>
      <trkpt lat="44.09902" lon="7.02243">
        <ele>1692.7</ele>
        <time>2018-06-10T11:13:27Z</time>
      </trkpt>
      <trkpt lat="44.09891" lon="7.02222">
        <ele>1695.5</ele>
        <time>2018-06-10T11:13:42Z</time>
      </trkpt>
      <trkpt lat="44.09885" lon="7.02199">
        <ele>1698.7</ele>
        <time>2018-06-10T11:13:57Z</time>
      </trkpt>
      <trkpt lat="44.09883" lon="7.02176">
        <ele>1701.3</ele>
        <time>2018-06-10T11:14:13Z</time>
      </trkpt>
      <trkpt lat="44.09797" lon="7.02161">
        <ele>1714.9</ele>
        <time>2018-06-10T11:16:12Z</time>
      </trkpt>
      <trkpt lat="44.0978" lon="7.02168">
        <ele>1716.4</ele>
        <time>2018-06-10T11:16:23Z</time>
      </trkpt>
      <trkpt lat="44.0977" lon="7.02169">
        <ele>1717.8</ele>
        <time>2018-06-10T11:16:29Z</time>
      </trkpt>
      <trkpt lat="44.09751" lon="7.02167">
        <ele>1718.6</ele>
        <time>2018-06-10T11:16:42Z</time>
      </trkpt>
      <trkpt lat="44.09735" lon="7.02157">
        <ele>1720.8</ele>
        <time>2018-06-10T11:16:59Z</time>
      </trkpt>
      <trkpt lat="44.09718" lon="7.02148">
        <ele>1723.6</ele>
        <time>2018-06-10T11:17:12Z</time>
      </trkpt>
      <trkpt lat="44.097" lon="7.0214">
        <ele>1725.7</ele>
        <time>2018-06-10T11:17:24Z</time>
      </trkpt>
      <trkpt lat="44.09681" lon="7.02137">
        <ele>1727.2</ele>
        <time>2018-06-10T11:17:33Z</time>
      </trkpt>
      <trkpt lat="44.09662" lon="7.02136">
        <ele>1728.8</ele>
        <time>2018-06-10T11:17:44Z</time>
      </trkpt>
      <trkpt lat="44.09644" lon="7.02136">
        <ele>1730.2</ele>
        <time>2018-06-10T11:17:57Z</time>
      </trkpt>
      <trkpt lat="44.09642" lon="7.02135">
        <ele>1730.3</ele>
        <time>2018-06-10T11:18:00Z</time>
      </trkpt>
      <trkpt lat="44.09595" lon="7.02141">
        <ele>1735.8</ele>
        <time>2018-06-10T11:18:58Z</time>
      </trkpt>
      <trkpt lat="44.09579" lon="7.02157">
        <ele>1737.9</ele>
        <time>2018-06-10T11:19:11Z</time>
      </trkpt>
      <trkpt lat="44.09569" lon="7.02177">
        <ele>1738</ele>
        <time>2018-06-10T11:19:20Z</time>
      </trkpt>
      <trkpt lat="44.09555" lon="7.02199">
        <ele>1737.4</ele>
        <time>2018-06-10T11:19:29Z</time>
      </trkpt>
      <trkpt lat="44.09539" lon="7.02215">
        <ele>1737.6</ele>
        <time>2018-06-10T11:19:35Z</time>
      </trkpt>
      <trkpt lat="44.09519" lon="7.02222">
        <ele>1738.3</ele>
        <time>2018-06-10T11:19:43Z</time>
      </trkpt>
      <trkpt lat="44.09501" lon="7.02227">
        <ele>1739.3</ele>
        <time>2018-06-10T11:19:54Z</time>
      </trkpt>
      <trkpt lat="44.09482" lon="7.02229">
        <ele>1740.1</ele>
        <time>2018-06-10T11:20:04Z</time>
      </trkpt>
      <trkpt lat="44.09462" lon="7.02231">
        <ele>1741.4</ele>
        <time>2018-06-10T11:20:13Z</time>
      </trkpt>
      <trkpt lat="44.09443" lon="7.02229">
        <ele>1742.8</ele>
        <time>2018-06-10T11:20:23Z</time>
      </trkpt>
      <trkpt lat="44.09425" lon="7.02223">
        <ele>1745.1</ele>
        <time>2018-06-10T11:20:31Z</time>
      </trkpt>
      <trkpt lat="44.09411" lon="7.02207">
        <ele>1747.8</ele>
        <time>2018-06-10T11:20:44Z</time>
      </trkpt>
      <trkpt lat="44.09405" lon="7.02197">
        <ele>1748.7</ele>
        <time>2018-06-10T11:20:53Z</time>
      </trkpt>
      <trkpt lat="44.09257" lon="7.02106">
        <ele>1783.6</ele>
        <time>2018-06-10T11:25:14Z</time>
      </trkpt>
      <trkpt lat="44.09239" lon="7.02109">
        <ele>1787.1</ele>
        <time>2018-06-10T11:25:27Z</time>
      </trkpt>
      <trkpt lat="44.09224" lon="7.02106">
        <ele>1790.7</ele>
        <time>2018-06-10T11:25:40Z</time>
      </trkpt>
      <trkpt lat="44.09209" lon="7.02105">
        <ele>1794.2</ele>
        <time>2018-06-10T11:25:52Z</time>
      </trkpt>
      <trkpt lat="44.0919" lon="7.021">
        <ele>1798.5</ele>
        <time>2018-06-10T11:26:04Z</time>
      </trkpt>
      <trkpt lat="44.09182" lon="7.02097">
        <ele>1799.9</ele>
        <time>2018-06-10T11:26:12Z</time>
      </trkpt>
      <trkpt lat="44.09016" lon="7.02206">
        <ele>1814.6</ele>
        <time>2018-06-10T11:30:16Z</time>
      </trkpt>
      <trkpt lat="44.09002" lon="7.02189">
        <ele>1812.9</ele>
        <time>2018-06-10T11:30:28Z</time>
      </trkpt>
      <trkpt lat="44.08996" lon="7.02177">
        <ele>1813.3</ele>
        <time>2018-06-10T11:30:37Z</time>
      </trkpt>
      <trkpt lat="44.08984" lon="7.02174">
        <ele>1812.8</ele>
        <time>2018-06-10T12:03:51Z</time>
      </trkpt>
      <trkpt lat="44.08972" lon="7.0218">
        <ele>1811.2</ele>
        <time>2018-06-10T12:03:54Z</time>
      </trkpt>
      <trkpt lat="44.08956" lon="7.02198">
        <ele>1806.1</ele>
        <time>2018-06-10T12:03:58Z</time>
      </trkpt>
      <trkpt lat="44.0895" lon="7.02223">
        <ele>1800.4</ele>
        <time>2018-06-10T12:04:02Z</time>
      </trkpt>
      <trkpt lat="44.08934" lon="7.02246">
        <ele>1793.4</ele>
        <time>2018-06-10T12:04:06Z</time>
      </trkpt>
      <trkpt lat="44.08914" lon="7.02251">
        <ele>1787.4</ele>
        <time>2018-06-10T12:04:08Z</time>
      </trkpt>
      <trkpt lat="44.08893" lon="7.02257">
        <ele>1781.8</ele>
        <time>2018-06-10T12:04:10Z</time>
      </trkpt>
      <trkpt lat="44.08876" lon="7.02276">
        <ele>1777.4</ele>
        <time>2018-06-10T12:04:12Z</time>
      </trkpt>
      <trkpt lat="44.08861" lon="7.02292">
        <ele>1774</ele>
        <time>2018-06-10T12:04:14Z</time>
      </trkpt>
      <trkpt lat="44.08837" lon="7.02299">
        <ele>1768.5</ele>
        <time>2018-06-10T12:04:17Z</time>
      </trkpt>
      <trkpt lat="44.08818" lon="7.02286">
        <ele>1764.8</ele>
        <time>2018-06-10T12:04:20Z</time>
      </trkpt>
      <trkpt lat="44.08807" lon="7.02264">
        <ele>1766.7</ele>
        <time>2018-06-10T12:04:23Z</time>
      </trkpt>
      <trkpt lat="44.08794" lon="7.02241">
        <ele>1768.7</ele>
        <time>2018-06-10T12:04:27Z</time>
      </trkpt>
      <trkpt lat="44.08786" lon="7.0223">
        <ele>1768.3</ele>
        <time>2018-06-10T12:04:29Z</time>
      </trkpt>
      <trkpt lat="44.08776" lon="7.02233">
        <ele>1766.4</ele>
        <time>2018-06-10T12:04:35Z</time>
      </trkpt>
      <trkpt lat="44.08776" lon="7.02254">
        <ele>1763.8</ele>
        <time>2018-06-10T12:04:40Z</time>
      </trkpt>
      <trkpt lat="44.08766" lon="7.02276">
        <ele>1759</ele>
        <time>2018-06-10T12:04:43Z</time>
      </trkpt>
      <trkpt lat="44.08756" lon="7.02302">
        <ele>1753.9</ele>
        <time>2018-06-10T12:04:46Z</time>
      </trkpt>
      <trkpt lat="44.08747" lon="7.02322">
        <ele>1751.2</ele>
        <time>2018-06-10T12:04:49Z</time>
      </trkpt>
      <trkpt lat="44.08741" lon="7.02346">
        <ele>1747.2</ele>
        <time>2018-06-10T12:04:52Z</time>
      </trkpt>
      <trkpt lat="44.08728" lon="7.02368">
        <ele>1743</ele>
        <time>2018-06-10T12:04:57Z</time>
      </trkpt>
      <trkpt lat="44.08711" lon="7.02378">
        <ele>1743</ele>
        <time>2018-06-10T12:05:01Z</time>
      </trkpt>
      <trkpt lat="44.08698" lon="7.02396">
        <ele>1736.4</ele>
        <time>2018-06-10T12:05:05Z</time>
      </trkpt>
      <trkpt lat="44.08694" lon="7.02402">
        <ele>1735.2</ele>
        <time>2018-06-10T12:05:06Z</time>
      </trkpt>
      <trkpt lat="44.08684" lon="7.02418">
        <ele>1731.2</ele>
        <time>2018-06-10T12:05:08Z</time>
      </trkpt>
      <trkpt lat="44.08681" lon="7.02431">
        <ele>1728.6</ele>
        <time>2018-06-10T12:05:10Z</time>
      </trkpt>
      <trkpt lat="44.08673" lon="7.0245">
        <ele>1724.8</ele>
        <time>2018-06-10T12:05:15Z</time>
      </trkpt>
      <trkpt lat="44.08663" lon="7.02454">
        <ele>1723.6</ele>
        <time>2018-06-10T12:05:17Z</time>
      </trkpt>
      <trkpt lat="44.08645" lon="7.02457">
        <ele>1721.9</ele>
        <time>2018-06-10T12:05:20Z</time>
      </trkpt>
      <trkpt lat="44.08625" lon="7.0246">
        <ele>1720</ele>
        <time>2018-06-10T12:05:23Z</time>
      </trkpt>
      <trkpt lat="44.08603" lon="7.02455">
        <ele>1720.5</ele>
        <time>2018-06-10T12:05:26Z</time>
      </trkpt>
      <trkpt lat="44.08583" lon="7.02468">
        <ele>1718</ele>
        <time>2018-06-10T12:05:29Z</time>
      </trkpt>
      <trkpt lat="44.08573" lon="7.02488">
        <ele>1715.4</ele>
        <time>2018-06-10T12:05:31Z</time>
      </trkpt>
      <trkpt lat="44.08569" lon="7.02498">
        <ele>1713.6</ele>
        <time>2018-06-10T12:05:32Z</time>
      </trkpt>
      <trkpt lat="44.08562" lon="7.0253">
        <ele>1709.7</ele>
        <time>2018-06-10T12:05:35Z</time>
      </trkpt>
      <trkpt lat="44.0855" lon="7.02553">
        <ele>1708.7</ele>
        <time>2018-06-10T12:05:38Z</time>
      </trkpt>
      <trkpt lat="44.08531" lon="7.02564">
        <ele>1709.7</ele>
        <time>2018-06-10T12:05:41Z</time>
      </trkpt>
      <trkpt lat="44.08524" lon="7.02564">
        <ele>1709.7</ele>
        <time>2018-06-10T12:05:42Z</time>
      </trkpt>
      <trkpt lat="44.08518" lon="7.02567">
        <ele>1709.7</ele>
        <time>2018-06-10T12:05:43Z</time>
      </trkpt>
      <trkpt lat="44.08497" lon="7.02579">
        <ele>1710.1</ele>
        <time>2018-06-10T12:05:46Z</time>
      </trkpt>
      <trkpt lat="44.08476" lon="7.02589">
        <ele>1709.9</ele>
        <time>2018-06-10T12:05:49Z</time>
      </trkpt>
      <trkpt lat="44.08453" lon="7.02595">
        <ele>1710.9</ele>
        <time>2018-06-10T12:05:52Z</time>
      </trkpt>
      <trkpt lat="44.08441" lon="7.02596">
        <ele>1711.3</ele>
        <time>2018-06-10T12:05:54Z</time>
      </trkpt>
      <trkpt lat="44.08429" lon="7.02607">
        <ele>1711.1</ele>
        <time>2018-06-10T12:05:57Z</time>
      </trkpt>
      <trkpt lat="44.08407" lon="7.0261">
        <ele>1711.3</ele>
        <time>2018-06-10T12:06:01Z</time>
      </trkpt>
      <trkpt lat="44.0839" lon="7.02621">
        <ele>1709.8</ele>
        <time>2018-06-10T12:06:04Z</time>
      </trkpt>
      <trkpt lat="44.08372" lon="7.02629">
        <ele>1708.3</ele>
        <time>2018-06-10T12:06:07Z</time>
      </trkpt>
      <trkpt lat="44.08353" lon="7.02628">
        <ele>1706.7</ele>
        <time>2018-06-10T12:06:10Z</time>
      </trkpt>
      <trkpt lat="44.08347" lon="7.02627">
        <ele>1706.4</ele>
        <time>2018-06-10T12:06:11Z</time>
      </trkpt>
      <trkpt lat="44.08325" lon="7.02621">
        <ele>1704.6</ele>
        <time>2018-06-10T12:06:14Z</time>
      </trkpt>
      <trkpt lat="44.08301" lon="7.02619">
        <ele>1702.5</ele>
        <time>2018-06-10T12:06:17Z</time>
      </trkpt>
      <trkpt lat="44.0828" lon="7.02611">
        <ele>1700.5</ele>
        <time>2018-06-10T12:06:20Z</time>
      </trkpt>
      <trkpt lat="44.0826" lon="7.02592">
        <ele>1700.9</ele>
        <time>2018-06-10T12:06:24Z</time>
      </trkpt>
      <trkpt lat="44.08246" lon="7.02582">
        <ele>1700.7</ele>
        <time>2018-06-10T12:06:26Z</time>
      </trkpt>
      <trkpt lat="44.08229" lon="7.02572">
        <ele>1699.7</ele>
        <time>2018-06-10T12:06:28Z</time>
      </trkpt>
      <trkpt lat="44.08211" lon="7.02564">
        <ele>1698.5</ele>
        <time>2018-06-10T12:06:30Z</time>
      </trkpt>
      <trkpt lat="44.08192" lon="7.02555">
        <ele>1697.8</ele>
        <time>2018-06-10T12:06:32Z</time>
      </trkpt>
      <trkpt lat="44.08173" lon="7.02551">
        <ele>1697</ele>
        <time>2018-06-10T12:06:34Z</time>
      </trkpt>
      <trkpt lat="44.08155" lon="7.02548">
        <ele>1696.8</ele>
        <time>2018-06-10T12:06:36Z</time>
      </trkpt>
      <trkpt lat="44.08132" lon="7.02565">
        <ele>1695.3</ele>
        <time>2018-06-10T12:06:39Z</time>
      </trkpt>
      <trkpt lat="44.08126" lon="7.02572">
        <ele>1694.9</ele>
        <time>2018-06-10T12:06:40Z</time>
      </trkpt>
      <trkpt lat="44.08117" lon="7.02597">
        <ele>1693.9</ele>
        <time>2018-06-10T12:06:43Z</time>
      </trkpt>
      <trkpt lat="44.08118" lon="7.02627">
        <ele>1692.5</ele>
        <time>2018-06-10T12:06:46Z</time>
      </trkpt>
      <trkpt lat="44.08129" lon="7.02646">
        <ele>1689.6</ele>
        <time>2018-06-10T12:06:49Z</time>
      </trkpt>
      <trkpt lat="44.0815" lon="7.02643">
        <ele>1686.9</ele>
        <time>2018-06-10T12:06:52Z</time>
      </trkpt>
      <trkpt lat="44.08165" lon="7.02642">
        <ele>1685.1</ele>
        <time>2018-06-10T12:06:55Z</time>
      </trkpt>
      <trkpt lat="44.08171" lon="7.02672">
        <ele>1683.2</ele>
        <time>2018-06-10T12:06:59Z</time>
      </trkpt>
      <trkpt lat="44.08179" lon="7.02696">
        <ele>1678.1</ele>
        <time>2018-06-10T12:07:02Z</time>
      </trkpt>
      <trkpt lat="44.08187" lon="7.02712">
        <ele>1676.6</ele>
        <time>2018-06-10T12:07:04Z</time>
      </trkpt>
      <trkpt lat="44.08189" lon="7.02723">
        <ele>1675.8</ele>
        <time>2018-06-10T12:07:05Z</time>
      </trkpt>
      <trkpt lat="44.08184" lon="7.02756">
        <ele>1672.9</ele>
        <time>2018-06-10T12:07:08Z</time>
      </trkpt>
      <trkpt lat="44.08177" lon="7.02781">
        <ele>1670.6</ele>
        <time>2018-06-10T12:07:11Z</time>
      </trkpt>
      <trkpt lat="44.08176" lon="7.0279">
        <ele>1670</ele>
        <time>2018-06-10T12:07:12Z</time>
      </trkpt>
      <trkpt lat="44.08185" lon="7.02819">
        <ele>1667.3</ele>
        <time>2018-06-10T12:07:17Z</time>
      </trkpt>
      <trkpt lat="44.08191" lon="7.02844">
        <ele>1664.7</ele>
        <time>2018-06-10T12:07:20Z</time>
      </trkpt>
      <trkpt lat="44.08188" lon="7.02868">
        <ele>1662.3</ele>
        <time>2018-06-10T12:07:22Z</time>
      </trkpt>
      <trkpt lat="44.08188" lon="7.029">
        <ele>1659</ele>
        <time>2018-06-10T12:07:25Z</time>
      </trkpt>
      <trkpt lat="44.08203" lon="7.02921">
        <ele>1655.2</ele>
        <time>2018-06-10T12:07:30Z</time>
      </trkpt>
      <trkpt lat="44.08192" lon="7.02949">
        <ele>1652.4</ele>
        <time>2018-06-10T12:07:34Z</time>
      </trkpt>
      <trkpt lat="44.08191" lon="7.02956">
        <ele>1651.9</ele>
        <time>2018-06-10T12:07:35Z</time>
      </trkpt>
      <trkpt lat="44.08185" lon="7.02988">
        <ele>1642</ele>
        <time>2018-06-10T12:07:39Z</time>
      </trkpt>
      <trkpt lat="44.08176" lon="7.03016">
        <ele>1637.1</ele>
        <time>2018-06-10T12:07:42Z</time>
      </trkpt>
      <trkpt lat="44.08161" lon="7.0304">
        <ele>1633.5</ele>
        <time>2018-06-10T12:07:46Z</time>
      </trkpt>
      <trkpt lat="44.08142" lon="7.03054">
        <ele>1630.7</ele>
        <time>2018-06-10T12:07:49Z</time>
      </trkpt>
      <trkpt lat="44.08127" lon="7.03065">
        <ele>1626.6</ele>
        <time>2018-06-10T12:07:52Z</time>
      </trkpt>
      <trkpt lat="44.08107" lon="7.03084">
        <ele>1622.1</ele>
        <time>2018-06-10T12:07:55Z</time>
      </trkpt>
      <trkpt lat="44.08086" lon="7.03096">
        <ele>1618.2</ele>
        <time>2018-06-10T12:07:58Z</time>
      </trkpt>
      <trkpt lat="44.08105" lon="7.03113">
        <ele>1613.2</ele>
        <time>2018-06-10T12:08:04Z</time>
      </trkpt>
      <trkpt lat="44.08128" lon="7.03124">
        <ele>1610.7</ele>
        <time>2018-06-10T12:08:07Z</time>
      </trkpt>
      <trkpt lat="44.08135" lon="7.03125">
        <ele>1608.6</ele>
        <time>2018-06-10T12:08:08Z</time>
      </trkpt>
      <trkpt lat="44.08136" lon="7.0313">
        <ele>1607.4</ele>
        <time>2018-06-10T12:08:09Z</time>
      </trkpt>
      <trkpt lat="44.08117" lon="7.0314">
        <ele>1599.5</ele>
        <time>2018-06-10T12:08:13Z</time>
      </trkpt>
      <trkpt lat="44.081" lon="7.03156">
        <ele>1593.5</ele>
        <time>2018-06-10T12:08:18Z</time>
      </trkpt>
      <trkpt lat="44.08079" lon="7.03158">
        <ele>1589.6</ele>
        <time>2018-06-10T12:08:21Z</time>
      </trkpt>
      <trkpt lat="44.08066" lon="7.03164">
        <ele>1587.8</ele>
        <time>2018-06-10T12:08:23Z</time>
      </trkpt>
      <trkpt lat="44.0806" lon="7.03165">
        <ele>1587.1</ele>
        <time>2018-06-10T12:08:24Z</time>
      </trkpt>
      <trkpt lat="44.08043" lon="7.03182">
        <ele>1581.4</ele>
        <time>2018-06-10T12:08:28Z</time>
      </trkpt>
      <trkpt lat="44.08039" lon="7.03188">
        <ele>1579</ele>
        <time>2018-06-10T12:08:29Z</time>
      </trkpt>
      <trkpt lat="44.08036" lon="7.03195">
        <ele>1577.2</ele>
        <time>2018-06-10T12:08:30Z</time>
      </trkpt>
      <trkpt lat="44.08034" lon="7.03225">
        <ele>1570.4</ele>
        <time>2018-06-10T12:08:34Z</time>
      </trkpt>
      <trkpt lat="44.08035" lon="7.03238">
        <ele>1568.6</ele>
        <time>2018-06-10T12:08:39Z</time>
      </trkpt>
      <trkpt lat="44.08036" lon="7.03248">
        <ele>1567.5</ele>
        <time>2018-06-10T12:08:43Z</time>
      </trkpt>
      <trkpt lat="44.08031" lon="7.03255">
        <ele>1566.4</ele>
        <time>2018-06-10T12:08:44Z</time>
      </trkpt>
      <trkpt lat="44.08017" lon="7.03273">
        <ele>1562.9</ele>
        <time>2018-06-10T12:08:47Z</time>
      </trkpt>
      <trkpt lat="44.08011" lon="7.03284">
        <ele>1561.7</ele>
        <time>2018-06-10T12:08:49Z</time>
      </trkpt>
      <trkpt lat="44.07993" lon="7.03297">
        <ele>1559.1</ele>
        <time>2018-06-10T12:08:54Z</time>
      </trkpt>
      <trkpt lat="44.07992" lon="7.03302">
        <ele>1558.1</ele>
        <time>2018-06-10T12:08:55Z</time>
      </trkpt>
      <trkpt lat="44.07985" lon="7.03328">
        <ele>1551.7</ele>
        <time>2018-06-10T12:09:00Z</time>
      </trkpt>
      <trkpt lat="44.0798" lon="7.03339">
        <ele>1548.9</ele>
        <time>2018-06-10T12:09:02Z</time>
      </trkpt>
      <trkpt lat="44.07977" lon="7.03353">
        <ele>1545.6</ele>
        <time>2018-06-10T12:09:04Z</time>
      </trkpt>
      <trkpt lat="44.07976" lon="7.03373">
        <ele>1541.5</ele>
        <time>2018-06-10T12:09:07Z</time>
      </trkpt>
      <trkpt lat="44.07974" lon="7.03395">
        <ele>1537.6</ele>
        <time>2018-06-10T12:09:10Z</time>
      </trkpt>
      <trkpt lat="44.07964" lon="7.03421">
        <ele>1532.5</ele>
        <time>2018-06-10T12:09:13Z</time>
      </trkpt>
      <trkpt lat="44.07951" lon="7.03434">
        <ele>1530.8</ele>
        <time>2018-06-10T12:09:16Z</time>
      </trkpt>
      <trkpt lat="44.07932" lon="7.03452">
        <ele>1525.7</ele>
        <time>2018-06-10T12:09:20Z</time>
      </trkpt>
      <trkpt lat="44.07927" lon="7.03456">
        <ele>1525.3</ele>
        <time>2018-06-10T12:09:21Z</time>
      </trkpt>
      <trkpt lat="44.07918" lon="7.03476">
        <ele>1523.6</ele>
        <time>2018-06-10T12:09:26Z</time>
      </trkpt>
      <trkpt lat="44.07922" lon="7.03489">
        <ele>1523.3</ele>
        <time>2018-06-10T12:09:28Z</time>
      </trkpt>
      <trkpt lat="44.07928" lon="7.03514">
        <ele>1521.3</ele>
        <time>2018-06-10T12:09:31Z</time>
      </trkpt>
      <trkpt lat="44.07937" lon="7.03546">
        <ele>1517</ele>
        <time>2018-06-10T12:09:34Z</time>
      </trkpt>
      <trkpt lat="44.07942" lon="7.03567">
        <ele>1512.2</ele>
        <time>2018-06-10T12:09:36Z</time>
      </trkpt>
      <trkpt lat="44.07951" lon="7.03601">
        <ele>1505.2</ele>
        <time>2018-06-10T12:09:39Z</time>
      </trkpt>
      <trkpt lat="44.07968" lon="7.03623">
        <ele>1503.4</ele>
        <time>2018-06-10T12:09:42Z</time>
      </trkpt>
      <trkpt lat="44.07988" lon="7.03629">
        <ele>1501.3</ele>
        <time>2018-06-10T12:09:45Z</time>
      </trkpt>
      <trkpt lat="44.08007" lon="7.03626">
        <ele>1497.8</ele>
        <time>2018-06-10T12:09:49Z</time>
      </trkpt>
      <trkpt lat="44.08014" lon="7.03608">
        <ele>1494.7</ele>
        <time>2018-06-10T12:09:56Z</time>
      </trkpt>
      <trkpt lat="44.08021" lon="7.03607">
        <ele>1493.5</ele>
        <time>2018-06-10T12:09:59Z</time>
      </trkpt>
      <trkpt lat="44.08025" lon="7.03605">
        <ele>1492.8</ele>
        <time>2018-06-10T12:10:01Z</time>
      </trkpt>
      <trkpt lat="44.08036" lon="7.03612">
        <ele>1489.9</ele>
        <time>2018-06-10T12:10:05Z</time>
      </trkpt>
      <trkpt lat="44.08039" lon="7.03613">
        <ele>1489.3</ele>
        <time>2018-06-10T12:10:06Z</time>
      </trkpt>
      <trkpt lat="44.08046" lon="7.0361">
        <ele>1489.5</ele>
        <time>2018-06-10T12:10:10Z</time>
      </trkpt>
      <trkpt lat="44.08061" lon="7.03604">
        <ele>1490.1</ele>
        <time>2018-06-10T12:10:17Z</time>
      </trkpt>
      <trkpt lat="44.08065" lon="7.0361">
        <ele>1489.5</ele>
        <time>2018-06-10T12:10:19Z</time>
      </trkpt>
      <trkpt lat="44.08076" lon="7.03627">
        <ele>1489</ele>
        <time>2018-06-10T12:10:25Z</time>
      </trkpt>
      <trkpt lat="44.08077" lon="7.03653">
        <ele>1488.2</ele>
        <time>2018-06-10T12:10:28Z</time>
      </trkpt>
      <trkpt lat="44.0808" lon="7.03683">
        <ele>1486</ele>
        <time>2018-06-10T12:10:31Z</time>
      </trkpt>
      <trkpt lat="44.08087" lon="7.03707">
        <ele>1484.3</ele>
        <time>2018-06-10T12:10:33Z</time>
      </trkpt>
      <trkpt lat="44.08094" lon="7.0373">
        <ele>1483.2</ele>
        <time>2018-06-10T12:10:35Z</time>
      </trkpt>
      <trkpt lat="44.08101" lon="7.03763">
        <ele>1481</ele>
        <time>2018-06-10T12:10:38Z</time>
      </trkpt>
      <trkpt lat="44.08104" lon="7.03784">
        <ele>1473</ele>
        <time>2018-06-10T12:10:40Z</time>
      </trkpt>
      <trkpt lat="44.08101" lon="7.03811">
        <ele>1471.5</ele>
        <time>2018-06-10T12:10:44Z</time>
      </trkpt>
      <trkpt lat="44.08098" lon="7.03814">
        <ele>1471</ele>
        <time>2018-06-10T12:10:47Z</time>
      </trkpt>
      <trkpt lat="44.081" lon="7.03824">
        <ele>1469.9</ele>
        <time>2018-06-10T12:13:08Z</time>
      </trkpt>
      <trkpt lat="44.08107" lon="7.03847">
        <ele>1466.9</ele>
        <time>2018-06-10T12:13:11Z</time>
      </trkpt>
      <trkpt lat="44.08123" lon="7.03847">
        <ele>1464.4</ele>
        <time>2018-06-10T12:13:17Z</time>
      </trkpt>
      <trkpt lat="44.08121" lon="7.03826">
        <ele>1462.4</ele>
        <time>2018-06-10T12:13:22Z</time>
      </trkpt>
      <trkpt lat="44.08121" lon="7.03823">
        <ele>1462.3</ele>
        <time>2018-06-10T12:13:23Z</time>
      </trkpt>
      <trkpt lat="44.08124" lon="7.03824">
        <ele>1462</ele>
        <time>2018-06-10T12:13:25Z</time>
      </trkpt>
      <trkpt lat="44.08131" lon="7.03854">
        <ele>1459.1</ele>
        <time>2018-06-10T12:13:30Z</time>
      </trkpt>
      <trkpt lat="44.08132" lon="7.03862">
        <ele>1458.4</ele>
        <time>2018-06-10T12:13:31Z</time>
      </trkpt>
      <trkpt lat="44.08135" lon="7.03894">
        <ele>1455.9</ele>
        <time>2018-06-10T12:13:34Z</time>
      </trkpt>
      <trkpt lat="44.08135" lon="7.03927">
        <ele>1453.4</ele>
        <time>2018-06-10T12:13:37Z</time>
      </trkpt>
      <trkpt lat="44.08133" lon="7.03937">
        <ele>1452.5</ele>
        <time>2018-06-10T12:13:38Z</time>
      </trkpt>
      <trkpt lat="44.08116" lon="7.03946">
        <ele>1451</ele>
        <time>2018-06-10T12:13:42Z</time>
      </trkpt>
      <trkpt lat="44.08113" lon="7.03944">
        <ele>1451</ele>
        <time>2018-06-10T12:13:44Z</time>
      </trkpt>
      <trkpt lat="44.0811" lon="7.03944">
        <ele>1451</ele>
        <time>2018-06-10T12:13:48Z</time>
      </trkpt>
      <trkpt lat="44.08115" lon="7.03946">
        <ele>1451</ele>
        <time>2018-06-10T12:14:43Z</time>
      </trkpt>
      <trkpt lat="44.08134" lon="7.03951">
        <ele>1451</ele>
        <time>2018-06-10T12:14:48Z</time>
      </trkpt>
      <trkpt lat="44.08139" lon="7.03949">
        <ele>1451.1</ele>
        <time>2018-06-10T12:14:49Z</time>
      </trkpt>
      <trkpt lat="44.08153" lon="7.03945">
        <ele>1451.1</ele>
        <time>2018-06-10T12:14:52Z</time>
      </trkpt>
      <trkpt lat="44.08174" lon="7.03959">
        <ele>1449.6</ele>
        <time>2018-06-10T12:14:56Z</time>
      </trkpt>
      <trkpt lat="44.08194" lon="7.0398">
        <ele>1447.7</ele>
        <time>2018-06-10T12:14:59Z</time>
      </trkpt>
      <trkpt lat="44.08214" lon="7.04001">
        <ele>1445.3</ele>
        <time>2018-06-10T12:15:02Z</time>
      </trkpt>
      <trkpt lat="44.08235" lon="7.0402">
        <ele>1441.1</ele>
        <time>2018-06-10T12:15:05Z</time>
      </trkpt>
      <trkpt lat="44.08251" lon="7.04041">
        <ele>1438.2</ele>
        <time>2018-06-10T12:15:08Z</time>
      </trkpt>
      <trkpt lat="44.08263" lon="7.04069">
        <ele>1433.6</ele>
        <time>2018-06-10T12:15:11Z</time>
      </trkpt>
      <trkpt lat="44.08268" lon="7.04102">
        <ele>1429.7</ele>
        <time>2018-06-10T12:15:14Z</time>
      </trkpt>
      <trkpt lat="44.08273" lon="7.04136">
        <ele>1426.7</ele>
        <time>2018-06-10T12:15:17Z</time>
      </trkpt>
      <trkpt lat="44.08284" lon="7.04159">
        <ele>1425.2</ele>
        <time>2018-06-10T12:15:20Z</time>
      </trkpt>
      <trkpt lat="44.08297" lon="7.0418">
        <ele>1425</ele>
        <time>2018-06-10T12:15:24Z</time>
      </trkpt>
      <trkpt lat="44.083" lon="7.04186">
        <ele>1425</ele>
        <time>2018-06-10T12:15:25Z</time>
      </trkpt>
      <trkpt lat="44.08306" lon="7.04215">
        <ele>1425</ele>
        <time>2018-06-10T12:15:29Z</time>
      </trkpt>
      <trkpt lat="44.08308" lon="7.04223">
        <ele>1425</ele>
        <time>2018-06-10T12:15:30Z</time>
      </trkpt>
      <trkpt lat="44.08327" lon="7.04237">
        <ele>1426.6</ele>
        <time>2018-06-10T12:15:34Z</time>
      </trkpt>
      <trkpt lat="44.08346" lon="7.04243">
        <ele>1429</ele>
        <time>2018-06-10T12:15:38Z</time>
      </trkpt>
      <trkpt lat="44.0835" lon="7.04245">
        <ele>1429.4</ele>
        <time>2018-06-10T12:15:39Z</time>
      </trkpt>
      <trkpt lat="44.08358" lon="7.04248">
        <ele>1429.9</ele>
        <time>2018-06-10T12:15:44Z</time>
      </trkpt>
    </trkseg>
  </trk>
</gpx>